Provisional Data: Kitchen Creek near Huntington Mills, PA


Please select a monitoring station.
Please select start date.
Please select start date.

Toggle Unit: C/F Toggle Unit: C/F
Sample Time Temperature (C) Temperature (F) Specific Conductivity (mS/cm) pH   Turbidity (NTU+) DO (mg/L)
4/13/2022 12:00:00 AM 9.29 48.722 0.055 6.61 0.57 11.12
4/13/2022 12:15:00 AM 9.22 48.596 0.055 6.61 0.55 11.14
4/13/2022 12:30:00 AM 9.15 48.47 0.055 6.61 0.53 11.15
4/13/2022 12:45:00 AM 9.08 48.344 0.055 6.6 0.48 11.17
4/13/2022 1:00:00 AM 9.01 48.218 0.055 6.6 0.46 11.19
4/13/2022 1:15:00 AM 8.94 48.092 0.055 6.6 0.46 11.21
4/13/2022 1:30:00 AM 8.87 47.966 0.055 6.61 0.38 11.24
4/13/2022 1:45:00 AM 8.81 47.858 0.055 6.61 0.51 11.26
4/13/2022 2:00:00 AM 8.74 47.732 0.055 6.61 0.46 11.27
4/13/2022 2:15:00 AM 8.69 47.642 0.055 6.6 0.52 11.29
4/13/2022 2:30:00 AM 8.64 47.552 0.055 6.61 0.5 11.31
4/13/2022 2:45:00 AM 8.59 47.462 0.055 6.61 0.4 11.32
4/13/2022 3:00:00 AM 8.55 47.39 0.055 6.6 0.43 11.33
4/13/2022 3:15:00 AM 8.51 47.318 0.055 6.61 0.42 11.34
4/13/2022 3:30:00 AM 8.47 47.246 0.055 6.6 0.4 11.35
4/13/2022 3:45:00 AM 8.44 47.192 0.055 6.6 0.38 11.35
4/13/2022 4:00:00 AM 8.41 47.138 0.055 6.61 0.46 11.36
4/13/2022 4:15:00 AM 8.38 47.084 0.055 6.6 0.43 11.38
4/13/2022 4:30:00 AM 8.35 47.03 0.055 6.59 0.42 11.38
4/13/2022 4:45:00 AM 8.33 46.994 0.055 6.59 0.43 11.39
4/13/2022 5:00:00 AM 8.3 46.94 0.055 6.58 0.42 11.4
4/13/2022 5:15:00 AM 8.28 46.904 0.055 6.59 0.44 11.41
4/13/2022 5:30:00 AM 8.25 46.85 0.055 6.58 0.39 11.42
4/13/2022 5:45:00 AM 8.23 46.814 0.055 6.57 0.37 11.43
4/13/2022 6:00:00 AM 8.21 46.778 0.055 6.57 0.38 11.44
4/13/2022 6:15:00 AM 8.19 46.742 0.055 6.58 0.42 11.44
4/13/2022 6:30:00 AM 8.18 46.724 0.055 6.58 0.41 11.45
4/13/2022 6:45:00 AM 8.16 46.688 0.055 6.58 0.35 11.46
4/13/2022 7:00:00 AM 8.15 46.67 0.055 6.56 0.35 11.47
4/13/2022 7:15:00 AM 8.14 46.652 0.055 6.58 0.38 11.49
4/13/2022 7:30:00 AM 8.14 46.652 0.055 6.59 0.28 11.51
4/13/2022 7:45:00 AM 8.14 46.652 0.055 6.59 0.35 11.52
4/13/2022 8:00:00 AM 8.14 46.652 0.055 6.6 0.31 11.54
4/13/2022 8:15:00 AM 8.16 46.688 0.055 6.6 0.3 11.56
4/13/2022 8:30:00 AM 8.17 46.706 0.055 6.62 0.3 11.56
4/13/2022 8:45:00 AM 8.2 46.76 0.055 6.62 0.26 11.56
4/13/2022 9:00:00 AM 8.24 46.832 0.055 6.62 0.23 11.56
4/13/2022 9:15:00 AM 8.3 46.94 0.054 6.63 0.24 11.55
4/13/2022 9:30:00 AM 8.37 47.066 0.054 6.63 0.28 11.53
4/13/2022 9:45:00 AM 8.46 47.228 0.054 6.66 0.31 11.51
4/13/2022 10:00:00 AM 8.58 47.444 0.054 6.67 0.4 11.5
4/13/2022 10:15:00 AM 8.71 47.678 0.054 6.66 0.72 11.48
4/13/2022 10:30:00 AM 8.88 47.984 0.054 6.67 0.71 11.44
4/13/2022 10:45:00 AM 9.08 48.344 0.054 6.68 0.55 11.39
4/13/2022 11:00:00 AM 9.26 48.668 0.054 6.68 0.46 11.35
4/13/2022 11:15:00 AM 9.41 48.938 0.054 6.69 0.3 11.3
4/13/2022 11:30:00 AM 9.53 49.154 0.054 6.69 0.26 11.25
4/13/2022 11:45:00 AM 9.64 49.352 0.054 6.69 0.27 11.22
4/13/2022 12:00:00 PM 9.77 49.586 0.054 6.69 0.3 11.17
4/13/2022 12:15:00 PM 9.84 49.712 0.054 6.69 0.28 11.16
4/13/2022 12:30:00 PM 9.94 49.892 0.054 6.7 0.4 11.14
4/13/2022 12:45:00 PM 10.01 50.018 0.054 6.7 0.21 11.1
4/13/2022 1:00:00 PM 10.18 50.324 0.055 6.71 0.25 11.07
4/13/2022 1:15:00 PM 10.28 50.504 0.055 6.71 0.33 11.03
4/13/2022 1:30:00 PM 10.38 50.684 0.055 6.71 0.31 11.01
4/13/2022 1:45:00 PM 10.46 50.828 0.055 6.71 0.27 10.98
4/13/2022 2:00:00 PM 10.51 50.918 0.055 6.71 0.25 10.96
4/13/2022 2:15:00 PM 10.55 50.99 0.055 6.71 0.32 10.94
4/13/2022 2:30:00 PM 10.66 51.188 0.055 6.71 0.25 10.93
4/13/2022 2:45:00 PM 10.73 51.314 0.055 6.7 0.36 10.9
4/13/2022 3:00:00 PM 10.79 51.422 0.055 6.71 0.34 10.88
4/13/2022 3:15:00 PM 10.84 51.512 0.055 6.71 0.37 10.84
4/13/2022 3:30:00 PM 10.92 51.656 0.055 6.71 0.32 10.82
4/13/2022 3:45:00 PM 11 51.8 0.055 6.7 0.21 10.8
4/13/2022 4:00:00 PM 11.02 51.836 0.055 6.71 0.33 10.78
4/13/2022 4:15:00 PM 11.08 51.944 0.055 6.7 0.31 10.76
4/13/2022 4:30:00 PM 11.18 52.124 0.055 6.7 0.32 10.75
4/13/2022 4:45:00 PM 11.23 52.214 0.055 6.71 0.33 10.73
4/13/2022 5:00:00 PM 11.28 52.304 0.055 6.71 0.32 10.7
4/13/2022 5:15:00 PM 11.31 52.358 0.055 6.66 0.35 10.69
4/13/2022 5:30:00 PM 11.32 52.376 0.055 6.7 0.3 10.67
4/13/2022 5:45:00 PM 11.34 52.412 0.055 6.69 0.33 10.65
4/13/2022 6:00:00 PM 11.34 52.412 0.055 6.68 0.33 10.64
4/13/2022 6:15:00 PM 11.33 52.394 0.055 6.68 0.37 10.63
4/13/2022 6:30:00 PM 11.33 52.394 0.055 6.66 0.39 10.61
4/13/2022 6:45:00 PM 11.33 52.394 0.055 6.66 0.31 10.6
4/13/2022 7:00:00 PM 11.32 52.376 0.055 6.65 0.31 10.59
4/13/2022 7:15:00 PM 11.3 52.34 0.055 6.63 0.37 10.57
4/13/2022 7:30:00 PM 11.28 52.304 0.055 6.61 0.41 10.56
4/13/2022 7:45:00 PM 11.27 52.286 0.055 6.61 0.39 10.54
4/13/2022 8:00:00 PM 11.25 52.25 0.055 6.6 0.49 10.53
4/13/2022 8:15:00 PM 11.23 52.214 0.055 6.59 0.5 10.53
4/13/2022 8:30:00 PM 11.21 52.178 0.055 6.59 0.51 10.53
4/13/2022 8:45:00 PM 11.19 52.142 0.055 6.58 0.49 10.53
4/13/2022 9:00:00 PM 11.17 52.106 0.055 6.59 0.59 10.53
4/13/2022 9:15:00 PM 11.14 52.052 0.055 6.6 0.59 10.54
4/13/2022 9:30:00 PM 11.11 51.998 0.055 6.6 0.55 10.54
4/13/2022 9:45:00 PM 11.09 51.962 0.055 6.59 0.51 10.54
4/13/2022 10:00:00 PM 11.06 51.908 0.055 6.6 0.6 10.55
4/13/2022 10:15:00 PM 11.03 51.854 0.055 6.53 0.57 10.55
4/13/2022 10:30:00 PM 11.01 51.818 0.055 6.59 0.51 10.56
4/13/2022 10:45:00 PM 10.99 51.782 0.056 6.58 0.49 10.56
4/13/2022 11:00:00 PM 10.98 51.764 0.056 6.59 0.57 10.56
4/13/2022 11:15:00 PM 10.95 51.71 0.056 6.58 0.57 10.57
4/13/2022 11:30:00 PM 10.92 51.656 0.056 6.58 0.51 10.58
4/13/2022 11:45:00 PM 10.89 51.602 0.056 6.58 0.54 10.58
4/14/2022 12:00:00 AM 10.86 51.548 0.056 6.58 0.61 10.59
4/14/2022 12:15:00 AM 10.82 51.476 0.056 6.58 0.55 10.6
4/14/2022 12:30:00 AM 10.79 51.422 0.056 6.58 0.54 10.61
4/14/2022 12:45:00 AM 10.75 51.35 0.056 6.58 0.53 10.62
4/14/2022 1:00:00 AM 10.71 51.278 0.056 6.58 0.52 10.62
4/14/2022 1:15:00 AM 10.68 51.224 0.056 6.58 0.6 10.63
4/14/2022 1:30:00 AM 10.63 51.134 0.056 6.58 0.6 10.65
4/14/2022 1:45:00 AM 10.59 51.062 0.056 6.57 0.59 10.65
4/14/2022 2:00:00 AM 10.56 51.008 0.056 6.59 0.5 10.66
4/14/2022 2:15:00 AM 10.53 50.954 0.056 6.59 0.55 10.67
4/14/2022 2:30:00 AM 10.5 50.9 0.056 6.59 0.63 10.68
4/14/2022 2:45:00 AM 10.47 50.846 0.056 6.58 0.54 10.68
4/14/2022 3:00:00 AM 10.44 50.792 0.056 6.58 0.55 10.68
4/14/2022 3:15:00 AM 10.41 50.738 0.056 6.57 0.55 10.69
4/14/2022 3:30:00 AM 10.38 50.684 0.056 6.57 0.54 10.7
4/14/2022 3:45:00 AM 10.36 50.648 0.056 6.56 0.53 10.7
4/14/2022 4:00:00 AM 10.33 50.594 0.056 6.55 0.6 10.72
4/14/2022 4:15:00 AM 10.29 50.522 0.056 6.56 0.6 10.72
4/14/2022 4:30:00 AM 10.25 50.45 0.056 6.55 0.58 10.73
4/14/2022 4:45:00 AM 10.22 50.396 0.056 6.56 0.55 10.75
4/14/2022 5:00:00 AM 10.18 50.324 0.055 6.56 0.53 10.76
4/14/2022 5:15:00 AM 10.14 50.252 0.055 6.57 0.5 10.77
4/14/2022 5:30:00 AM 10.1 50.18 0.055 6.56 0.52 10.77
4/14/2022 5:45:00 AM 10.07 50.126 0.055 6.56 0.49 10.79
4/14/2022 6:00:00 AM 10.03 50.054 0.055 6.57 0.58 10.8
4/14/2022 6:15:00 AM 9.99 49.982 0.055 6.57 0.64 10.81
4/14/2022 6:30:00 AM 9.95 49.91 0.055 6.57 0.53 10.82
4/14/2022 6:45:00 AM 9.92 49.856 0.055 6.56 0.58 10.84
4/14/2022 7:00:00 AM 9.88 49.784 0.055 6.54 0.53 10.86
4/14/2022 7:15:00 AM 9.85 49.73 0.055 6.59 0.51 10.87
4/14/2022 7:30:00 AM 9.82 49.676 0.055 6.59 0.48 10.89
4/14/2022 7:45:00 AM 9.8 49.64 0.055 6.6 0.51 10.91
4/14/2022 8:00:00 AM 9.79 49.622 0.055 6.61 0.53 10.93
4/14/2022 8:15:00 AM 9.78 49.604 0.055 6.62 0.61 10.95
4/14/2022 8:30:00 AM 9.79 49.622 0.055 6.63 0.51 10.97
4/14/2022 8:45:00 AM 9.81 49.658 0.055 6.63 0.47 10.99
4/14/2022 9:00:00 AM 9.86 49.748 0.055 6.63 0.51 11
4/14/2022 9:15:00 AM 9.93 49.874 0.055 6.64 0.51 11
4/14/2022 9:30:00 AM 10.03 50.054 0.055 6.65 0.4 10.99
4/14/2022 9:45:00 AM 10.14 50.252 0.055 6.68 0.31 10.97
4/14/2022 10:00:00 AM 10.28 50.504 0.055 6.7 0.4 10.94
4/14/2022 10:15:00 AM 10.43 50.774 0.055 6.71 0.37 10.91
4/14/2022 10:30:00 AM 10.64 51.152 0.055 6.71 0.41 10.89
4/14/2022 10:45:00 AM 10.87 51.566 0.055 6.71 0.32 10.83
4/14/2022 11:00:00 AM 11.01 51.818 0.055 6.72 0.38 10.77
4/14/2022 11:15:00 AM 11.31 52.358 0.055 6.72 0.5 10.74
4/14/2022 11:30:00 AM 11.59 52.862 0.055 6.73 0.35 10.67
4/14/2022 11:45:00 AM 11.82 53.276 0.055 6.71 0.5 10.61
4/14/2022 12:00:00 PM 11.94 53.492 0.055 6.73 0.42 10.55
4/14/2022 12:15:00 PM 12.01 53.618 0.055 6.69 0.46 10.5
4/14/2022 12:30:00 PM 12.09 53.762 0.055 6.73 0.4 10.49
4/14/2022 12:45:00 PM 12.14 53.852 0.055 6.74 0.4 10.48
4/14/2022 1:00:00 PM 12.12 53.816 0.055 6.73 0.45 10.46
4/14/2022 1:15:00 PM 12.11 53.798 0.055 6.74 0.43 10.47
4/14/2022 1:30:00 PM 12.14 53.852 0.056 6.74 0.46 10.46
4/14/2022 1:45:00 PM 12.14 53.852 0.056 6.74 0.46 10.45
4/14/2022 2:00:00 PM 12.1 53.78 0.056 6.74 0.41 10.46
4/14/2022 2:15:00 PM 12.05 53.69 0.056 6.71 0.44 10.44
4/14/2022 2:30:00 PM 12.01 53.618 0.056 6.72 0.44 10.43
4/14/2022 2:45:00 PM 11.99 53.582 0.056 6.72 0.44 10.45
4/14/2022 3:00:00 PM 12 53.6 0.056 6.73 0.45 10.48
4/14/2022 3:15:00 PM 12.01 53.618 0.056 6.72 0.45 10.49
4/14/2022 3:30:00 PM 11.96 53.528 0.056 6.72 0.33 10.46
4/14/2022 3:45:00 PM 11.91 53.438 0.056 6.71 0.45 10.47
4/14/2022 4:00:00 PM 11.85 53.33 0.056 6.7 0.48 10.46
4/14/2022 4:15:00 PM 11.79 53.222 0.056 6.69 0.42 10.47
4/14/2022 4:30:00 PM 11.73 53.114 0.055 6.7 0.48 10.5
4/14/2022 4:45:00 PM 11.69 53.042 0.055 6.69 0.44 10.52
4/14/2022 5:00:00 PM 11.65 52.97 0.055 6.7 0.43 10.53
4/14/2022 5:15:00 PM 11.62 52.916 0.055 6.71 0.43 10.54
4/14/2022 5:30:00 PM 11.61 52.898 0.055 6.7 0.44 10.57
4/14/2022 5:45:00 PM 11.58 52.844 0.055 6.67 0.37 10.57
4/14/2022 6:00:00 PM 11.55 52.79 0.055 6.72 0.38 10.57
4/14/2022 6:15:00 PM 11.52 52.736 0.055 6.71 0.59 10.57
4/14/2022 6:30:00 PM 11.49 52.682 0.055 6.69 0.41 10.56
4/14/2022 6:45:00 PM 11.45 52.61 0.055 6.69 0.4 10.55
4/14/2022 7:00:00 PM 11.41 52.538 0.055 6.68 0.44 10.55
4/14/2022 7:15:00 PM 11.37 52.466 0.055 6.68 0.41 10.56
4/14/2022 7:30:00 PM 11.34 52.412 0.055 6.66 0.46 10.56
4/14/2022 7:45:00 PM 11.28 52.304 0.055 6.65 0.4 10.56
4/14/2022 8:00:00 PM 11.22 52.196 0.055 6.65 0.41 10.56
4/14/2022 8:15:00 PM 11.15 52.07 0.055 6.64 0.58 10.57
4/14/2022 8:30:00 PM 11.07 51.926 0.055 6.64 0.46 10.59
4/14/2022 8:45:00 PM 10.99 51.782 0.055 6.63 0.74 10.6
4/14/2022 9:00:00 PM 10.91 51.638 0.056 6.61 0.57 10.63
4/14/2022 9:15:00 PM 10.82 51.476 0.056 6.66 0.59 10.65
4/14/2022 9:30:00 PM 10.74 51.332 0.056 6.65 0.56 10.68
4/14/2022 9:45:00 PM 10.65 51.17 0.056 6.65 0.55 10.7
4/14/2022 10:00:00 PM 10.56 51.008 0.056 6.66 0.58 10.73
4/14/2022 10:15:00 PM 10.47 50.846 0.056 6.64 0.55 10.75
4/14/2022 10:30:00 PM 10.39 50.702 0.056 6.64 0.6 10.77
4/14/2022 10:45:00 PM 10.3 50.54 0.056 6.65 0.53 10.79
4/14/2022 11:00:00 PM 10.21 50.378 0.056 6.64 0.5 10.82
4/14/2022 11:15:00 PM 10.12 50.216 0.056 6.64 0.52 10.85
4/14/2022 11:30:00 PM 10.03 50.054 0.056 6.64 0.49 10.88
4/14/2022 11:45:00 PM 9.95 49.91 0.056 6.64 0.49 10.9
4/15/2022 12:00:00 AM 9.85 49.73 0.056 6.64 0.5 10.92
4/15/2022 12:15:00 AM 9.76 49.568 0.056 6.63 0.53 10.94
4/15/2022 12:30:00 AM 9.66 49.388 0.056 6.63 0.56 10.97
4/15/2022 12:45:00 AM 9.57 49.226 0.056 6.63 0.54 11
4/15/2022 1:00:00 AM 9.48 49.064 0.056 6.61 0.49 11.03
4/15/2022 1:15:00 AM 9.39 48.902 0.056 6.63 0.48 11.06
4/15/2022 1:30:00 AM 9.29 48.722 0.056 6.63 0.46 11.09
4/15/2022 1:45:00 AM 9.2 48.56 0.056 6.64 0.47 11.11
4/15/2022 2:00:00 AM 9.1 48.38 0.056 6.63 0.51 11.13
4/15/2022 2:15:00 AM 9.01 48.218 0.056 6.64 0.43 11.16
4/15/2022 2:30:00 AM 8.91 48.038 0.056 6.63 0.47 11.19
4/15/2022 2:45:00 AM 8.82 47.876 0.056 6.64 0.39 11.22
4/15/2022 3:00:00 AM 8.73 47.714 0.056 6.58 0.41 11.25
4/15/2022 3:15:00 AM 8.64 47.552 0.056 6.63 0.43 11.27
4/15/2022 3:30:00 AM 8.55 47.39 0.056 6.61 0.46 11.3
4/15/2022 3:45:00 AM 8.46 47.228 0.056 6.62 0.38 11.32
4/15/2022 4:00:00 AM 8.36 47.048 0.056 6.62 0.38 11.35
4/15/2022 4:15:00 AM 8.27 46.886 0.056 6.63 0.37 11.38
4/15/2022 4:30:00 AM 8.18 46.724 0.056 6.62 0.4 11.42
4/15/2022 4:45:00 AM 8.09 46.562 0.056 6.62 0.38 11.45
4/15/2022 5:00:00 AM 8.01 46.418 0.056 6.63 0.39 11.47
4/15/2022 5:15:00 AM 7.92 46.256 0.056 6.63 0.34 11.49
4/15/2022 5:30:00 AM 7.83 46.094 0.056 6.62 0.37 11.51
4/15/2022 5:45:00 AM 7.75 45.95 0.056 6.62 0.3 11.53
4/15/2022 6:00:00 AM 7.66 45.788 0.056 6.63 0.37 11.57
4/15/2022 6:15:00 AM 7.58 45.644 0.056 6.62 0.34 11.6
4/15/2022 6:30:00 AM 7.5 45.5 0.056 6.63 0.43 11.64
4/15/2022 6:45:00 AM 7.42 45.356 0.056 6.62 0.34 11.67
4/15/2022 7:00:00 AM 7.35 45.23 0.056 6.63 0.4 11.72
4/15/2022 7:15:00 AM 7.28 45.104 0.056 6.63 0.38 11.74
4/15/2022 7:30:00 AM 7.22 44.996 0.056 6.64 0.28 11.77
4/15/2022 7:45:00 AM 7.17 44.906 0.056 6.64 0.3 11.8
4/15/2022 8:00:00 AM 7.12 44.816 0.056 6.65 0.27 11.84
4/15/2022 8:15:00 AM 7.09 44.762 0.056 6.64 0.21 11.87
4/15/2022 8:30:00 AM 7.08 44.744 0.056 6.66 0.22 11.89
4/15/2022 8:45:00 AM 7.08 44.744 0.056 6.66 0.2 11.91
4/15/2022 9:00:00 AM 7.11 44.798 0.055 6.66 0.24 11.92
4/15/2022 9:15:00 AM 7.16 44.888 0.055 6.67 0.16 11.92
4/15/2022 9:30:00 AM 7.24 45.032 0.055 6.67 0.16 11.92
4/15/2022 9:45:00 AM 7.33 45.194 0.055 6.68 0.11 11.91
4/15/2022 10:00:00 AM 7.44 45.392 0.055 6.67 0.15 11.88
4/15/2022 10:15:00 AM 7.58 45.644 0.055 6.7 0.1 11.85
4/15/2022 10:30:00 AM 7.73 45.914 0.055 6.7 0.1 11.8
4/15/2022 10:45:00 AM 7.91 46.238 0.055 6.71 0.07 11.77
4/15/2022 11:00:00 AM 8.1 46.58 0.055 6.71 0.08 11.73
4/15/2022 11:15:00 AM 8.32 46.976 0.055 6.72 0.09 11.66
4/15/2022 11:30:00 AM 8.56 47.408 0.055 6.69 0.11 11.59
4/15/2022 11:45:00 AM 8.82 47.876 0.055 6.72 0.06 11.53
4/15/2022 12:00:00 PM 9.11 48.398 0.055 6.7 0.1 11.44
4/15/2022 12:15:00 PM 9.4 48.92 0.055 6.72 0.11 11.37
4/15/2022 12:30:00 PM 9.68 49.424 0.055 6.72 0.13 11.29
4/15/2022 12:45:00 PM 9.94 49.892 0.055 6.73 0.08 11.22
4/15/2022 1:00:00 PM 10.19 50.342 0.055 6.71 0.08 11.15
4/15/2022 1:15:00 PM 10.4 50.72 0.055 6.73 0.15 11.08
4/15/2022 1:30:00 PM 10.55 50.99 0.055 6.73 0.04 11.05
4/15/2022 1:45:00 PM 10.68 51.224 0.055 6.73 0.13 11
4/15/2022 2:00:00 PM 10.8 51.44 0.055 6.73 0.12 10.96
4/15/2022 2:15:00 PM 10.87 51.566 0.055 6.73 0.13 10.92
4/15/2022 2:30:00 PM 10.93 51.674 0.055 6.74 0.13 10.9
4/15/2022 2:45:00 PM 10.96 51.728 0.055 6.73 0.11 10.86
4/15/2022 3:00:00 PM 10.98 51.764 0.055 6.73 0.15 10.85
4/15/2022 3:15:00 PM 11.01 51.818 0.055 6.73 0.18 10.83
4/15/2022 3:30:00 PM 10.98 51.764 0.055 6.71 0.16 10.82
4/15/2022 3:45:00 PM 10.98 51.764 0.055 6.73 0.16 10.82
4/15/2022 4:00:00 PM 10.96 51.728 0.055 6.75 0.25 10.81
4/15/2022 4:15:00 PM 10.92 51.656 0.055 6.74 0.21 10.81
4/15/2022 4:30:00 PM 10.86 51.548 0.055 6.74 0.21 10.82
4/15/2022 4:45:00 PM 10.8 51.44 0.055 6.74 0.2 10.82
4/15/2022 5:00:00 PM 10.76 51.368 0.055 6.74 0.23 10.82
4/15/2022 5:15:00 PM 10.7 51.26 0.056 6.73 0.21 10.83
4/15/2022 5:30:00 PM 10.63 51.134 0.056 6.73 0.22 10.84
4/15/2022 5:45:00 PM 10.56 51.008 0.056 6.72 0.28 10.84
4/15/2022 6:00:00 PM 10.5 50.9 0.056 6.73 0.25 10.85
4/15/2022 6:15:00 PM 10.43 50.774 0.056 6.71 0.24 10.83
4/15/2022 6:30:00 PM 10.37 50.666 0.056 6.71 0.3 10.84
4/15/2022 6:45:00 PM 10.32 50.576 0.056 6.69 0.21 10.84
4/15/2022 7:00:00 PM 10.26 50.468 0.056 6.7 0.15 10.85
4/15/2022 7:15:00 PM 10.22 50.396 0.056 6.7 0.28 10.86
4/15/2022 7:30:00 PM 10.19 50.342 0.056 6.67 0.33 10.85
4/15/2022 7:45:00 PM 10.16 50.288 0.056 6.68 0.31 10.85
4/15/2022 8:00:00 PM 10.12 50.216 0.056 6.68 0.28 10.84
4/15/2022 8:15:00 PM 10.09 50.162 0.056 6.68 0.26 10.85
4/15/2022 8:30:00 PM 10.06 50.108 0.056 6.67 0.25 10.85
4/15/2022 8:45:00 PM 10.02 50.036 0.056 6.67 0.26 10.86
4/15/2022 9:00:00 PM 9.99 49.982 0.056 6.62 0.33 10.87
4/15/2022 9:15:00 PM 9.95 49.91 0.056 6.65 0.26 10.88
4/15/2022 9:30:00 PM 9.92 49.856 0.056 6.67 0.34 10.89
4/15/2022 9:45:00 PM 9.89 49.802 0.056 6.67 0.33 10.9
4/15/2022 10:00:00 PM 9.86 49.748 0.056 6.67 0.32 10.9
4/15/2022 10:15:00 PM 9.83 49.694 0.056 6.62 0.32 10.91
4/15/2022 10:30:00 PM 9.8 49.64 0.056 6.66 0.27 10.91
4/15/2022 10:45:00 PM 9.76 49.568 0.056 6.67 0.33 10.92
4/15/2022 11:00:00 PM 9.71 49.478 0.056 6.64 0.26 10.94
4/15/2022 11:15:00 PM 9.68 49.424 0.056 6.67 0.27 10.95
4/15/2022 11:30:00 PM 9.63 49.334 0.056 6.66 0.28 10.96
4/15/2022 11:45:00 PM 9.6 49.28 0.056 6.67 0.25 10.97
4/16/2022 12:00:00 AM 9.55 49.19 0.056 6.67 0.33 10.98
4/16/2022 12:15:00 AM 9.5 49.1 0.056 6.67 0.37 11
4/16/2022 12:30:00 AM 9.45 49.01 0.056 6.67 0.28 11.01
4/16/2022 12:45:00 AM 9.41 48.938 0.056 6.67 0.31 11.03
4/16/2022 1:00:00 AM 9.37 48.866 0.056 6.66 0.25 11.03
4/16/2022 1:15:00 AM 9.32 48.776 0.057 6.67 0.28 11.04
4/16/2022 1:30:00 AM 9.29 48.722 0.057 6.66 0.3 11.05
4/16/2022 1:45:00 AM 9.25 48.65 0.057 6.66 0.26 11.06
4/16/2022 2:00:00 AM 9.21 48.578 0.057 6.66 0.25 11.07
4/16/2022 2:15:00 AM 9.18 48.524 0.057 6.66 0.23 11.08
4/16/2022 2:30:00 AM 9.15 48.47 0.057 6.66 0.35 11.08
4/16/2022 2:45:00 AM 9.12 48.416 0.057 6.66 0.18 11.09
4/16/2022 3:00:00 AM 9.09 48.362 0.057 6.65 0.34 11.09
4/16/2022 3:15:00 AM 9.06 48.308 0.057 6.64 0.26 11.1
4/16/2022 3:30:00 AM 9.03 48.254 0.057 6.64 0.3 11.11
4/16/2022 3:45:00 AM 8.98 48.164 0.057 6.64 0.24 11.13
4/16/2022 4:00:00 AM 8.94 48.092 0.057 6.63 0.28 11.14
4/16/2022 4:15:00 AM 8.91 48.038 0.057 6.63 0.3 11.15
4/16/2022 4:30:00 AM 8.87 47.966 0.057 6.64 0.26 11.17
4/16/2022 4:45:00 AM 8.84 47.912 0.057 6.66 0.19 11.18
4/16/2022 5:00:00 AM 8.79 47.822 0.057 6.62 0.27 11.19
4/16/2022 5:15:00 AM 8.76 47.768 0.057 6.65 0.22 11.2
4/16/2022 5:30:00 AM 8.74 47.732 0.057 6.66 0.2 11.21
4/16/2022 5:45:00 AM 8.71 47.678 0.057 6.65 0.15 11.21
4/16/2022 6:00:00 AM 8.68 47.624 0.057 6.65 0.14 11.22
4/16/2022 6:15:00 AM 8.65 47.57 0.057 6.65 0.21 11.23
4/16/2022 6:30:00 AM 8.63 47.534 0.057 6.65 0.19 11.24
4/16/2022 6:45:00 AM 8.61 47.498 0.057 6.65 0.23 11.25
4/16/2022 7:00:00 AM 8.59 47.462 0.057 6.64 0.22 11.27
4/16/2022 7:15:00 AM 8.57 47.426 0.057 6.65 0.2 11.28
4/16/2022 7:30:00 AM 8.56 47.408 0.057 6.67 0.18 11.3
4/16/2022 7:45:00 AM 8.55 47.39 0.057 6.66 0.29 11.3
4/16/2022 8:00:00 AM 8.54 47.372 0.056 6.64 0.25 11.32
4/16/2022 8:15:00 AM 8.54 47.372 0.056 6.67 0.26 11.32
4/16/2022 8:30:00 AM 8.54 47.372 0.056 6.67 0.22 11.33
4/16/2022 8:45:00 AM 8.54 47.372 0.056 6.68 0.18 11.34
4/16/2022 9:00:00 AM 8.56 47.408 0.056 6.69 0.16 11.37
4/16/2022 9:15:00 AM 8.57 47.426 0.056 6.68 0.17 11.36
4/16/2022 9:30:00 AM 8.58 47.444 0.056 6.7 0.29 11.37
4/16/2022 9:45:00 AM 8.61 47.498 0.056 6.7 0.2 11.4
4/16/2022 10:00:00 AM 8.66 47.588 0.056 6.71 0.19 11.41
4/16/2022 10:15:00 AM 8.72 47.696 0.056 6.72 0.22 11.42
4/16/2022 10:30:00 AM 8.81 47.858 0.056 6.73 0.19 11.41
4/16/2022 10:45:00 AM 8.9 48.02 0.056 6.74 0.11 11.39
4/16/2022 11:00:00 AM 9.06 48.308 0.056 6.74 0.17 11.36
4/16/2022 11:15:00 AM 9.3 48.74 0.056 6.74 0.18 11.34
4/16/2022 11:30:00 AM 9.49 49.082 0.056 6.75 0.17 11.28
4/16/2022 11:45:00 AM 9.58 49.244 0.056 6.75 0.17 11.2
4/16/2022 12:00:00 PM 9.55 49.19 0.056 6.74 0.17 11.16
4/16/2022 12:15:00 PM 9.53 49.154 0.056 6.73 0.22 11.14
4/16/2022 12:30:00 PM 9.49 49.082 0.056 6.73 0.18 11.13
4/16/2022 12:45:00 PM 9.44 48.992 0.056 6.71 0.18 11.13
4/16/2022 1:00:00 PM 9.4 48.92 0.056 6.71 0.17 11.13
4/16/2022 1:15:00 PM 9.37 48.866 0.056 6.69 0.24 11.12
4/16/2022 1:30:00 PM 9.37 48.866 0.056 6.7 0.2 11.15
4/16/2022 1:45:00 PM 9.36 48.848 0.056 6.7 0.22 11.15
4/16/2022 2:00:00 PM 9.34 48.812 0.056 6.7 0.17 11.12
4/16/2022 2:15:00 PM 9.32 48.776 0.056 6.68 0.25 11.13
4/16/2022 2:30:00 PM 9.31 48.758 0.056 6.7 0.26 11.13
4/16/2022 2:45:00 PM 9.31 48.758 0.057 6.7 0.2 11.15
4/16/2022 3:00:00 PM 9.29 48.722 0.057 6.7 0.22 11.14
4/16/2022 3:15:00 PM 9.23 48.614 0.056 6.69 0.23 11.13
4/16/2022 3:30:00 PM 9.18 48.524 0.056 6.71 0.34 11.14
4/16/2022 3:45:00 PM 9.15 48.47 0.056 6.7 0.29 11.16
4/16/2022 4:00:00 PM 9.13 48.434 0.056 6.72 0.35 11.2
4/16/2022 4:15:00 PM 9.1 48.38 0.056 6.71 0.48 11.19
4/16/2022 4:30:00 PM 9.08 48.344 0.056 6.72 0.43 11.21
4/16/2022 4:45:00 PM 9.06 48.308 0.056 6.7 0.47 11.2
4/16/2022 5:00:00 PM 9.05 48.29 0.057 6.71 0.53 11.19
4/16/2022 5:15:00 PM 9.03 48.254 0.057 6.71 0.67 11.19
4/16/2022 5:30:00 PM 9 48.2 0.057 6.7 0.82 11.18
4/16/2022 5:45:00 PM 8.97 48.146 0.057 6.7 0.92 11.18
4/16/2022 6:00:00 PM 8.94 48.092 0.057 6.69 0.97 11.18
4/16/2022 6:15:00 PM 8.92 48.056 0.057 6.69 0.89 11.19
4/16/2022 6:30:00 PM 8.89 48.002 0.056 6.69 0.89 11.2
4/16/2022 6:45:00 PM 8.87 47.966 0.056 6.68 0.8 11.2
4/16/2022 7:00:00 PM 8.84 47.912 0.056 6.69 0.86 11.2
4/16/2022 7:15:00 PM 8.81 47.858 0.056 6.69 0.89 11.2
4/16/2022 7:30:00 PM 8.78 47.804 0.056 6.69 0.88 11.21
4/16/2022 7:45:00 PM 8.75 47.75 0.056 6.68 0.9 11.21
4/16/2022 8:00:00 PM 8.71 47.678 0.056 6.68 0.88 11.22
4/16/2022 8:15:00 PM 8.68 47.624 0.056 6.68 0.87 11.23
4/16/2022 8:30:00 PM 8.65 47.57 0.056 6.69 1.02 11.24
4/16/2022 8:45:00 PM 8.62 47.516 0.056 6.69 1.01 11.25
4/16/2022 9:00:00 PM 8.58 47.444 0.056 6.69 1.05 11.26
4/16/2022 9:15:00 PM 8.55 47.39 0.056 6.69 0.96 11.26
4/16/2022 9:30:00 PM 8.52 47.336 0.056 6.69 1.05 11.27
4/16/2022 9:45:00 PM 8.48 47.264 0.056 6.67 1 11.28
4/16/2022 10:00:00 PM 8.44 47.192 0.056 6.68 0.94 11.29
4/16/2022 10:15:00 PM 8.4 47.12 0.056 6.68 0.95 11.3
4/16/2022 10:30:00 PM 8.35 47.03 0.056 6.69 0.83 11.32
4/16/2022 10:45:00 PM 8.3 46.94 0.056 6.68 0.87 11.33
4/16/2022 11:00:00 PM 8.26 46.868 0.056 6.68 0.85 11.35
4/16/2022 11:15:00 PM 8.21 46.778 0.045 6.69 0.85 11.37
4/16/2022 11:30:00 PM 8.15 46.67 0.056 6.69 0.71 11.39
4/16/2022 11:45:00 PM 8.11 46.598 0.056 6.69 0.75 11.41
4/17/2022 12:00:00 AM 8.06 46.508 0.057 6.7 0.72 11.42
4/17/2022 12:15:00 AM 8 46.4 0.057 6.7 0.73 11.43
4/17/2022 12:30:00 AM 7.94 46.292 0.057 6.69 0.73 11.45
4/17/2022 12:45:00 AM 7.88 46.184 0.057 6.7 0.66 11.46
4/17/2022 1:00:00 AM 7.81 46.058 0.057 6.69 0.75 11.47
4/17/2022 1:15:00 AM 7.75 45.95 0.057 6.69 0.62 11.5
4/17/2022 1:30:00 AM 7.7 45.86 0.057 6.65 0.57 11.52
4/17/2022 1:45:00 AM 7.64 45.752 0.057 6.69 0.54 11.54
4/17/2022 2:00:00 AM 7.57 45.626 0.057 6.68 0.59 11.56
4/17/2022 2:15:00 AM 7.52 45.536 0.057 6.67 0.56 11.58
4/17/2022 2:30:00 AM 7.47 45.446 0.057 6.67 0.54 11.6
4/17/2022 2:45:00 AM 7.42 45.356 0.057 6.67 0.44 11.63
4/17/2022 3:00:00 AM 7.34 45.212 0.057 6.67 0.45 11.64
4/17/2022 3:15:00 AM 7.27 45.086 0.057 6.67 0.55 11.66
4/17/2022 3:30:00 AM 7.2 44.96 0.057 6.66 0.43 11.68
4/17/2022 3:45:00 AM 7.13 44.834 0.057 6.67 0.5 11.7
4/17/2022 4:00:00 AM 7.05 44.69 0.057 6.67 0.42 11.72
4/17/2022 4:15:00 AM 6.98 44.564 0.057 6.64 0.42 11.75
4/17/2022 4:30:00 AM 6.9 44.42 0.057 6.66 0.33 11.78
4/17/2022 4:45:00 AM 6.83 44.294 0.057 6.65 0.36 11.8
4/17/2022 5:00:00 AM 6.76 44.168 0.057 6.67 0.43 11.82
4/17/2022 5:15:00 AM 6.69 44.042 0.057 6.67 0.36 11.85
4/17/2022 5:30:00 AM 6.62 43.916 0.057 6.64 0.37 11.87
4/17/2022 5:45:00 AM 6.58 43.844 0.057 6.65 0.34 11.88
4/17/2022 6:00:00 AM 6.53 43.754 0.057 6.67 0.32 11.9
4/17/2022 6:15:00 AM 6.48 43.664 0.057 6.66 0.3 11.92
4/17/2022 6:30:00 AM 6.43 43.574 0.057 6.66 0.24 11.94
4/17/2022 6:45:00 AM 6.39 43.502 0.057 6.66 0.25 11.97
4/17/2022 7:00:00 AM 6.36 43.448 0.057 6.66 0.27 12
4/17/2022 7:15:00 AM 6.32 43.376 0.057 6.66 0.19 12.03
4/17/2022 7:30:00 AM 6.3 43.34 0.057 6.67 0.24 12.06
4/17/2022 7:45:00 AM 6.28 43.304 0.057 6.68 0.22 12.09
4/17/2022 8:00:00 AM 6.26 43.268 0.056 6.68 0.18 12.11
4/17/2022 8:15:00 AM 6.25 43.25 0.056 6.69 0.19 12.14
4/17/2022 8:30:00 AM 6.26 43.268 0.056 6.7 0.12 12.16
4/17/2022 8:45:00 AM 6.27 43.286 0.056 6.71 0.11 12.18
4/17/2022 9:00:00 AM 6.27 43.286 0.056 6.72 0.1 12.19
4/17/2022 9:15:00 AM 6.26 43.268 0.056 6.72 0.04 12.18
4/17/2022 9:30:00 AM 6.25 43.25 0.056 6.71 0.09 12.19
4/17/2022 9:45:00 AM 6.3 43.34 0.056 6.72 0.09 12.21
4/17/2022 10:00:00 AM 6.36 43.448 0.056 6.73 0.05 12.21
4/17/2022 10:15:00 AM 6.38 43.484 0.056 6.73 0 12.2
4/17/2022 10:30:00 AM 6.42 43.556 0.056 6.73 0.09 12.18
4/17/2022 10:45:00 AM 6.47 43.646 0.056 6.72 0.02 12.17
4/17/2022 11:00:00 AM 6.59 43.862 0.056 6.74 0.05 12.16
4/17/2022 11:15:00 AM 6.65 43.97 0.056 6.74 0.01 12.15
4/17/2022 11:30:00 AM 6.78 44.204 0.056 6.73 0.06 12.14
4/17/2022 11:45:00 AM 6.99 44.582 0.056 6.74 -0.03 12.08
4/17/2022 12:00:00 PM 7.12 44.816 0.056 6.73 0 12.03
4/17/2022 12:15:00 PM 7.35 45.23 0.056 6.75 0 11.99
4/17/2022 12:30:00 PM 7.43 45.374 0.056 6.74 -0.03 11.93
4/17/2022 12:45:00 PM 7.5 45.5 0.056 6.74 0.01 11.93
4/17/2022 1:00:00 PM 7.64 45.752 0.056 6.75 0.03 11.88
4/17/2022 1:15:00 PM 7.6 45.68 0.056 6.73 0.01 11.87
4/17/2022 1:30:00 PM 7.73 45.914 0.056 6.74 -0.02 11.85
4/17/2022 1:45:00 PM 7.89 46.202 0.056 6.75 -0.03 11.81
4/17/2022 2:00:00 PM 7.95 46.31 0.056 6.75 -0.04 11.8
4/17/2022 2:15:00 PM 7.99 46.382 0.056 6.74 -0.05 11.8
4/17/2022 2:30:00 PM 8.01 46.418 0.056 6.75 0.04 11.77
4/17/2022 2:45:00 PM 7.98 46.364 0.056 6.75 -0.05 11.76
4/17/2022 3:00:00 PM 7.92 46.256 0.056 6.74 -0.04 11.76
4/17/2022 3:15:00 PM 7.91 46.238 0.056 6.74 -0.04 11.75
4/17/2022 3:30:00 PM 7.88 46.184 0.056 6.74 0.03 11.74
4/17/2022 3:45:00 PM 7.92 46.256 0.056 6.75 -0.01 11.75
4/17/2022 4:00:00 PM 7.91 46.238 0.057 6.75 -0.01 11.73
4/17/2022 4:15:00 PM 7.85 46.13 0.057 6.74 0.05 11.71
4/17/2022 4:30:00 PM 7.82 46.076 0.057 6.72 -0.01 11.72
4/17/2022 4:45:00 PM 7.78 46.004 0.057 6.74 0.07 11.72
4/17/2022 5:00:00 PM 7.78 46.004 0.057 6.73 0.05 11.75
4/17/2022 5:15:00 PM 7.74 45.932 0.057 6.75 0 11.77
4/17/2022 5:30:00 PM 7.72 45.896 0.057 6.75 0.04 11.77
4/17/2022 5:45:00 PM 7.68 45.824 0.057 6.73 -0.02 11.77
4/17/2022 6:00:00 PM 7.65 45.77 0.057 6.74 0.04 11.78
4/17/2022 6:15:00 PM 7.59 45.662 0.057 6.74 -0.02 11.79
4/17/2022 6:30:00 PM 7.54 45.572 0.057 6.74 0 11.8
4/17/2022 6:45:00 PM 7.48 45.464 0.057 6.72 -0.01 11.79
4/17/2022 7:00:00 PM 7.42 45.356 0.057 6.72 -0.01 11.79
4/17/2022 7:15:00 PM 7.36 45.248 0.057 6.72 0.03 11.78
4/17/2022 7:30:00 PM 7.29 45.122 0.057 6.71 0 11.79
4/17/2022 7:45:00 PM 7.22 44.996 0.057 6.7 0.07 11.79
4/17/2022 8:00:00 PM 7.14 44.852 0.057 6.69 0.04 11.8
4/17/2022 8:15:00 PM 7.07 44.726 0.057 6.68 -0.02 11.82
4/17/2022 8:30:00 PM 7 44.6 0.057 6.68 0.1 11.84
4/17/2022 8:45:00 PM 6.92 44.456 0.057 6.68 0.02 11.87
4/17/2022 9:00:00 PM 6.86 44.348 0.057 6.67 0.02 11.89
4/17/2022 9:15:00 PM 6.79 44.222 0.057 6.67 0.08 11.91
4/17/2022 9:30:00 PM 6.72 44.096 0.057 6.68 0.08 11.93
4/17/2022 9:45:00 PM 6.65 43.97 0.057 6.67 0.07 11.95
4/17/2022 10:00:00 PM 6.58 43.844 0.057 6.67 0.06 11.96
4/17/2022 10:15:00 PM 6.5 43.7 0.057 6.67 0.03 11.98
4/17/2022 10:30:00 PM 6.43 43.574 0.057 6.67 0.06 12.01
4/17/2022 10:45:00 PM 6.35 43.43 0.057 6.67 0.02 12.04
4/17/2022 11:00:00 PM 6.27 43.286 0.057 6.67 0.06 12.07
4/17/2022 11:15:00 PM 6.19 43.142 0.058 6.67 0.06 12.1
4/17/2022 11:30:00 PM 6.12 43.016 0.058 6.64 0.04 12.12
4/17/2022 11:45:00 PM 6.04 42.872 0.058 6.66 -0.01 12.14
4/18/2022 12:00:00 AM 5.97 42.746 0.058 6.67 0 12.17
4/18/2022 12:15:00 AM 5.89 42.602 0.058 6.66 0 12.18
4/18/2022 12:30:00 AM 5.81 42.458 0.058 6.67 -0.02 12.21
4/18/2022 12:45:00 AM 5.74 42.332 0.058 6.66 -0.04 12.24
4/18/2022 1:00:00 AM 5.67 42.206 0.058 6.66 0.04 12.27
4/18/2022 1:15:00 AM 5.6 42.08 0.058 6.61 -0.05 12.29
4/18/2022 1:30:00 AM 5.53 41.954 0.058 6.6 0.01 12.32
4/18/2022 1:45:00 AM 5.45 41.81 0.058 6.6 -0.04 12.34
4/18/2022 2:00:00 AM 5.38 41.684 0.058 6.6 0 12.37
4/18/2022 2:15:00 AM 5.31 41.558 0.058 6.6 -0.01 12.39
4/18/2022 2:30:00 AM 5.24 41.432 0.058 6.6 -0.1 12.4
4/18/2022 2:45:00 AM 5.17 41.306 0.058 6.59 -0.05 12.43
4/18/2022 3:00:00 AM 5.1 41.18 0.058 6.58 -0.13 12.46
4/18/2022 3:15:00 AM 5.03 41.054 0.058 6.58 -0.13 12.49
4/18/2022 3:30:00 AM 4.96 40.928 0.058 6.58 -0.12 12.51
4/18/2022 3:45:00 AM 4.9 40.82 0.058 6.57 -0.13 12.54
4/18/2022 4:00:00 AM 4.83 40.694 0.058 6.57 -0.12 12.55
4/18/2022 4:15:00 AM 4.77 40.586 0.058 6.57 -0.15 12.57
4/18/2022 4:30:00 AM 4.7 40.46 0.058 6.57 -0.14 12.59
4/18/2022 4:45:00 AM 4.64 40.352 0.058 6.56 -0.14 12.61
4/18/2022 5:00:00 AM 4.59 40.262 0.058 6.57 -0.14 12.62
4/18/2022 5:15:00 AM 4.52 40.136 0.058 6.54 -0.11 12.65
4/18/2022 5:30:00 AM 4.46 40.028 0.058 6.58 -0.18 12.67
4/18/2022 5:45:00 AM 4.41 39.938 0.058 6.58 -0.13 12.7
4/18/2022 6:00:00 AM 4.35 39.83 0.058 6.55 -0.1 12.72
4/18/2022 6:15:00 AM 4.3 39.74 0.058 6.59 -0.12 12.73
4/18/2022 6:30:00 AM 4.24 39.632 0.058 6.58 -0.16 12.76
4/18/2022 6:45:00 AM 4.19 39.542 0.058 6.58 -0.18 12.79
4/18/2022 7:00:00 AM 4.14 39.452 0.058 6.61 -0.17 12.82
4/18/2022 7:15:00 AM 4.1 39.38 0.058 6.61 -0.21 12.85
4/18/2022 7:30:00 AM 4.09 39.362 0.058 6.62 -0.19 12.88
4/18/2022 7:45:00 AM 4.09 39.362 0.058 6.61 -0.17 12.91
4/18/2022 8:00:00 AM 4.1 39.38 0.058 6.65 -0.18 12.93
4/18/2022 8:15:00 AM 4.11 39.398 0.058 6.65 -0.21 12.94
4/18/2022 8:30:00 AM 4.15 39.47 0.058 6.67 -0.23 12.95
4/18/2022 8:45:00 AM 4.19 39.542 0.058 6.69 -0.14 12.96
4/18/2022 9:00:00 AM 4.26 39.668 0.058 6.69 -0.23 12.94
4/18/2022 9:15:00 AM 4.33 39.794 0.058 6.71 -0.2 12.93
4/18/2022 9:30:00 AM 4.39 39.902 0.058 6.72 -0.21 12.91
4/18/2022 9:45:00 AM 4.47 40.046 0.058 6.73 -0.23 12.88
4/18/2022 10:00:00 AM 4.54 40.172 0.058 6.73 -0.21 12.86
4/18/2022 10:15:00 AM 4.66 40.388 0.058 6.74 -0.27 12.82
4/18/2022 10:30:00 AM 4.8 40.64 0.058 6.74 -0.28 12.8
4/18/2022 10:45:00 AM 4.91 40.838 0.058 6.75 -0.27 12.77
4/18/2022 11:00:00 AM 5.01 41.018 0.058 6.75 -0.25 12.72
4/18/2022 11:15:00 AM 5.11 41.198 0.058 6.73 -0.29 12.68
4/18/2022 11:30:00 AM 5.2 41.36 0.058 6.76 -0.22 12.63
4/18/2022 11:45:00 AM 5.29 41.522 0.058 6.76 -0.32 12.59
4/18/2022 12:00:00 PM 5.36 41.648 0.058 6.76 -0.3 12.57
4/18/2022 12:15:00 PM 5.41 41.738 0.058 6.76 -0.33 12.55
4/18/2022 12:30:00 PM 5.46 41.828 0.058 6.76 -0.28 12.54
4/18/2022 12:45:00 PM 5.5 41.9 0.058 6.77 -0.25 12.51
4/18/2022 1:00:00 PM 5.54 41.972 0.058 6.77 -0.27 12.5
4/18/2022 1:15:00 PM 5.58 42.044 0.058 6.77 -0.27 12.49
4/18/2022 1:30:00 PM 5.63 42.134 0.058 6.77 -0.25 12.47
4/18/2022 1:45:00 PM 5.66 42.188 0.058 6.76 -0.3 12.46
4/18/2022 2:00:00 PM 5.68 42.224 0.058 6.77 -0.25 12.43
4/18/2022 2:15:00 PM 5.68 42.224 0.058 6.76 -0.28 12.42
4/18/2022 2:30:00 PM 5.69 42.242 0.058 6.75 -0.29 12.41
4/18/2022 2:45:00 PM 5.69 42.242 0.058 6.76 -0.28 12.4
4/18/2022 3:00:00 PM 5.69 42.242 0.058 6.76 -0.25 12.39
4/18/2022 3:15:00 PM 5.67 42.206 0.058 6.75 -0.25 12.38
4/18/2022 3:30:00 PM 5.63 42.134 0.058 6.75 -0.26 12.37
4/18/2022 3:45:00 PM 5.6 42.08 0.058 6.74 -0.24 12.37
4/18/2022 4:00:00 PM 5.58 42.044 0.058 6.74 -0.26 12.37
4/18/2022 4:15:00 PM 5.54 41.972 0.058 6.74 -0.25 12.36
4/18/2022 4:30:00 PM 5.48 41.864 0.058 6.74 -0.19 12.36
4/18/2022 4:45:00 PM 5.42 41.756 0.058 6.71 -0.26 12.36
4/18/2022 5:00:00 PM 5.32 41.576 0.058 6.71 -0.19 12.37
4/18/2022 5:15:00 PM 5.24 41.432 0.058 6.72 -0.12 12.38
4/18/2022 5:30:00 PM 5.16 41.288 0.058 6.72 -0.14 12.41
4/18/2022 5:45:00 PM 5.05 41.09 0.057 6.72 -0.11 12.43
4/18/2022 6:00:00 PM 4.97 40.946 0.057 6.71 -0.1 12.47
4/18/2022 6:15:00 PM 4.93 40.874 0.057 6.71 -0.11 12.48
4/18/2022 6:30:00 PM 4.85 40.73 0.057 6.71 -0.07 12.49
4/18/2022 6:45:00 PM 4.78 40.604 0.057 6.7 -0.08 12.5
4/18/2022 7:00:00 PM 4.73 40.514 0.057 6.7 -0.06 12.51
4/18/2022 7:15:00 PM 4.71 40.478 0.057 6.7 -0.06 12.52
4/18/2022 7:30:00 PM 4.69 40.442 0.057 6.7 0.03 12.51
4/18/2022 7:45:00 PM 4.66 40.388 0.057 6.68 0.02 12.51
4/18/2022 8:00:00 PM 4.64 40.352 0.057 6.69 0.02 12.51
4/18/2022 8:15:00 PM 4.63 40.334 0.057 6.69 -0.01 12.51
4/18/2022 8:30:00 PM 4.63 40.334 0.057 6.68 0.04 12.51
4/18/2022 8:45:00 PM 4.63 40.334 0.057 6.69 0.03 12.51
4/18/2022 9:00:00 PM 4.59 40.262 0.057 6.68 0.05 12.51
4/18/2022 9:15:00 PM 4.58 40.244 0.057 6.68 0.11 12.51
4/18/2022 9:30:00 PM 4.57 40.226 0.057 6.69 0.12 12.51
4/18/2022 9:45:00 PM 4.53 40.154 0.057 6.68 0.08 12.52
4/18/2022 10:00:00 PM 4.43 39.974 0.057 6.68 0.16 12.53
4/18/2022 10:15:00 PM 4.33 39.794 0.057 6.69 0.13 12.55
4/18/2022 10:30:00 PM 4.22 39.596 0.057 6.69 0.23 12.57
4/18/2022 10:45:00 PM 4.08 39.344 0.057 6.64 0.21 12.59
4/18/2022 11:00:00 PM 3.94 39.092 0.057 6.68 0.28 12.63
4/18/2022 11:15:00 PM 3.63 38.534 0.057 6.68 0.33 12.67
4/18/2022 11:30:00 PM 3.4 38.12 0.057 6.67 0.46 12.74
4/18/2022 11:45:00 PM 3.33 37.994 0.057 6.67 0.5 12.8
4/19/2022 12:00:00 AM 3.2 37.76 0.057 6.66 0.62 12.86
4/19/2022 12:15:00 AM 3.09 37.562 0.057 6.66 0.67 12.92
4/19/2022 12:30:00 AM 2.84 37.112 0.056 6.54 0.9 12.97
4/19/2022 12:45:00 AM 2.63 36.734 0.057 6.55 0.94 13.02
4/19/2022 1:00:00 AM 2.55 36.59 0.057 6.53 1.46 13.08
4/19/2022 1:15:00 AM 2.39 36.302 0.057 6.53 1.5 13.16
4/19/2022 1:30:00 AM 2.29 36.122 0.057 6.52 1.51 13.23
4/19/2022 1:45:00 AM 2.28 36.104 0.057 6.51 1.56 13.26
4/19/2022 2:00:00 AM 2.27 36.086 0.056 6.54 1.7 13.27
4/19/2022 2:15:00 AM 2.27 36.086 0.056 6.56 1.59 13.29
4/19/2022 2:30:00 AM 2.25 36.05 0.056 6.58 1.52 13.29
4/19/2022 2:45:00 AM 2.22 35.996 0.056 6.57 1.49 13.29
4/19/2022 3:00:00 AM 2.19 35.942 0.056 6.59 1.41 13.3
4/19/2022 3:15:00 AM 2.19 35.942 0.055 6.58 1.35 13.31
4/19/2022 3:30:00 AM 2.22 35.996 0.055 6.61 1.31 13.3
4/19/2022 3:45:00 AM 2.25 36.05 0.055 6.62 1.24 13.29
4/19/2022 4:00:00 AM 2.3 36.14 0.055 6.62 1.09 13.27
4/19/2022 4:15:00 AM 2.36 36.248 0.055 6.63 1.09 13.25
4/19/2022 4:30:00 AM 2.42 36.356 0.056 6.64 1.13 13.23
4/19/2022 4:45:00 AM 2.48 36.464 0.056 6.65 1.03 13.2
4/19/2022 5:00:00 AM 2.52 36.536 0.056 6.66 1.05 13.18
4/19/2022 5:15:00 AM 2.56 36.608 0.056 6.64 1.08 13.16
4/19/2022 5:30:00 AM 2.6 36.68 0.056 6.68 1.4 13.15
4/19/2022 5:45:00 AM 2.64 36.752 0.056 6.68 1.25 13.13
4/19/2022 6:00:00 AM 2.66 36.788 0.057 6.69 1.2 13.11
4/19/2022 6:15:00 AM 2.67 36.806 0.057 6.69 1.13 13.1
4/19/2022 6:30:00 AM 2.67 36.806 0.057 6.69 1.24 13.1
4/19/2022 6:45:00 AM 2.69 36.842 0.057 6.68 1.29 13.1
4/19/2022 7:00:00 AM 2.72 36.896 0.057 6.67 1.22 13.1
4/19/2022 7:15:00 AM 2.75 36.95 0.058 6.69 1.24 13.11
4/19/2022 7:30:00 AM 2.78 37.004 0.058 6.7 1.22 13.11
4/19/2022 7:45:00 AM 2.81 37.058 0.058 6.69 1.12 13.11
4/19/2022 8:00:00 AM 2.83 37.094 0.058 6.7 1.13 13.11
4/19/2022 8:15:00 AM 2.86 37.148 0.058 6.7 1.17 13.13
4/19/2022 8:30:00 AM 2.9 37.22 0.058 6.72 1.13 13.13
4/19/2022 8:45:00 AM 2.95 37.31 0.057 6.71 1.17 13.14
4/19/2022 9:00:00 AM 3.01 37.418 0.057 6.72 1.2 13.12
4/19/2022 9:15:00 AM 3.06 37.508 0.057 6.72 1.13 13.11
4/19/2022 9:30:00 AM 3.15 37.67 0.057 6.73 1.08 13.09
4/19/2022 9:45:00 AM 3.24 37.832 0.057 6.72 1.18 13.06
4/19/2022 10:00:00 AM 3.29 37.922 0.057 6.73 1.27 13.04
4/19/2022 10:15:00 AM 3.32 37.976 0.057 6.7 1.19 13.01
4/19/2022 10:30:00 AM 3.36 38.048 0.057 6.72 1.27 12.98
4/19/2022 10:45:00 AM 3.4 38.12 0.057 6.72 1.45 12.97
4/19/2022 11:00:00 AM 3.45 38.21 0.057 6.71 1.35 12.97
4/19/2022 11:15:00 AM 3.52 38.336 0.057 6.72 1.48 12.97
4/19/2022 11:30:00 AM 3.6 38.48 0.057 6.73 1.41 12.95
4/19/2022 11:45:00 AM 3.74 38.732 0.057 6.72 1.45 12.93
4/19/2022 12:00:00 PM 3.91 39.038 0.057 6.73 1.42 12.87
4/19/2022 12:15:00 PM 3.92 39.056 0.057 6.73 1.53 12.85
4/19/2022 12:30:00 PM 3.98 39.164 0.057 6.72 1.54 12.83
4/19/2022 12:45:00 PM 4.12 39.416 0.057 6.73 1.62 12.8
4/19/2022 1:00:00 PM 4.23 39.614 0.057 6.72 1.68 12.77
4/19/2022 1:15:00 PM 4.3 39.74 0.057 6.73 1.81 12.74
4/19/2022 1:30:00 PM 4.33 39.794 0.057 6.73 1.96 12.71
4/19/2022 1:45:00 PM 4.38 39.884 0.057 6.72 2.02 12.7
4/19/2022 2:00:00 PM 4.46 40.028 0.057 6.72 2.26 12.68
4/19/2022 2:15:00 PM 4.55 40.19 0.057 6.73 2.19 12.65
4/19/2022 2:30:00 PM 4.65 40.37 0.057 6.75 2.27 12.62
4/19/2022 2:45:00 PM 4.68 40.424 0.057 6.74 2.31 12.6
4/19/2022 3:00:00 PM 4.74 40.532 0.057 6.73 2.23 12.58
4/19/2022 3:15:00 PM 4.8 40.64 0.057 6.73 2.3 12.56
4/19/2022 3:30:00 PM 4.85 40.73 0.057 6.73 2.45 12.55
4/19/2022 3:45:00 PM 4.9 40.82 0.058 6.71 2.37 12.53
4/19/2022 4:00:00 PM 4.95 40.91 0.058 6.72 2.44 12.51
4/19/2022 4:15:00 PM 4.99 40.982 0.058 6.71 2.46 12.49
4/19/2022 4:30:00 PM 4.99 40.982 0.058 6.71 2.49 12.46
4/19/2022 4:45:00 PM 4.97 40.946 0.058 6.71 2.8 12.47
4/19/2022 5:00:00 PM 4.97 40.946 0.058 6.71 2.74 12.47
4/19/2022 5:15:00 PM 4.98 40.964 0.058 6.71 2.81 12.47
4/19/2022 5:30:00 PM 4.99 40.982 0.059 6.71 2.86 12.48
4/19/2022 5:45:00 PM 4.97 40.946 0.059 6.71 2.67 12.48
4/19/2022 6:00:00 PM 4.94 40.892 0.059 6.71 2.77 12.48
4/19/2022 6:15:00 PM 4.95 40.91 0.059 6.71 2.57 12.47
4/19/2022 6:30:00 PM 4.94 40.892 0.059 6.7 2.67 12.48
4/19/2022 6:45:00 PM 4.91 40.838 0.059 6.7 2.53 12.47
4/19/2022 7:00:00 PM 4.89 40.802 0.059 6.68 2.44 12.47
4/19/2022 7:15:00 PM 4.87 40.766 0.059 6.69 2.25 12.47
4/19/2022 7:30:00 PM 4.84 40.712 0.059 6.69 2.35 12.48
4/19/2022 7:45:00 PM 4.81 40.658 0.059 6.67 2.16 12.47
4/19/2022 8:00:00 PM 4.79 40.622 0.059 6.68 2.03 12.47
4/19/2022 8:15:00 PM 4.77 40.586 0.059 6.67 1.98 12.47
4/19/2022 8:30:00 PM 4.74 40.532 0.06 6.66 2 12.48
4/19/2022 8:45:00 PM 4.72 40.496 0.06 6.65 1.96 12.48
4/19/2022 9:00:00 PM 4.69 40.442 0.06 6.64 1.83 12.49
4/19/2022 9:15:00 PM 4.67 40.406 0.06 6.63 1.69 12.5
4/19/2022 9:30:00 PM 4.65 40.37 0.061 6.63 1.74 12.51
4/19/2022 9:45:00 PM 4.63 40.334 0.061 6.63 1.7 12.52
4/19/2022 10:00:00 PM 4.61 40.298 0.061 6.64 1.89 12.53
4/19/2022 10:15:00 PM 4.59 40.262 0.061 6.63 1.72 12.54
4/19/2022 10:30:00 PM 4.57 40.226 0.062 6.64 1.62 12.55
4/19/2022 10:45:00 PM 4.56 40.208 0.062 6.64 1.6 12.55
4/19/2022 11:00:00 PM 4.54 40.172 0.062 6.64 1.42 12.56
4/19/2022 11:15:00 PM 4.53 40.154 0.062 6.64 1.38 12.57
4/19/2022 11:30:00 PM 4.52 40.136 0.062 6.64 1.38 12.58
4/19/2022 11:45:00 PM 4.51 40.118 0.062 6.64 1.3 12.58
4/20/2022 12:00:00 AM 4.49 40.082 0.062 6.64 1.24 12.59
4/20/2022 12:15:00 AM 4.47 40.046 0.062 6.64 1.29 12.6
4/20/2022 12:30:00 AM 4.46 40.028 0.062 6.64 1.13 12.61
4/20/2022 12:45:00 AM 4.45 40.01 0.062 6.64 1.16 12.61
4/20/2022 1:00:00 AM 4.44 39.992 0.062 6.64 1.05 12.62
4/20/2022 1:15:00 AM 4.43 39.974 0.062 6.65 0.97 12.63
4/20/2022 1:30:00 AM 4.42 39.956 0.062 6.64 1.03 12.63
4/20/2022 1:45:00 AM 4.41 39.938 0.062 6.64 0.95 12.64
4/20/2022 2:00:00 AM 4.4 39.92 0.062 6.64 0.96 12.65
4/20/2022 2:15:00 AM 4.39 39.902 0.062 6.64 0.89 12.65
4/20/2022 2:30:00 AM 4.38 39.884 0.062 6.64 0.84 12.66
4/20/2022 2:45:00 AM 4.38 39.884 0.062 6.64 0.76 12.67
4/20/2022 3:00:00 AM 4.37 39.866 0.062 6.63 0.74 12.66
4/20/2022 3:15:00 AM 4.36 39.848 0.062 6.64 0.71 12.67
4/20/2022 3:30:00 AM 4.36 39.848 0.062 6.63 0.74 12.68
4/20/2022 3:45:00 AM 4.34 39.812 0.062 6.63 0.77 12.68
4/20/2022 4:00:00 AM 4.32 39.776 0.062 6.63 0.68 12.7
4/20/2022 4:15:00 AM 4.29 39.722 0.062 6.63 0.65 12.71
4/20/2022 4:30:00 AM 4.25 39.65 0.062 6.63 0.6 12.72
4/20/2022 4:45:00 AM 4.22 39.596 0.063 6.63 0.55 12.73
4/20/2022 5:00:00 AM 4.19 39.542 0.063 6.63 0.55 12.74
4/20/2022 5:15:00 AM 4.15 39.47 0.063 6.63 0.5 12.76
4/20/2022 5:30:00 AM 4.12 39.416 0.063 6.63 0.51 12.77
4/20/2022 5:45:00 AM 4.09 39.362 0.063 6.63 0.48 12.79
4/20/2022 6:00:00 AM 4.05 39.29 0.063 6.63 0.42 12.8
4/20/2022 6:15:00 AM 4.02 39.236 0.063 6.63 0.49 12.81
4/20/2022 6:30:00 AM 3.99 39.182 0.063 6.63 0.46 12.82
4/20/2022 6:45:00 AM 3.98 39.164 0.063 6.64 0.42 12.84
4/20/2022 7:00:00 AM 3.97 39.146 0.062 6.63 0.42 12.87
4/20/2022 7:15:00 AM 3.97 39.146 0.062 6.64 0.37 12.9
4/20/2022 7:30:00 AM 3.96 39.128 0.062 6.65 0.4 12.91
4/20/2022 7:45:00 AM 3.96 39.128 0.062 6.65 0.35 12.92
4/20/2022 8:00:00 AM 3.97 39.146 0.062 6.66 0.28 12.94
4/20/2022 8:15:00 AM 3.98 39.164 0.062 6.65 0.36 12.94
4/20/2022 8:30:00 AM 4 39.2 0.062 6.67 0.28 12.95
4/20/2022 8:45:00 AM 4.04 39.272 0.062 6.68 0.22 12.96
4/20/2022 9:00:00 AM 4.11 39.398 0.062 6.68 0.21 12.96
4/20/2022 9:15:00 AM 4.18 39.524 0.062 6.69 0.19 12.95
4/20/2022 9:30:00 AM 4.27 39.686 0.062 6.69 0.19 12.93
4/20/2022 9:45:00 AM 4.36 39.848 0.062 6.7 0.17 12.91
4/20/2022 10:00:00 AM 4.47 40.046 0.062 6.69 0.2 12.88
4/20/2022 10:15:00 AM 4.61 40.298 0.062 6.69 0.2 12.84
4/20/2022 10:30:00 AM 4.79 40.622 0.062 6.7 0.15 12.81
4/20/2022 10:45:00 AM 4.98 40.964 0.062 6.7 0.14 12.76
4/20/2022 11:00:00 AM 5.19 41.342 0.062 6.71 0.09 12.68
4/20/2022 11:15:00 AM 5.41 41.738 0.062 6.7 0.18 12.62
4/20/2022 11:30:00 AM 5.66 42.188 0.062 6.71 0.11 12.55
4/20/2022 11:45:00 AM 5.92 42.656 0.062 6.71 0.17 12.46
4/20/2022 12:00:00 PM 6.2 43.16 0.062 6.72 0.15 12.4
4/20/2022 12:15:00 PM 6.47 43.646 0.062 6.72 0.14 12.3
4/20/2022 12:30:00 PM 6.73 44.114 0.062 6.72 0.19 12.24
4/20/2022 12:45:00 PM 6.96 44.528 0.062 6.72 0.23 12.16
4/20/2022 1:00:00 PM 7.18 44.924 0.062 6.73 0.18 12.08
4/20/2022 1:15:00 PM 7.37 45.266 0.062 6.73 0.21 12.03
4/20/2022 1:30:00 PM 7.53 45.554 0.062 6.73 0.3 11.97
4/20/2022 1:45:00 PM 7.66 45.788 0.062 6.74 0.22 11.93
4/20/2022 2:00:00 PM 7.75 45.95 0.062 6.74 0.29 11.87
4/20/2022 2:15:00 PM 7.84 46.112 0.061 6.74 0.29 11.84
4/20/2022 2:30:00 PM 7.89 46.202 0.061 6.74 0.41 11.81
4/20/2022 2:45:00 PM 7.94 46.292 0.061 6.75 0.35 11.8
4/20/2022 3:00:00 PM 7.98 46.364 0.061 6.75 0.4 11.78
4/20/2022 3:15:00 PM 7.99 46.382 0.061 6.75 0.46 11.77
4/20/2022 3:30:00 PM 8.01 46.418 0.061 6.73 0.58 11.75
4/20/2022 3:45:00 PM 8.01 46.418 0.061 6.75 0.55 11.74
4/20/2022 4:00:00 PM 8.01 46.418 0.061 6.74 0.6 11.74
4/20/2022 4:15:00 PM 7.99 46.382 0.061 6.74 0.75 11.73
4/20/2022 4:30:00 PM 7.98 46.364 0.061 6.73 0.71 11.72
4/20/2022 4:45:00 PM 7.96 46.328 0.061 6.74 0.67 11.73
4/20/2022 5:00:00 PM 7.94 46.292 0.061 6.73 0.74 11.73
4/20/2022 5:15:00 PM 7.9 46.22 0.061 6.72 0.75 11.72
4/20/2022 5:30:00 PM 7.87 46.166 0.061 6.72 0.72 11.72
4/20/2022 5:45:00 PM 7.83 46.094 0.061 6.71 0.75 11.72
4/20/2022 6:00:00 PM 7.81 46.058 0.061 6.7 0.79 11.71
4/20/2022 6:15:00 PM 7.79 46.022 0.061 6.7 0.83 11.72
4/20/2022 6:30:00 PM 7.77 45.986 0.061 6.68 0.92 11.71
4/20/2022 6:45:00 PM 7.75 45.95 0.061 6.68 0.87 11.71
4/20/2022 7:00:00 PM 7.73 45.914 0.061 6.68 0.87 11.72
4/20/2022 7:15:00 PM 7.72 45.896 0.061 6.67 0.91 11.72
4/20/2022 7:30:00 PM 7.7 45.86 0.062 6.67 0.92 11.71
4/20/2022 7:45:00 PM 7.67 45.806 0.062 6.66 0.98 11.72
4/20/2022 8:00:00 PM 7.64 45.752 0.062 6.65 0.99 11.72
4/20/2022 8:15:00 PM 7.61 45.698 0.062 6.65 1.02 11.73
4/20/2022 8:30:00 PM 7.59 45.662 0.062 6.65 1.11 11.73
4/20/2022 8:45:00 PM 7.55 45.59 0.062 6.64 1.2 11.75
4/20/2022 9:00:00 PM 7.51 45.518 0.062 6.65 1.23 11.76
4/20/2022 9:15:00 PM 7.46 45.428 0.062 6.64 1.13 11.77
4/20/2022 9:30:00 PM 7.41 45.338 0.062 6.64 1.1 11.79
4/20/2022 9:45:00 PM 7.35 45.23 0.063 6.64 1.13 11.81
4/20/2022 10:00:00 PM 7.29 45.122 0.063 6.64 1.11 11.82
4/20/2022 10:15:00 PM 7.22 44.996 0.063 6.64 1.29 11.84
4/20/2022 10:30:00 PM 7.15 44.87 0.063 6.63 2.23 11.86
4/20/2022 10:45:00 PM 7.07 44.726 0.063 6.64 1.27 11.88
4/20/2022 11:00:00 PM 6.99 44.582 0.063 6.63 1.17 11.91
4/20/2022 11:15:00 PM 6.92 44.456 0.063 6.63 1.31 11.94
4/20/2022 11:30:00 PM 6.84 44.312 0.063 6.62 1.36 11.96
4/20/2022 11:45:00 PM 6.76 44.168 0.063 6.63 1.16 11.99
4/21/2022 12:00:00 AM 6.69 44.042 0.063 6.63 1.06 12.01
4/21/2022 12:15:00 AM 6.61 43.898 0.064 6.62 0.98 12.03
4/21/2022 12:30:00 AM 6.53 43.754 0.064 6.63 0.88 12.05
4/21/2022 12:45:00 AM 6.46 43.628 0.064 6.62 0.93 12.07
4/21/2022 1:00:00 AM 6.39 43.502 0.064 6.62 0.9 12.1
4/21/2022 1:15:00 AM 6.33 43.394 0.065 6.63 0.74 12.12
4/21/2022 1:30:00 AM 6.27 43.286 0.065 6.63 0.78 12.14
4/21/2022 1:45:00 AM 6.22 43.196 0.065 6.63 0.68 12.16
4/21/2022 2:00:00 AM 6.17 43.106 0.065 6.63 0.68 12.18
4/21/2022 2:15:00 AM 6.12 43.016 0.065 6.63 0.64 12.2
4/21/2022 2:30:00 AM 6.07 42.926 0.065 6.63 0.62 12.21
4/21/2022 2:45:00 AM 6.02 42.836 0.064 6.62 0.57 12.23
4/21/2022 3:00:00 AM 5.97 42.746 0.064 6.63 0.6 12.23
4/21/2022 3:15:00 AM 5.93 42.674 0.064 6.63 0.55 12.24
4/21/2022 3:30:00 AM 5.88 42.584 0.064 6.63 0.47 12.25
4/21/2022 3:45:00 AM 5.83 42.494 0.064 6.63 0.6 12.27
4/21/2022 4:00:00 AM 5.78 42.404 0.064 6.63 0.49 12.29
4/21/2022 4:15:00 AM 5.73 42.314 0.064 6.62 0.5 12.31
4/21/2022 4:30:00 AM 5.68 42.224 0.064 6.63 0.43 12.32
4/21/2022 4:45:00 AM 5.64 42.152 0.064 6.64 0.41 12.34
4/21/2022 5:00:00 AM 5.6 42.08 0.063 6.63 0.45 12.36
4/21/2022 5:15:00 AM 5.56 42.008 0.063 6.64 0.44 12.37
4/21/2022 5:30:00 AM 5.53 41.954 0.063 6.64 0.38 12.38
4/21/2022 5:45:00 AM 5.49 41.882 0.063 6.63 0.39 12.4
4/21/2022 6:00:00 AM 5.45 41.81 0.063 6.64 0.4 12.41
4/21/2022 6:15:00 AM 5.41 41.738 0.063 6.64 0.29 12.42
4/21/2022 6:30:00 AM 5.37 41.666 0.063 6.65 0.34 12.44
4/21/2022 6:45:00 AM 5.34 41.612 0.063 6.65 0.27 12.45
4/21/2022 7:00:00 AM 5.31 41.558 0.063 6.64 0.27 12.48
4/21/2022 7:15:00 AM 5.28 41.504 0.063 6.67 0.23 12.5
4/21/2022 7:30:00 AM 5.27 41.486 0.063 6.66 0.24 12.51
4/21/2022 7:45:00 AM 5.26 41.468 0.063 6.67 0.19 12.53
4/21/2022 8:00:00 AM 5.27 41.486 0.063 6.67 0.2 12.55
4/21/2022 8:15:00 AM 5.31 41.558 0.063 6.69 0.17 12.57
4/21/2022 8:30:00 AM 5.33 41.594 0.063 6.69 0.21 12.56
4/21/2022 8:45:00 AM 5.36 41.648 0.063 6.67 0.2 12.55
4/21/2022 9:00:00 AM 5.44 41.792 0.063 6.7 0.19 12.56
4/21/2022 9:15:00 AM 5.52 41.936 0.063 6.7 0.16 12.55
4/21/2022 9:30:00 AM 5.61 42.098 0.063 6.71 0.13 12.54
4/21/2022 9:45:00 AM 5.73 42.314 0.063 6.72 0.12 12.51
4/21/2022 10:00:00 AM 5.84 42.512 0.063 6.73 0.07 12.47
4/21/2022 10:15:00 AM 5.96 42.728 0.063 6.73 0.09 12.43
4/21/2022 10:30:00 AM 6.08 42.944 0.063 6.74 0.12 12.41
4/21/2022 10:45:00 AM 6.21 43.178 0.063 6.73 0.13 12.37
4/21/2022 11:00:00 AM 6.35 43.43 0.063 6.74 0.07 12.31
4/21/2022 11:15:00 AM 6.5 43.7 0.063 6.74 0.03 12.27
4/21/2022 11:30:00 AM 6.67 44.006 0.064 6.73 0.07 12.23
4/21/2022 11:45:00 AM 6.85 44.33 0.064 6.74 0.07 12.17
4/21/2022 12:00:00 PM 7.05 44.69 0.064 6.74 0.11 12.1
4/21/2022 12:15:00 PM 7.34 45.212 0.064 6.75 0.08 12.04
4/21/2022 12:30:00 PM 7.65 45.77 0.064 6.74 0.11 11.94
4/21/2022 12:45:00 PM 7.75 45.95 0.065 6.74 0.08 11.88
4/21/2022 1:00:00 PM 7.8 46.04 0.065 6.75 0.16 11.83
4/21/2022 1:15:00 PM 7.82 46.076 0.065 6.74 0.07 11.82
4/21/2022 1:30:00 PM 7.8 46.04 0.065 6.75 0.14 11.81
4/21/2022 1:45:00 PM 7.76 45.968 0.065 6.74 0.12 11.8
4/21/2022 2:00:00 PM 7.74 45.932 0.065 6.71 0.1 11.78
4/21/2022 2:15:00 PM 7.73 45.914 0.065 6.73 0.13 11.78
4/21/2022 2:30:00 PM 7.72 45.896 0.065 6.73 0.19 11.78
4/21/2022 2:45:00 PM 7.69 45.842 0.065 6.71 0.23 11.77
4/21/2022 3:00:00 PM 7.68 45.824 0.064 6.73 0.21 11.77
4/21/2022 3:15:00 PM 7.66 45.788 0.064 6.72 0.18 11.77
4/21/2022 3:30:00 PM 7.64 45.752 0.064 6.67 0.18 11.76
4/21/2022 3:45:00 PM 7.62 45.716 0.064 6.71 0.22 11.76
4/21/2022 4:00:00 PM 7.61 45.698 0.064 6.7 0.22 11.75
4/21/2022 4:15:00 PM 7.6 45.68 0.064 6.7 0.23 11.76
4/21/2022 4:30:00 PM 7.6 45.68 0.064 6.7 0.24 11.74
4/21/2022 4:45:00 PM 7.59 45.662 0.063 6.69 0.21 11.74
4/21/2022 5:00:00 PM 7.59 45.662 0.063 6.68 0.35 11.74
4/21/2022 5:15:00 PM 7.6 45.68 0.063 6.68 0.28 11.73
4/21/2022 5:30:00 PM 7.61 45.698 0.063 6.67 0.24 11.73
4/21/2022 5:45:00 PM 7.63 45.734 0.063 6.66 0.27 11.72
4/21/2022 6:00:00 PM 7.64 45.752 0.063 6.66 0.24 11.72
4/21/2022 6:15:00 PM 7.65 45.77 0.063 6.66 0.32 11.72
4/21/2022 6:30:00 PM 7.65 45.77 0.063 6.65 0.31 11.7
4/21/2022 6:45:00 PM 7.65 45.77 0.063 6.63 0.28 11.71
4/21/2022 7:00:00 PM 7.65 45.77 0.063 6.63 0.41 11.7
4/21/2022 7:15:00 PM 7.65 45.77 0.063 6.63 0.37 11.7
4/21/2022 7:30:00 PM 7.64 45.752 0.063 6.62 0.38 11.7
4/21/2022 7:45:00 PM 7.63 45.734 0.063 6.59 0.37 11.71
4/21/2022 8:00:00 PM 7.62 45.716 0.063 6.61 0.32 11.71
4/21/2022 8:15:00 PM 7.61 45.698 0.063 6.6 0.42 11.71
4/21/2022 8:30:00 PM 7.59 45.662 0.063 6.6 0.47 11.71
4/21/2022 8:45:00 PM 7.58 45.644 0.064 6.59 0.54 11.71
4/21/2022 9:00:00 PM 7.57 45.626 0.064 6.58 0.52 11.72
4/21/2022 9:15:00 PM 7.56 45.608 0.064 6.59 0.49 11.72
4/21/2022 9:30:00 PM 7.54 45.572 0.064 6.56 0.55 11.73
4/21/2022 9:45:00 PM 7.53 45.554 0.064 6.57 0.47 11.73
4/21/2022 10:00:00 PM 7.51 45.518 0.064 6.56 0.53 11.75
4/21/2022 10:15:00 PM 7.5 45.5 0.064 6.57 0.54 11.75
4/21/2022 10:30:00 PM 7.49 45.482 0.064 6.57 0.49 11.75
4/21/2022 10:45:00 PM 7.48 45.464 0.064 6.57 0.49 11.75
4/21/2022 11:00:00 PM 7.46 45.428 0.064 6.56 0.46 11.76
4/21/2022 11:15:00 PM 7.43 45.374 0.064 6.57 0.59 11.77
4/21/2022 11:30:00 PM 7.41 45.338 0.064 6.56 0.52 11.78
4/21/2022 11:45:00 PM 7.38 45.284 0.064 6.56 0.48 11.79
4/22/2022 12:00:00 AM 7.35 45.23 0.064 6.56 0.47 11.79
4/22/2022 12:15:00 AM 7.33 45.194 0.064 6.56 0.47 11.8
4/22/2022 12:30:00 AM 7.29 45.122 0.064 6.56 0.47 11.81
4/22/2022 12:45:00 AM 7.26 45.068 0.064 6.54 0.49 11.82
4/22/2022 1:00:00 AM 7.22 44.996 0.064 6.56 0.49 11.83
4/22/2022 1:15:00 AM 7.18 44.924 0.064 6.56 0.42 11.83
4/22/2022 1:30:00 AM 7.14 44.852 0.064 6.56 0.44 11.85
4/22/2022 1:45:00 AM 7.1 44.78 0.064 6.55 0.45 11.86
4/22/2022 2:00:00 AM 7.05 44.69 0.065 6.56 0.41 11.88
4/22/2022 2:15:00 AM 7.01 44.618 0.065 6.56 0.38 11.89
4/22/2022 2:30:00 AM 6.97 44.546 0.065 6.56 0.44 11.91
4/22/2022 2:45:00 AM 6.92 44.456 0.064 6.56 0.47 11.92
4/22/2022 3:00:00 AM 6.88 44.384 0.065 6.55 0.36 11.93
4/22/2022 3:15:00 AM 6.83 44.294 0.065 6.56 0.36 11.96
4/22/2022 3:30:00 AM 6.79 44.222 0.065 6.55 0.34 11.97
4/22/2022 3:45:00 AM 6.74 44.132 0.065 6.55 0.38 11.98
4/22/2022 4:00:00 AM 6.7 44.06 0.065 6.55 0.36 12
4/22/2022 4:15:00 AM 6.65 43.97 0.065 6.55 0.56 12
4/22/2022 4:30:00 AM 6.6 43.88 0.065 6.56 0.44 12.02
4/22/2022 4:45:00 AM 6.56 43.808 0.065 6.55 0.37 12.03
4/22/2022 5:00:00 AM 6.51 43.718 0.065 6.55 0.36 12.04
4/22/2022 5:15:00 AM 6.47 43.646 0.065 6.54 0.34 12.06
4/22/2022 5:30:00 AM 6.42 43.556 0.065 6.53 0.3 12.08
4/22/2022 5:45:00 AM 6.37 43.466 0.065 6.55 0.32 12.1
4/22/2022 6:00:00 AM 6.33 43.394 0.065 6.55 0.33 12.12
4/22/2022 6:15:00 AM 6.28 43.304 0.065 6.55 0.34 12.14
4/22/2022 6:30:00 AM 6.23 43.214 0.065 6.55 0.29 12.16
4/22/2022 6:45:00 AM 6.2 43.16 0.065 6.55 0.29 12.19
4/22/2022 7:00:00 AM 6.16 43.088 0.065 6.54 0.26 12.22
4/22/2022 7:15:00 AM 6.12 43.016 0.065 6.56 0.22 12.24
4/22/2022 7:30:00 AM 6.1 42.98 0.065 6.56 0.14 12.26
4/22/2022 7:45:00 AM 6.08 42.944 0.065 6.57 0.18 12.29
4/22/2022 8:00:00 AM 6.08 42.944 0.065 6.57 0.15 12.3
4/22/2022 8:15:00 AM 6.08 42.944 0.065 6.58 0.15 12.32
4/22/2022 8:30:00 AM 6.1 42.98 0.065 6.58 0.16 12.34
4/22/2022 8:45:00 AM 6.14 43.052 0.065 6.6 0.05 12.34
4/22/2022 9:00:00 AM 6.2 43.16 0.065 6.61 0.1 12.34
4/22/2022 9:15:00 AM 6.26 43.268 0.065 6.62 0.14 12.33
4/22/2022 9:30:00 AM 6.35 43.43 0.065 6.6 0.14 12.31
4/22/2022 9:45:00 AM 6.45 43.61 0.065 6.63 0.09 12.28
4/22/2022 10:00:00 AM 6.57 43.826 0.065 6.63 0.09 12.25
4/22/2022 10:15:00 AM 6.71 44.078 0.065 6.63 0.1 12.23
4/22/2022 10:30:00 AM 6.88 44.384 0.065 6.63 0.07 12.19
4/22/2022 10:45:00 AM 7.07 44.726 0.065 6.64 0.06 12.13
4/22/2022 11:00:00 AM 7.27 45.086 0.065 6.64 0.1 12.08
4/22/2022 11:15:00 AM 7.48 45.464 0.065 6.64 0.08 12.04
4/22/2022 11:30:00 AM 7.71 45.878 0.065 6.64 0.01 11.97
4/22/2022 11:45:00 AM 7.96 46.328 0.066 6.64 0.1 11.9
4/22/2022 12:00:00 PM 8.2 46.76 0.066 6.64 0.13 11.83
4/22/2022 12:15:00 PM 8.44 47.192 0.066 6.65 0.14 11.76
4/22/2022 12:30:00 PM 8.67 47.606 0.066 6.65 0.08 11.7
4/22/2022 12:45:00 PM 8.87 47.966 0.067 6.66 0.11 11.64
4/22/2022 1:00:00 PM 9.06 48.308 0.067 6.66 0.15 11.58
4/22/2022 1:15:00 PM 9.22 48.596 0.067 6.66 0.13 11.53
4/22/2022 1:30:00 PM 9.37 48.866 0.067 6.67 0.14 11.49
4/22/2022 1:45:00 PM 9.5 49.1 0.067 6.66 0.14 11.44
4/22/2022 2:00:00 PM 9.61 49.298 0.067 6.66 0.11 11.4
4/22/2022 2:15:00 PM 9.69 49.442 0.067 6.67 0.14 11.36
4/22/2022 2:30:00 PM 9.76 49.568 0.066 6.67 0.17 11.33
4/22/2022 2:45:00 PM 9.82 49.676 0.066 6.67 0.12 11.3
4/22/2022 3:00:00 PM 9.87 49.766 0.066 6.67 0.17 11.28
4/22/2022 3:15:00 PM 9.9 49.82 0.066 6.67 0.2 11.26
4/22/2022 3:30:00 PM 9.92 49.856 0.066 6.67 0.24 11.25
4/22/2022 3:45:00 PM 9.93 49.874 0.066 6.66 0.24 11.24
4/22/2022 4:00:00 PM 9.94 49.892 0.066 6.67 0.16 11.22
4/22/2022 4:15:00 PM 9.93 49.874 0.066 6.66 0.17 11.22
4/22/2022 4:30:00 PM 9.92 49.856 0.066 6.66 0.21 11.22
4/22/2022 4:45:00 PM 9.91 49.838 0.066 6.66 0.23 11.21
4/22/2022 5:00:00 PM 9.91 49.838 0.066 6.65 0.24 11.21
4/22/2022 5:15:00 PM 9.9 49.82 0.066 6.65 0.23 11.21
4/22/2022 5:30:00 PM 9.88 49.784 0.067 6.64 0.25 11.2
4/22/2022 5:45:00 PM 9.87 49.766 0.067 6.64 0.23 11.2
4/22/2022 6:00:00 PM 9.86 49.748 0.067 6.64 0.32 11.2
4/22/2022 6:15:00 PM 9.86 49.748 0.067 6.63 0.37 11.2
4/22/2022 6:30:00 PM 9.84 49.712 0.067 6.63 0.32 11.2
4/22/2022 6:45:00 PM 9.83 49.694 0.067 6.62 0.31 11.19
4/22/2022 7:00:00 PM 9.8 49.64 0.067 6.62 0.42 11.19
4/22/2022 7:15:00 PM 9.76 49.568 0.067 6.61 0.35 11.17
4/22/2022 7:30:00 PM 9.72 49.496 0.067 6.6 0.34 11.16
4/22/2022 7:45:00 PM 9.68 49.424 0.067 6.59 0.36 11.16
4/22/2022 8:00:00 PM 9.62 49.316 0.067 6.58 0.37 11.17
4/22/2022 8:15:00 PM 9.57 49.226 0.067 6.58 0.46 11.18
4/22/2022 8:30:00 PM 9.51 49.118 0.067 6.57 0.38 11.19
4/22/2022 8:45:00 PM 9.44 48.992 0.067 6.56 0.52 11.21
4/22/2022 9:00:00 PM 9.37 48.866 0.067 6.57 0.57 11.22
4/22/2022 9:15:00 PM 9.3 48.74 0.067 6.56 0.5 11.25
4/22/2022 9:30:00 PM 9.23 48.614 0.067 6.55 0.54 11.26
4/22/2022 9:45:00 PM 9.16 48.488 0.067 6.56 0.46 11.28
4/22/2022 10:00:00 PM 9.08 48.344 0.067 6.55 0.41 11.3
4/22/2022 10:15:00 PM 9.01 48.218 0.067 6.55 0.45 11.32
4/22/2022 10:30:00 PM 8.94 48.092 0.068 6.55 0.46 11.34
4/22/2022 10:45:00 PM 8.87 47.966 0.068 6.55 0.49 11.37
4/22/2022 11:00:00 PM 8.8 47.84 0.068 6.55 0.44 11.39
4/22/2022 11:15:00 PM 8.73 47.714 0.068 6.55 0.44 11.42
4/22/2022 11:30:00 PM 8.67 47.606 0.068 6.55 0.42 11.43
4/22/2022 11:45:00 PM 8.61 47.498 0.068 6.54 0.45 11.45
4/23/2022 12:00:00 AM 8.55 47.39 0.068 6.54 0.44 11.46
4/23/2022 12:15:00 AM 8.5 47.3 0.068 6.53 0.44 11.47
4/23/2022 12:30:00 AM 8.44 47.192 0.069 6.54 0.48 11.48
4/23/2022 12:45:00 AM 8.4 47.12 0.069 6.54 0.38 11.5
4/23/2022 1:00:00 AM 8.35 47.03 0.069 6.54 0.44 11.52
4/23/2022 1:15:00 AM 8.31 46.958 0.069 6.54 0.46 11.53
4/23/2022 1:30:00 AM 8.26 46.868 0.069 6.53 0.4 11.55
4/23/2022 1:45:00 AM 8.22 46.796 0.069 6.53 0.37 11.56
4/23/2022 2:00:00 AM 8.18 46.724 0.068 6.54 0.39 11.57
4/23/2022 2:15:00 AM 8.13 46.634 0.068 6.53 0.35 11.59
4/23/2022 2:30:00 AM 8.09 46.562 0.068 6.53 0.36 11.6
4/23/2022 2:45:00 AM 8.04 46.472 0.068 6.53 0.4 11.62
4/23/2022 3:00:00 AM 7.99 46.382 0.068 6.53 0.37 11.63
4/23/2022 3:15:00 AM 7.95 46.31 0.068 6.53 0.35 11.64
4/23/2022 3:30:00 AM 7.91 46.238 0.068 6.53 0.33 11.64
4/23/2022 3:45:00 AM 7.87 46.166 0.068 6.53 0.33 11.65
4/23/2022 4:00:00 AM 7.83 46.094 0.067 6.53 0.34 11.66
4/23/2022 4:15:00 AM 7.79 46.022 0.067 6.53 0.24 11.66
4/23/2022 4:30:00 AM 7.76 45.968 0.067 6.53 0.25 11.68
4/23/2022 4:45:00 AM 7.72 45.896 0.067 6.53 0.29 11.69
4/23/2022 5:00:00 AM 7.69 45.842 0.067 6.53 0.23 11.71
4/23/2022 5:15:00 AM 7.66 45.788 0.067 6.52 0.22 11.72
4/23/2022 5:30:00 AM 7.63 45.734 0.067 6.53 0.26 11.73
4/23/2022 5:45:00 AM 7.6 45.68 0.067 6.52 0.21 11.74
4/23/2022 6:00:00 AM 7.57 45.626 0.067 6.52 0.22 11.76
4/23/2022 6:15:00 AM 7.54 45.572 0.067 6.52 0.21 11.76
4/23/2022 6:30:00 AM 7.52 45.536 0.067 6.53 0.23 11.77
4/23/2022 6:45:00 AM 7.49 45.482 0.067 6.53 0.2 11.79
4/23/2022 7:00:00 AM 7.47 45.446 0.067 6.54 0.3 11.81
4/23/2022 7:15:00 AM 7.45 45.41 0.067 6.54 0.2 11.82
4/23/2022 7:30:00 AM 7.44 45.392 0.067 6.54 0.16 11.84
4/23/2022 7:45:00 AM 7.43 45.374 0.067 6.54 0.15 11.85
4/23/2022 8:00:00 AM 7.42 45.356 0.067 6.55 0.14 11.86
4/23/2022 8:15:00 AM 7.42 45.356 0.066 6.56 0.17 11.87
4/23/2022 8:30:00 AM 7.42 45.356 0.066 6.56 0.13 11.89
4/23/2022 8:45:00 AM 7.44 45.392 0.066 6.57 0.15 11.92
4/23/2022 9:00:00 AM 7.46 45.428 0.066 6.58 0.09 11.92
4/23/2022 9:15:00 AM 7.49 45.482 0.066 6.59 0.06 11.93
4/23/2022 9:30:00 AM 7.54 45.572 0.066 6.61 0.09 11.92
4/23/2022 9:45:00 AM 7.58 45.644 0.066 6.62 0.15 11.92
4/23/2022 10:00:00 AM 7.63 45.734 0.066 6.63 0.1 11.9
4/23/2022 10:15:00 AM 7.69 45.842 0.066 6.63 0.06 11.9
4/23/2022 10:30:00 AM 7.76 45.968 0.066 6.64 0.1 11.88
4/23/2022 10:45:00 AM 7.83 46.094 0.066 6.64 0.07 11.86
4/23/2022 11:00:00 AM 7.89 46.202 0.066 6.64 0.06 11.84
4/23/2022 11:15:00 AM 7.98 46.364 0.066 6.64 0.06 11.83
4/23/2022 11:30:00 AM 8.09 46.562 0.066 6.65 0.1 11.8
4/23/2022 11:45:00 AM 8.19 46.742 0.066 6.63 0.13 11.78
4/23/2022 12:00:00 PM 8.43 47.174 0.066 6.65 0.09 11.72
4/23/2022 12:15:00 PM 8.62 47.516 0.066 6.66 0.07 11.67
4/23/2022 12:30:00 PM 8.74 47.732 0.066 6.66 0.09 11.63
4/23/2022 12:45:00 PM 8.92 48.056 0.066 6.66 0.2 11.58
4/23/2022 1:00:00 PM 9.06 48.308 0.066 6.66 0.07 11.53
4/23/2022 1:15:00 PM 9.1 48.38 0.066 6.66 0.15 11.5
4/23/2022 1:30:00 PM 9.28 48.704 0.066 6.66 0.13 11.46
4/23/2022 1:45:00 PM 9.31 48.758 0.066 6.66 0.13 11.42
4/23/2022 2:00:00 PM 9.35 48.83 0.066 6.66 0.22 11.41
4/23/2022 2:15:00 PM 9.45 49.01 0.066 6.67 0.11 11.38
4/23/2022 2:30:00 PM 9.52 49.136 0.065 6.67 0.13 11.36
4/23/2022 2:45:00 PM 9.55 49.19 0.065 6.66 0.2 11.34
4/23/2022 3:00:00 PM 9.62 49.316 0.065 6.67 0.17 11.32
4/23/2022 3:15:00 PM 9.62 49.316 0.065 6.66 0.16 11.29
4/23/2022 3:30:00 PM 9.59 49.262 0.065 6.67 0.19 11.27
4/23/2022 3:45:00 PM 9.56 49.208 0.065 6.64 0.17 11.26
4/23/2022 4:00:00 PM 9.53 49.154 0.065 6.65 0.22 11.25
4/23/2022 4:15:00 PM 9.5 49.1 0.065 6.63 0.2 11.24
4/23/2022 4:30:00 PM 9.48 49.064 0.064 6.64 0.17 11.24
4/23/2022 4:45:00 PM 9.46 49.028 0.064 6.64 0.21 11.26
4/23/2022 5:00:00 PM 9.45 49.01 0.064 6.64 0.29 11.26
4/23/2022 5:15:00 PM 9.45 49.01 0.064 6.64 0.22 11.26
4/23/2022 5:30:00 PM 9.45 49.01 0.064 6.64 0.25 11.24
4/23/2022 5:45:00 PM 9.46 49.028 0.064 6.63 0.24 11.25
4/23/2022 6:00:00 PM 9.48 49.064 0.064 6.64 0.2 11.26
4/23/2022 6:15:00 PM 9.49 49.082 0.064 6.63 0.22 11.25
4/23/2022 6:30:00 PM 9.49 49.082 0.064 6.63 0.26 11.24
4/23/2022 6:45:00 PM 9.5 49.1 0.064 6.64 0.24 11.23
4/23/2022 7:00:00 PM 9.49 49.082 0.064 6.62 0.24 11.22
4/23/2022 7:15:00 PM 9.47 49.046 0.064 6.59 0.27 11.21
4/23/2022 7:30:00 PM 9.44 48.992 0.064 6.61 0.27 11.19
4/23/2022 7:45:00 PM 9.42 48.956 0.064 6.6 0.16 11.18
4/23/2022 8:00:00 PM 9.38 48.884 0.064 6.6 0.24 11.17
4/23/2022 8:15:00 PM 9.34 48.812 0.064 6.57 0.23 11.18
4/23/2022 8:30:00 PM 9.3 48.74 0.064 6.58 0.22 11.18
4/23/2022 8:45:00 PM 9.26 48.668 0.064 6.58 0.34 11.19
4/23/2022 9:00:00 PM 9.21 48.578 0.064 6.58 0.31 11.2
4/23/2022 9:15:00 PM 9.17 48.506 0.064 6.53 0.31 11.21
4/23/2022 9:30:00 PM 9.12 48.416 0.064 6.58 0.3 11.21
4/23/2022 9:45:00 PM 9.08 48.344 0.064 6.57 0.28 11.23
4/23/2022 10:00:00 PM 9.04 48.272 0.064 6.57 0.34 11.24
4/23/2022 10:15:00 PM 8.99 48.182 0.064 6.56 0.3 11.26
4/23/2022 10:30:00 PM 8.95 48.11 0.064 6.56 0.35 11.27
4/23/2022 10:45:00 PM 8.91 48.038 0.064 6.57 0.29 11.28
4/23/2022 11:00:00 PM 8.87 47.966 0.064 6.58 0.33 11.29
4/23/2022 11:15:00 PM 8.83 47.894 0.064 6.57 0.29 11.3
4/23/2022 11:30:00 PM 8.79 47.822 0.064 6.57 0.29 11.32
4/23/2022 11:45:00 PM 8.76 47.768 0.064 6.57 0.35 11.33
4/24/2022 12:00:00 AM 8.72 47.696 0.064 6.57 0.28 11.34
4/24/2022 12:15:00 AM 8.68 47.624 0.064 6.55 0.34 11.35
4/24/2022 12:30:00 AM 8.64 47.552 0.064 6.57 0.27 11.36
4/24/2022 12:45:00 AM 8.6 47.48 0.064 6.57 0.27 11.37
4/24/2022 1:00:00 AM 8.55 47.39 0.064 6.58 0.29 11.37
4/24/2022 1:15:00 AM 8.51 47.318 0.064 6.57 0.29 11.38
4/24/2022 1:30:00 AM 8.46 47.228 0.064 6.58 0.18 11.39
4/24/2022 1:45:00 AM 8.41 47.138 0.064 6.57 0.28 11.41
4/24/2022 2:00:00 AM 8.36 47.048 0.064 6.58 0.27 11.42
4/24/2022 2:15:00 AM 8.31 46.958 0.064 6.58 0.18 11.43
4/24/2022 2:30:00 AM 8.27 46.886 0.064 6.58 0.19 11.45
4/24/2022 2:45:00 AM 8.22 46.796 0.064 6.56 0.24 11.46
4/24/2022 3:00:00 AM 8.18 46.724 0.064 6.58 0.18 11.47
4/24/2022 3:15:00 AM 8.13 46.634 0.064 6.56 0.25 11.49
4/24/2022 3:30:00 AM 8.08 46.544 0.063 6.57 0.22 11.51
4/24/2022 3:45:00 AM 8.04 46.472 0.063 6.57 0.18 11.52
4/24/2022 4:00:00 AM 7.99 46.382 0.063 6.55 0.28 11.53
4/24/2022 4:15:00 AM 7.94 46.292 0.063 6.58 0.2 11.54
4/24/2022 4:30:00 AM 7.9 46.22 0.063 6.56 0.22 11.55
4/24/2022 4:45:00 AM 7.85 46.13 0.063 6.57 0.2 11.56
4/24/2022 5:00:00 AM 7.8 46.04 0.063 6.57 0.2 11.57
4/24/2022 5:15:00 AM 7.76 45.968 0.063 6.57 0.24 11.59
4/24/2022 5:30:00 AM 7.72 45.896 0.063 6.58 0.16 11.6
4/24/2022 5:45:00 AM 7.68 45.824 0.063 6.57 0.22 11.61
4/24/2022 6:00:00 AM 7.63 45.734 0.063 6.56 0.2 11.63
4/24/2022 6:15:00 AM 7.59 45.662 0.063 6.57 0.13 11.64
4/24/2022 6:30:00 AM 7.56 45.608 0.063 6.56 0.16 11.67
4/24/2022 6:45:00 AM 7.53 45.554 0.062 6.59 0.14 11.7
4/24/2022 7:00:00 AM 7.51 45.518 0.062 6.6 0.14 11.73
4/24/2022 7:15:00 AM 7.5 45.5 0.062 6.61 0.1 11.77
4/24/2022 7:30:00 AM 7.49 45.482 0.062 6.61 0.12 11.78
4/24/2022 7:45:00 AM 7.49 45.482 0.062 6.6 0.08 11.78
4/24/2022 8:00:00 AM 7.5 45.5 0.062 6.62 0.07 11.8
4/24/2022 8:15:00 AM 7.52 45.536 0.062 6.61 0.04 11.82
4/24/2022 8:30:00 AM 7.54 45.572 0.062 6.62 0.06 11.82
4/24/2022 8:45:00 AM 7.59 45.662 0.062 6.62 0.06 11.82
4/24/2022 9:00:00 AM 7.64 45.752 0.062 6.62 0.06 11.81
4/24/2022 9:15:00 AM 7.72 45.896 0.062 6.65 0.09 11.81
4/24/2022 9:30:00 AM 7.82 46.076 0.062 6.63 -0.01 11.78
4/24/2022 9:45:00 AM 7.93 46.274 0.062 6.67 0.03 11.77
4/24/2022 10:00:00 AM 8.07 46.526 0.062 6.67 0.08 11.75
4/24/2022 10:15:00 AM 8.22 46.796 0.062 6.67 0.02 11.71
4/24/2022 10:30:00 AM 8.4 47.12 0.062 6.66 0.07 11.66
4/24/2022 10:45:00 AM 8.61 47.498 0.061 6.68 0.01 11.62
4/24/2022 11:00:00 AM 8.82 47.876 0.061 6.68 0.01 11.56
4/24/2022 11:15:00 AM 9.05 48.29 0.061 6.68 0.03 11.49
4/24/2022 11:30:00 AM 9.3 48.74 0.061 6.68 0.12 11.44
4/24/2022 11:45:00 AM 9.57 49.226 0.061 6.69 0.02 11.37
4/24/2022 12:00:00 PM 9.85 49.73 0.061 6.68 0.11 11.29
4/24/2022 12:15:00 PM 10.12 50.216 0.061 6.68 0.06 11.23
4/24/2022 12:30:00 PM 10.39 50.702 0.061 6.7 0.1 11.15
4/24/2022 12:45:00 PM 10.65 51.17 0.061 6.7 0.04 11.09
4/24/2022 1:00:00 PM 10.88 51.584 0.061 6.66 0.05 11.02
4/24/2022 1:15:00 PM 11.09 51.962 0.061 6.7 0.09 10.95
4/24/2022 1:30:00 PM 11.28 52.304 0.061 6.7 0.07 10.91
4/24/2022 1:45:00 PM 11.45 52.61 0.061 6.7 0.1 10.85
4/24/2022 2:00:00 PM 11.59 52.862 0.061 6.7 0.05 10.81
4/24/2022 2:15:00 PM 11.71 53.078 0.061 6.71 0.1 10.76
4/24/2022 2:30:00 PM 11.82 53.276 0.061 6.71 0.09 10.73
4/24/2022 2:45:00 PM 11.91 53.438 0.061 6.65 0.14 10.7
4/24/2022 3:00:00 PM 11.99 53.582 0.061 6.7 0.24 10.67
4/24/2022 3:15:00 PM 12.05 53.69 0.061 6.69 0.14 10.64
4/24/2022 3:30:00 PM 12.1 53.78 0.061 6.69 0.19 10.61
4/24/2022 3:45:00 PM 12.14 53.852 0.061 6.69 0.17 10.59
4/24/2022 4:00:00 PM 12.18 53.924 0.061 6.7 0.17 10.57
4/24/2022 4:15:00 PM 12.21 53.978 0.061 6.69 0.2 10.55
4/24/2022 4:30:00 PM 12.22 53.996 0.061 6.67 0.3 10.54
4/24/2022 4:45:00 PM 12.24 54.032 0.061 6.69 0.18 10.53
4/24/2022 5:00:00 PM 12.24 54.032 0.061 6.7 0.22 10.51
4/24/2022 5:15:00 PM 12.24 54.032 0.061 6.68 0.25 10.5
4/24/2022 5:30:00 PM 12.24 54.032 0.061 6.68 0.34 10.49
4/24/2022 5:45:00 PM 12.24 54.032 0.061 6.68 0.23 10.48
4/24/2022 6:00:00 PM 12.23 54.014 0.061 6.65 0.49 10.47
4/24/2022 6:15:00 PM 12.23 54.014 0.061 6.65 0.45 10.46
4/24/2022 6:30:00 PM 12.22 53.996 0.061 6.67 0.38 10.45
4/24/2022 6:45:00 PM 12.21 53.978 0.061 6.65 0.37 10.44
4/24/2022 7:00:00 PM 12.19 53.942 0.061 6.65 0.33 10.43
4/24/2022 7:15:00 PM 12.17 53.906 0.061 6.65 0.31 10.42
4/24/2022 7:30:00 PM 12.14 53.852 0.061 6.63 0.26 10.42
4/24/2022 7:45:00 PM 12.11 53.798 0.061 6.64 0.3 10.41
4/24/2022 8:00:00 PM 12.07 53.726 0.061 6.62 0.33 10.41
4/24/2022 8:15:00 PM 12.04 53.672 0.061 6.59 0.27 10.41
4/24/2022 8:30:00 PM 12 53.6 0.061 6.61 0.31 10.42
4/24/2022 8:45:00 PM 11.96 53.528 0.061 6.62 0.42 10.43
4/24/2022 9:00:00 PM 11.92 53.456 0.061 6.59 0.41 10.44
4/24/2022 9:15:00 PM 11.88 53.384 0.061 6.59 0.51 10.45
4/24/2022 9:30:00 PM 11.84 53.312 0.061 6.61 0.44 10.46
4/24/2022 9:45:00 PM 11.79 53.222 0.061 6.61 0.41 10.47
4/24/2022 10:00:00 PM 11.74 53.132 0.061 6.59 0.44 10.48
4/24/2022 10:15:00 PM 11.69 53.042 0.061 6.59 0.52 10.49
4/24/2022 10:30:00 PM 11.64 52.952 0.061 6.61 0.49 10.51
4/24/2022 10:45:00 PM 11.58 52.844 0.061 6.61 0.41 10.52
4/24/2022 11:00:00 PM 11.53 52.754 0.061 6.59 0.46 10.54
4/24/2022 11:15:00 PM 11.47 52.646 0.061 6.6 0.43 10.55
4/24/2022 11:30:00 PM 11.42 52.556 0.061 6.61 0.46 10.57
4/24/2022 11:45:00 PM 11.36 52.448 0.061 6.61 0.48 10.59
4/25/2022 12:00:00 AM 11.31 52.358 0.061 6.61 0.46 10.6
4/25/2022 12:15:00 AM 11.25 52.25 0.061 6.61 0.46 10.61
4/25/2022 12:30:00 AM 11.2 52.16 0.061 6.6 0.6 10.62
4/25/2022 12:45:00 AM 11.15 52.07 0.061 6.59 0.53 10.63
4/25/2022 1:00:00 AM 11.1 51.98 0.061 6.61 0.47 10.64
4/25/2022 1:15:00 AM 11.04 51.872 0.061 6.6 0.45 10.66
4/25/2022 1:30:00 AM 10.99 51.782 0.061 6.61 0.47 10.67
4/25/2022 1:45:00 AM 10.93 51.674 0.061 6.62 0.51 10.69
4/25/2022 2:00:00 AM 10.88 51.584 0.061 6.61 0.52 10.71
4/25/2022 2:15:00 AM 10.82 51.476 0.061 6.62 0.5 10.73
4/25/2022 2:30:00 AM 10.77 51.386 0.061 6.61 0.49 10.74
4/25/2022 2:45:00 AM 10.71 51.278 0.061 6.62 0.45 10.76
4/25/2022 3:00:00 AM 10.66 51.188 0.061 6.62 0.45 10.77
4/25/2022 3:15:00 AM 10.6 51.08 0.061 6.62 0.44 10.78
4/25/2022 3:30:00 AM 10.54 50.972 0.061 6.61 0.45 10.8
4/25/2022 3:45:00 AM 10.49 50.882 0.061 6.61 0.46 10.81
4/25/2022 4:00:00 AM 10.43 50.774 0.061 6.62 0.48 10.82
4/25/2022 4:15:00 AM 10.37 50.666 0.061 6.62 0.43 10.83
4/25/2022 4:30:00 AM 10.31 50.558 0.061 6.62 0.42 10.86
4/25/2022 4:45:00 AM 10.26 50.468 0.061 6.61 0.44 10.88
4/25/2022 5:00:00 AM 10.19 50.342 0.061 6.63 0.42 10.89
4/25/2022 5:15:00 AM 10.14 50.252 0.061 6.6 0.39 10.91
4/25/2022 5:30:00 AM 10.08 50.144 0.06 6.62 0.39 10.93
4/25/2022 5:45:00 AM 10.04 50.072 0.06 6.61 0.55 10.95
4/25/2022 6:00:00 AM 9.99 49.982 0.06 6.63 0.4 10.96
4/25/2022 6:15:00 AM 9.95 49.91 0.06 6.63 0.43 10.98
4/25/2022 6:30:00 AM 9.91 49.838 0.06 6.63 0.39 10.99
4/25/2022 6:45:00 AM 9.87 49.766 0.06 6.62 0.33 11.01
4/25/2022 7:00:00 AM 9.83 49.694 0.06 6.64 0.48 11.04
4/25/2022 7:15:00 AM 9.8 49.64 0.06 6.65 0.33 11.06
4/25/2022 7:30:00 AM 9.78 49.604 0.06 6.66 0.35 11.08
4/25/2022 7:45:00 AM 9.75 49.55 0.06 6.65 0.37 11.12
4/25/2022 8:00:00 AM 9.74 49.532 0.06 6.68 0.34 11.14
4/25/2022 8:15:00 AM 9.73 49.514 0.06 6.69 0.37 11.17
4/25/2022 8:30:00 AM 9.73 49.514 0.06 6.7 0.3 11.19
4/25/2022 8:45:00 AM 9.73 49.514 0.06 6.7 0.21 11.2
4/25/2022 9:00:00 AM 9.74 49.532 0.06 6.7 0.3 11.21
4/25/2022 9:15:00 AM 9.77 49.586 0.06 6.72 0.3 11.23
4/25/2022 9:30:00 AM 9.8 49.64 0.06 6.72 0.32 11.22
4/25/2022 9:45:00 AM 9.85 49.73 0.06 6.72 0.25 11.23
4/25/2022 10:00:00 AM 9.9 49.82 0.059 6.72 0.24 11.23
4/25/2022 10:15:00 AM 9.97 49.946 0.059 6.73 0.27 11.22
4/25/2022 10:30:00 AM 10.05 50.09 0.059 6.74 0.23 11.21
4/25/2022 10:45:00 AM 10.11 50.198 0.059 6.73 0.2 11.19
4/25/2022 11:00:00 AM 10.19 50.342 0.059 6.74 0.24 11.17
4/25/2022 11:15:00 AM 10.28 50.504 0.059 6.74 0.22 11.15
4/25/2022 11:30:00 AM 10.38 50.684 0.059 6.73 0.25 11.12
4/25/2022 11:45:00 AM 10.48 50.864 0.059 6.73 0.22 11.1
4/25/2022 12:00:00 PM 10.58 51.044 0.059 6.74 0.27 11.08
4/25/2022 12:15:00 PM 10.69 51.242 0.059 6.73 0.22 11.06
4/25/2022 12:30:00 PM 10.83 51.494 0.059 6.73 0.19 11.02
4/25/2022 12:45:00 PM 10.97 51.746 0.059 6.73 0.23 10.98
4/25/2022 1:00:00 PM 11.12 52.016 0.059 6.74 0.31 10.94
4/25/2022 1:15:00 PM 11.23 52.214 0.06 6.73 0.26 10.92
4/25/2022 1:30:00 PM 11.33 52.394 0.06 6.73 0.26 10.89
4/25/2022 1:45:00 PM 11.43 52.574 0.06 6.75 0.27 10.87
4/25/2022 2:00:00 PM 11.52 52.736 0.06 6.75 0.26 10.83
4/25/2022 2:15:00 PM 11.66 52.988 0.06 6.75 0.34 10.79
4/25/2022 2:30:00 PM 11.74 53.132 0.06 6.75 0.23 10.77
4/25/2022 2:45:00 PM 11.88 53.384 0.06 6.72 0.31 10.74
4/25/2022 3:00:00 PM 11.96 53.528 0.06 6.74 0.31 10.7
4/25/2022 3:15:00 PM 12.03 53.654 0.059 6.73 0.29 10.67
4/25/2022 3:30:00 PM 12.08 53.744 0.059 6.73 0.29 10.64
4/25/2022 3:45:00 PM 12.12 53.816 0.059 6.73 0.33 10.61
4/25/2022 4:00:00 PM 12.15 53.87 0.059 6.67 0.28 10.59
4/25/2022 4:15:00 PM 12.18 53.924 0.059 6.73 0.3 10.57
4/25/2022 4:30:00 PM 12.2 53.96 0.058 6.71 0.36 10.55
4/25/2022 4:45:00 PM 12.21 53.978 0.058 6.73 0.31 10.55
4/25/2022 5:00:00 PM 12.2 53.96 0.058 6.73 0.29 10.54
4/25/2022 5:15:00 PM 12.17 53.906 0.058 6.7 0.27 10.54
4/25/2022 5:30:00 PM 12.14 53.852 0.058 6.71 0.25 10.54
4/25/2022 5:45:00 PM 12.09 53.762 0.058 6.72 0.28 10.54
4/25/2022 6:00:00 PM 12.04 53.672 0.058 6.7 0.36 10.54
4/25/2022 6:15:00 PM 11.99 53.582 0.058 6.71 0.31 10.54
4/25/2022 6:30:00 PM 11.94 53.492 0.058 6.71 0.3 10.55
4/25/2022 6:45:00 PM 11.9 53.42 0.058 6.71 0.32 10.54
4/25/2022 7:00:00 PM 11.86 53.348 0.058 6.69 0.25 10.55
4/25/2022 7:15:00 PM 11.83 53.294 0.058 6.69 0.33 10.53
4/25/2022 7:30:00 PM 11.79 53.222 0.058 6.68 0.29 10.52
4/25/2022 7:45:00 PM 11.76 53.168 0.058 6.65 0.3 10.51
4/25/2022 8:00:00 PM 11.72 53.096 0.058 6.66 0.34 10.5
4/25/2022 8:15:00 PM 11.69 53.042 0.059 6.67 0.31 10.49
4/25/2022 8:30:00 PM 11.67 53.006 0.059 6.65 0.38 10.49
4/25/2022 8:45:00 PM 11.64 52.952 0.059 6.65 0.4 10.5
4/25/2022 9:00:00 PM 11.62 52.916 0.059 6.65 0.35 10.51
4/25/2022 9:15:00 PM 11.61 52.898 0.059 6.65 0.5 10.51
4/25/2022 9:30:00 PM 11.59 52.862 0.059 6.63 0.33 10.51
4/25/2022 9:45:00 PM 11.58 52.844 0.059 6.66 0.43 10.52
4/25/2022 10:00:00 PM 11.56 52.808 0.059 6.66 0.41 10.52
4/25/2022 10:15:00 PM 11.54 52.772 0.059 6.65 0.37 10.53
4/25/2022 10:30:00 PM 11.51 52.718 0.059 6.64 0.51 10.54
4/25/2022 10:45:00 PM 11.48 52.664 0.059 6.65 0.44 10.54
4/25/2022 11:00:00 PM 11.45 52.61 0.059 6.66 0.38 10.55
4/25/2022 11:15:00 PM 11.42 52.556 0.059 6.66 0.39 10.56
4/25/2022 11:30:00 PM 11.39 52.502 0.059 6.64 0.47 10.57
4/25/2022 11:45:00 PM 11.35 52.43 0.059 6.65 0.36 10.58
4/26/2022 12:00:00 AM 11.32 52.376 0.059 6.65 0.45 10.59
4/26/2022 12:15:00 AM 11.28 52.304 0.059 6.66 0.46 10.6
4/26/2022 12:30:00 AM 11.25 52.25 0.059 6.66 0.36 10.6
4/26/2022 12:45:00 AM 11.22 52.196 0.059 6.66 0.43 10.61
4/26/2022 1:00:00 AM 11.18 52.124 0.059 6.63 0.43 10.62
4/26/2022 1:15:00 AM 11.15 52.07 0.059 6.62 0.34 10.63
4/26/2022 1:30:00 AM 11.12 52.016 0.059 6.65 0.48 10.63
4/26/2022 1:45:00 AM 11.09 51.962 0.059 6.6 0.4 10.64
4/26/2022 2:00:00 AM 11.05 51.89 0.059 6.65 0.36 10.64
4/26/2022 2:15:00 AM 11.02 51.836 0.059 6.64 0.46 10.65
4/26/2022 2:30:00 AM 10.99 51.782 0.059 6.65 0.37 10.66
4/26/2022 2:45:00 AM 10.96 51.728 0.059 6.64 0.4 10.67
4/26/2022 3:00:00 AM 10.93 51.674 0.059 6.58 0.48 10.67
4/26/2022 3:15:00 AM 10.9 51.62 0.059 6.65 0.41 10.68
4/26/2022 3:30:00 AM 10.87 51.566 0.059 6.61 0.46 10.69
4/26/2022 3:45:00 AM 10.84 51.512 0.059 6.66 0.36 10.7
4/26/2022 4:00:00 AM 10.8 51.44 0.059 6.66 0.47 10.71
4/26/2022 4:15:00 AM 10.77 51.386 0.059 6.66 0.45 10.72
4/26/2022 4:30:00 AM 10.74 51.332 0.059 6.66 0.39 10.73
4/26/2022 4:45:00 AM 10.71 51.278 0.059 6.66 0.35 10.74
4/26/2022 5:00:00 AM 10.68 51.224 0.059 6.6 0.34 10.75
4/26/2022 5:15:00 AM 10.65 51.17 0.059 6.65 0.37 10.75
4/26/2022 5:30:00 AM 10.62 51.116 0.059 6.65 0.32 10.76
4/26/2022 5:45:00 AM 10.59 51.062 0.059 6.66 0.36 10.77
4/26/2022 6:00:00 AM 10.57 51.026 0.059 6.64 0.39 10.78
4/26/2022 6:15:00 AM 10.54 50.972 0.059 6.64 0.39 10.79
4/26/2022 6:30:00 AM 10.51 50.918 0.059 6.65 0.4 10.79
4/26/2022 6:45:00 AM 10.49 50.882 0.059 6.65 0.34 10.8
4/26/2022 7:00:00 AM 10.47 50.846 0.059 6.66 0.39 10.82
4/26/2022 7:15:00 AM 10.45 50.81 0.059 6.64 0.3 10.83
4/26/2022 7:30:00 AM 10.43 50.774 0.059 6.64 0.34 10.86
4/26/2022 7:45:00 AM 10.41 50.738 0.059 6.67 0.28 10.87
4/26/2022 8:00:00 AM 10.39 50.702 0.059 6.66 0.26 10.87
4/26/2022 8:15:00 AM 10.38 50.684 0.059 6.61 0.23 10.88
4/26/2022 8:30:00 AM 10.36 50.648 0.059 6.67 0.3 10.9
4/26/2022 8:45:00 AM 10.35 50.63 0.059 6.64 0.28 10.91
4/26/2022 9:00:00 AM 10.34 50.612 0.058 6.69 0.24 10.92
4/26/2022 9:15:00 AM 10.33 50.594 0.058 6.68 0.29 10.93
4/26/2022 9:30:00 AM 10.32 50.576 0.058 6.66 0.25 10.94
4/26/2022 9:45:00 AM 10.32 50.576 0.058 6.71 0.29 10.95
4/26/2022 10:00:00 AM 10.31 50.558 0.058 6.7 0.24 10.97
4/26/2022 10:15:00 AM 10.32 50.576 0.058 6.68 0.26 10.98
4/26/2022 10:30:00 AM 10.33 50.594 0.058 6.71 0.29 10.99
4/26/2022 10:45:00 AM 10.35 50.63 0.058 6.72 0.24 11
4/26/2022 11:00:00 AM 10.36 50.648 0.058 6.72 0.24 11
4/26/2022 11:15:00 AM 10.37 50.666 0.058 6.71 0.4 10.98
4/26/2022 11:30:00 AM 10.39 50.702 0.058 6.71 0.29 10.98
4/26/2022 11:45:00 AM 10.42 50.756 0.058 6.73 0.33 10.98
4/26/2022 12:00:00 PM 10.47 50.846 0.058 6.74 0.39 11
4/26/2022 12:15:00 PM 10.5 50.9 0.058 6.73 0.34 10.98
4/26/2022 12:30:00 PM 10.53 50.954 0.058 6.73 0.38 10.97
4/26/2022 12:45:00 PM 10.56 51.008 0.058 6.75 0.38 10.96
4/26/2022 1:00:00 PM 10.6 51.08 0.058 6.72 0.43 10.96
4/26/2022 1:15:00 PM 10.63 51.134 0.058 6.74 0.34 10.94
4/26/2022 1:30:00 PM 10.64 51.152 0.058 6.73 0.38 10.92
4/26/2022 1:45:00 PM 10.65 51.17 0.058 6.74 0.35 10.91
4/26/2022 2:00:00 PM 10.69 51.242 0.058 6.74 0.37 10.93
4/26/2022 2:15:00 PM 10.74 51.332 0.058 6.75 0.35 10.93
4/26/2022 2:30:00 PM 10.8 51.44 0.058 6.73 0.33 10.93
4/26/2022 2:45:00 PM 10.82 51.476 0.058 6.75 0.45 10.9
4/26/2022 3:00:00 PM 10.88 51.584 0.058 6.76 0.36 10.9
4/26/2022 3:15:00 PM 10.9 51.62 0.058 6.73 0.39 10.87
4/26/2022 3:30:00 PM 10.92 51.656 0.058 6.74 0.44 10.82
4/26/2022 3:45:00 PM 10.92 51.656 0.058 6.74 0.35 10.8
4/26/2022 4:00:00 PM 10.91 51.638 0.057 6.72 0.33 10.81
4/26/2022 4:15:00 PM 10.91 51.638 0.057 6.73 0.35 10.82
4/26/2022 4:30:00 PM 10.92 51.656 0.057 6.73 0.36 10.82
4/26/2022 4:45:00 PM 10.92 51.656 0.057 6.71 0.3 10.79
4/26/2022 5:00:00 PM 10.91 51.638 0.057 6.73 0.37 10.78
4/26/2022 5:15:00 PM 10.9 51.62 0.057 6.7 0.26 10.77
4/26/2022 5:30:00 PM 10.89 51.602 0.058 6.7 0.25 10.76
4/26/2022 5:45:00 PM 10.88 51.584 0.057 6.7 0.33 10.76
4/26/2022 6:00:00 PM 10.87 51.566 0.058 6.69 0.22 10.75
4/26/2022 6:15:00 PM 10.87 51.566 0.058 6.69 0.33 10.75
4/26/2022 6:30:00 PM 10.86 51.548 0.058 6.68 0.36 10.74
4/26/2022 6:45:00 PM 10.85 51.53 0.058 6.69 0.32 10.73
4/26/2022 7:00:00 PM 10.84 51.512 0.058 6.69 0.26 10.72
4/26/2022 7:15:00 PM 10.83 51.494 0.058 6.67 0.33 10.71
4/26/2022 7:30:00 PM 10.82 51.476 0.058 6.66 0.33 10.7
4/26/2022 7:45:00 PM 10.8 51.44 0.058 6.66 0.33 10.69
4/26/2022 8:00:00 PM 10.79 51.422 0.058 6.65 0.51 10.69
4/26/2022 8:15:00 PM 10.77 51.386 0.058 6.66 0.3 10.69
4/26/2022 8:30:00 PM 10.76 51.368 0.058 6.66 0.36 10.69
4/26/2022 8:45:00 PM 10.75 51.35 0.058 6.65 0.43 10.7
4/26/2022 9:00:00 PM 10.72 51.296 0.058 6.64 0.48 10.7
4/26/2022 9:15:00 PM 10.7 51.26 0.058 6.65 0.45 10.71
4/26/2022 9:30:00 PM 10.67 51.206 0.058 6.61 0.47 10.72
4/26/2022 9:45:00 PM 10.66 51.188 0.058 6.65 0.44 10.72
4/26/2022 10:00:00 PM 10.64 51.152 0.058 6.66 0.52 10.73
4/26/2022 10:15:00 PM 10.61 51.098 0.058 6.63 0.46 10.74
4/26/2022 10:30:00 PM 10.57 51.026 0.058 6.64 0.43 10.75
4/26/2022 10:45:00 PM 10.54 50.972 0.058 6.68 0.47 10.76
4/26/2022 11:00:00 PM 10.5 50.9 0.058 6.67 0.39 10.77
4/26/2022 11:15:00 PM 10.45 50.81 0.058 6.66 0.57 10.77
4/26/2022 11:30:00 PM 10.41 50.738 0.058 6.67 0.51 10.78
4/26/2022 11:45:00 PM 10.37 50.666 0.058 6.67 0.51 10.79
4/27/2022 12:00:00 AM 10.32 50.576 0.058 6.67 0.47 10.81
4/27/2022 12:15:00 AM 10.26 50.468 0.058 6.66 0.56 10.82
4/27/2022 12:30:00 AM 10.21 50.378 0.058 6.67 0.48 10.84
4/27/2022 12:45:00 AM 10.15 50.27 0.058 6.65 0.48 10.86
4/27/2022 1:00:00 AM 10.08 50.144 0.058 6.67 0.51 10.88
4/27/2022 1:15:00 AM 10.02 50.036 0.058 6.65 0.42 10.9
4/27/2022 1:30:00 AM 9.97 49.946 0.058 6.66 0.41 10.91
4/27/2022 1:45:00 AM 9.91 49.838 0.058 6.67 0.44 10.92
4/27/2022 2:00:00 AM 9.86 49.748 0.058 6.67 0.44 10.93
4/27/2022 2:15:00 AM 9.78 49.604 0.058 6.67 0.43 10.95
4/27/2022 2:30:00 AM 9.72 49.496 0.058 6.66 0.42 10.96
4/27/2022 2:45:00 AM 9.67 49.406 0.058 6.68 0.43 10.98
4/27/2022 3:00:00 AM 9.61 49.298 0.058 6.68 0.42 11
4/27/2022 3:15:00 AM 9.55 49.19 0.058 6.66 0.46 11.02
4/27/2022 3:30:00 AM 9.49 49.082 0.058 6.68 0.37 11.04
4/27/2022 3:45:00 AM 9.42 48.956 0.058 6.65 0.37 11.05
4/27/2022 4:00:00 AM 9.35 48.83 0.058 6.68 0.4 11.07
4/27/2022 4:15:00 AM 9.29 48.722 0.057 6.67 0.3 11.09
4/27/2022 4:30:00 AM 9.22 48.596 0.057 6.68 0.27 11.1
4/27/2022 4:45:00 AM 9.16 48.488 0.057 6.67 0.41 11.11
4/27/2022 5:00:00 AM 9.1 48.38 0.057 6.67 0.34 11.13
4/27/2022 5:15:00 AM 9.04 48.272 0.057 6.66 0.37 11.15
4/27/2022 5:30:00 AM 8.97 48.146 0.057 6.63 0.32 11.16
4/27/2022 5:45:00 AM 8.91 48.038 0.057 6.63 0.34 11.18
4/27/2022 6:00:00 AM 8.84 47.912 0.057 6.66 0.34 11.21
4/27/2022 6:15:00 AM 8.76 47.768 0.057 6.66 0.34 11.23
4/27/2022 6:30:00 AM 8.69 47.642 0.057 6.66 0.25 11.26
4/27/2022 6:45:00 AM 8.62 47.516 0.057 6.64 0.28 11.3
4/27/2022 7:00:00 AM 8.55 47.39 0.057 6.67 0.27 11.34
4/27/2022 7:15:00 AM 8.5 47.3 0.057 6.69 0.25 11.36
4/27/2022 7:30:00 AM 8.45 47.21 0.057 6.7 0.21 11.4
4/27/2022 7:45:00 AM 8.41 47.138 0.057 6.69 0.21 11.44
4/27/2022 8:00:00 AM 8.39 47.102 0.057 6.71 0.21 11.48
4/27/2022 8:15:00 AM 8.37 47.066 0.057 6.71 0.2 11.5
4/27/2022 8:30:00 AM 8.36 47.048 0.057 6.72 0.25 11.52
4/27/2022 8:45:00 AM 8.35 47.03 0.057 6.74 0.19 11.52
4/27/2022 9:00:00 AM 8.36 47.048 0.057 6.74 0.17 11.55
4/27/2022 9:15:00 AM 8.37 47.066 0.057 6.74 0.15 11.56
4/27/2022 9:30:00 AM 8.36 47.048 0.057 6.73 0.14 11.55
4/27/2022 9:45:00 AM 8.37 47.066 0.057 6.75 0.17 11.56
4/27/2022 10:00:00 AM 8.45 47.21 0.057 6.76 0.12 11.55
4/27/2022 10:15:00 AM 8.49 47.282 0.056 6.76 0.16 11.54
4/27/2022 10:30:00 AM 8.47 47.246 0.056 6.76 0.13 11.53
4/27/2022 10:45:00 AM 8.62 47.516 0.056 6.76 0.11 11.53
4/27/2022 11:00:00 AM 8.62 47.516 0.056 6.77 0.06 11.51
4/27/2022 11:15:00 AM 8.58 47.444 0.056 6.74 0.09 11.48
4/27/2022 11:30:00 AM 8.54 47.372 0.056 6.74 0.1 11.49
4/27/2022 11:45:00 AM 8.54 47.372 0.056 6.75 0.08 11.51
4/27/2022 12:00:00 PM 8.48 47.264 0.056 6.76 0.09 11.52
4/27/2022 12:15:00 PM 8.43 47.174 0.056 6.75 0.07 11.54
4/27/2022 12:30:00 PM 8.43 47.174 0.056 6.75 0.07 11.56
4/27/2022 12:45:00 PM 8.41 47.138 0.056 6.7 0.12 11.55
4/27/2022 1:00:00 PM 8.48 47.264 0.056 6.74 0.07 11.56
4/27/2022 1:15:00 PM 8.62 47.516 0.056 6.76 0.05 11.52
4/27/2022 1:30:00 PM 8.5 47.3 0.056 6.72 0.09 11.5
4/27/2022 1:45:00 PM 8.39 47.102 0.057 6.74 0.05 11.51
4/27/2022 2:00:00 PM 8.34 47.012 0.057 6.74 0.02 11.52
4/27/2022 2:15:00 PM 8.3 46.94 0.057 6.74 0.02 11.54
4/27/2022 2:30:00 PM 8.23 46.814 0.057 6.75 0.02 11.57
4/27/2022 2:45:00 PM 8.2 46.76 0.057 6.74 0.03 11.6
4/27/2022 3:00:00 PM 8.22 46.796 0.057 6.74 0.04 11.61
4/27/2022 3:15:00 PM 8.23 46.814 0.057 6.76 0.05 11.6
4/27/2022 3:30:00 PM 8.19 46.742 0.057 6.71 0.01 11.59
4/27/2022 3:45:00 PM 8.19 46.742 0.057 6.75 -0.01 11.6
4/27/2022 4:00:00 PM 8.18 46.724 0.057 6.75 0.03 11.61
4/27/2022 4:15:00 PM 8.13 46.634 0.057 6.74 0 11.59
4/27/2022 4:30:00 PM 8.08 46.544 0.057 6.73 0.03 11.6
4/27/2022 4:45:00 PM 8.09 46.562 0.057 6.74 0.04 11.63
4/27/2022 5:00:00 PM 8.05 46.49 0.057 6.74 0.01 11.62
4/27/2022 5:15:00 PM 8 46.4 0.057 6.73 -0.01 11.61
4/27/2022 5:30:00 PM 7.96 46.328 0.057 6.73 0.02 11.62
4/27/2022 5:45:00 PM 7.93 46.274 0.057 6.71 -0.04 11.63
4/27/2022 6:00:00 PM 7.88 46.184 0.057 6.73 0.01 11.63
4/27/2022 6:15:00 PM 7.82 46.076 0.057 6.73 0.03 11.64
4/27/2022 6:30:00 PM 7.77 45.986 0.057 6.73 0.02 11.65
4/27/2022 6:45:00 PM 7.73 45.914 0.057 6.71 0.08 11.62
4/27/2022 7:00:00 PM 7.68 45.824 0.057 6.7 -0.01 11.62
4/27/2022 7:15:00 PM 7.63 45.734 0.057 6.69 0.06 11.62
4/27/2022 7:30:00 PM 7.57 45.626 0.057 6.66 0.03 11.62
4/27/2022 7:45:00 PM 7.52 45.536 0.057 6.68 0.01 11.62
4/27/2022 8:00:00 PM 7.47 45.446 0.057 6.68 0.1 11.63
4/27/2022 8:15:00 PM 7.4 45.32 0.058 6.68 0.08 11.65
4/27/2022 8:30:00 PM 7.34 45.212 0.058 6.68 0 11.66
4/27/2022 8:45:00 PM 7.27 45.086 0.058 6.67 0.11 11.68
4/27/2022 9:00:00 PM 7.21 44.978 0.058 6.66 0.01 11.7
4/27/2022 9:15:00 PM 7.15 44.87 0.058 6.61 0.01 11.72
4/27/2022 9:30:00 PM 7.08 44.744 0.058 6.62 0.02 11.74
4/27/2022 9:45:00 PM 7.02 44.636 0.058 6.63 0.05 11.77
4/27/2022 10:00:00 PM 6.94 44.492 0.058 6.61 0.06 11.79
4/27/2022 10:15:00 PM 6.89 44.402 0.058 6.63 0.02 11.81
4/27/2022 10:30:00 PM 6.83 44.294 0.058 6.63 0.1 11.83
4/27/2022 10:45:00 PM 6.78 44.204 0.058 6.64 0.08 11.84
4/27/2022 11:00:00 PM 6.72 44.096 0.058 6.6 0.04 11.86
4/27/2022 11:15:00 PM 6.66 43.988 0.058 6.64 -0.01 11.87
4/27/2022 11:30:00 PM 6.6 43.88 0.058 6.65 0.01 11.89
4/27/2022 11:45:00 PM 6.55 43.79 0.058 6.64 -0.03 11.9
4/28/2022 12:00:00 AM 6.5 43.7 0.058 6.64 -0.05 11.92
4/28/2022 12:15:00 AM 6.45 43.61 0.058 6.65 0.04 11.94
4/28/2022 12:30:00 AM 6.41 43.538 0.058 6.65 -0.04 11.95
4/28/2022 12:45:00 AM 6.38 43.484 0.058 6.62 -0.05 11.97
4/28/2022 1:00:00 AM 6.33 43.394 0.058 6.66 0.02 11.98
4/28/2022 1:15:00 AM 6.29 43.322 0.058 6.65 -0.04 11.99
4/28/2022 1:30:00 AM 6.26 43.268 0.058 6.66 -0.04 12.01
4/28/2022 1:45:00 AM 6.21 43.178 0.058 6.66 -0.06 12.02
4/28/2022 2:00:00 AM 6.18 43.124 0.058 6.65 -0.08 12.04
4/28/2022 2:15:00 AM 6.13 43.034 0.058 6.65 -0.06 12.05
4/28/2022 2:30:00 AM 6.08 42.944 0.058 6.67 -0.12 12.06
4/28/2022 2:45:00 AM 6.04 42.872 0.058 6.66 -0.08 12.07
4/28/2022 3:00:00 AM 6 42.8 0.058 6.66 -0.11 12.08
4/28/2022 3:15:00 AM 5.95 42.71 0.058 6.65 -0.09 12.09
4/28/2022 3:30:00 AM 5.91 42.638 0.058 6.67 -0.12 12.1
4/28/2022 3:45:00 AM 5.87 42.566 0.058 6.66 -0.15 12.12
4/28/2022 4:00:00 AM 5.81 42.458 0.058 6.67 -0.13 12.14
4/28/2022 4:15:00 AM 5.77 42.386 0.058 6.65 -0.13 12.15
4/28/2022 4:30:00 AM 5.74 42.332 0.058 6.59 -0.13 12.17
4/28/2022 4:45:00 AM 5.7 42.26 0.058 6.53 -0.19 12.18
4/28/2022 5:00:00 AM 5.66 42.188 0.058 6.58 -0.13 12.2
4/28/2022 5:15:00 AM 5.62 42.116 0.058 6.59 -0.16 12.21
4/28/2022 5:30:00 AM 5.58 42.044 0.058 6.59 -0.14 12.22
4/28/2022 5:45:00 AM 5.55 41.99 0.058 6.57 -0.18 12.24
4/28/2022 6:00:00 AM 5.51 41.918 0.058 6.59 -0.13 12.25
4/28/2022 6:15:00 AM 5.47 41.846 0.058 6.6 -0.14 12.27
4/28/2022 6:30:00 AM 5.45 41.81 0.058 6.61 -0.17 12.29
4/28/2022 6:45:00 AM 5.41 41.738 0.058 6.61 -0.16 12.31
4/28/2022 7:00:00 AM 5.39 41.702 0.058 6.61 -0.2 12.34
4/28/2022 7:15:00 AM 5.37 41.666 0.058 6.64 -0.19 12.38
4/28/2022 7:30:00 AM 5.37 41.666 0.058 6.67 -0.19 12.42
4/28/2022 7:45:00 AM 5.36 41.648 0.058 6.68 -0.22 12.45
4/28/2022 8:00:00 AM 5.35 41.63 0.058 6.69 -0.23 12.47
4/28/2022 8:15:00 AM 5.37 41.666 0.058 6.69 -0.27 12.49
4/28/2022 8:30:00 AM 5.37 41.666 0.058 6.71 -0.24 12.5
4/28/2022 8:45:00 AM 5.4 41.72 0.058 6.71 -0.28 12.51
4/28/2022 9:00:00 AM 5.44 41.792 0.058 6.73 -0.3 12.51
4/28/2022 9:15:00 AM 5.47 41.846 0.058 6.74 -0.27 12.5
4/28/2022 9:30:00 AM 5.53 41.954 0.058 6.73 -0.27 12.5
4/28/2022 9:45:00 AM 5.6 42.08 0.058 6.74 -0.25 12.48
4/28/2022 10:00:00 AM 5.7 42.26 0.058 6.74 -0.22 12.46
4/28/2022 10:15:00 AM 5.83 42.494 0.057 6.75 -0.26 12.43
4/28/2022 10:30:00 AM 5.98 42.764 0.057 6.75 -0.23 12.38
4/28/2022 10:45:00 AM 6.16 43.088 0.057 6.76 -0.26 12.35
4/28/2022 11:00:00 AM 6.37 43.466 0.057 6.77 -0.3 12.28
4/28/2022 11:15:00 AM 6.59 43.862 0.057 6.76 -0.29 12.21
4/28/2022 11:30:00 AM 6.84 44.312 0.057 6.78 -0.28 12.15
4/28/2022 11:45:00 AM 7.12 44.816 0.057 6.76 -0.27 12.06
4/28/2022 12:00:00 PM 7.41 45.338 0.057 6.78 -0.28 11.99
4/28/2022 12:15:00 PM 7.71 45.878 0.057 6.79 -0.28 11.9
4/28/2022 12:30:00 PM 8 46.4 0.057 6.79 -0.26 11.82
4/28/2022 12:45:00 PM 8.27 46.886 0.057 6.78 -0.26 11.74
4/28/2022 1:00:00 PM 8.51 47.318 0.057 6.79 -0.28 11.65
4/28/2022 1:15:00 PM 8.72 47.696 0.057 6.76 -0.25 11.6
4/28/2022 1:30:00 PM 8.89 48.002 0.057 6.79 -0.27 11.54
4/28/2022 1:45:00 PM 9.03 48.254 0.057 6.74 -0.21 11.48
4/28/2022 2:00:00 PM 9.13 48.434 0.057 6.78 -0.28 11.44
4/28/2022 2:15:00 PM 9.21 48.578 0.057 6.79 -0.26 11.42
4/28/2022 2:30:00 PM 9.25 48.65 0.057 6.79 -0.21 11.39
4/28/2022 2:45:00 PM 9.26 48.668 0.057 6.78 -0.15 11.38
4/28/2022 3:00:00 PM 9.26 48.668 0.057 6.79 -0.21 11.36
4/28/2022 3:15:00 PM 9.25 48.65 0.057 6.79 -0.19 11.35
4/28/2022 3:30:00 PM 9.21 48.578 0.057 6.73 -0.14 11.34
4/28/2022 3:45:00 PM 9.17 48.506 0.057 6.79 -0.14 11.34
4/28/2022 4:00:00 PM 9.14 48.452 0.057 6.79 -0.2 11.33
4/28/2022 4:15:00 PM 9.09 48.362 0.057 6.79 -0.16 11.34
4/28/2022 4:30:00 PM 9.04 48.272 0.057 6.72 -0.08 11.35
4/28/2022 4:45:00 PM 8.97 48.146 0.057 6.78 -0.16 11.36
4/28/2022 5:00:00 PM 8.9 48.02 0.057 6.78 -0.18 11.37
4/28/2022 5:15:00 PM 8.81 47.858 0.058 6.8 -0.05 11.39
4/28/2022 5:30:00 PM 8.71 47.678 0.058 6.77 -0.13 11.4
4/28/2022 5:45:00 PM 8.61 47.498 0.058 6.77 -0.14 11.42
4/28/2022 6:00:00 PM 8.52 47.336 0.058 6.76 -0.16 11.43
4/28/2022 6:15:00 PM 8.42 47.156 0.058 6.76 -0.09 11.45
4/28/2022 6:30:00 PM 8.32 46.976 0.058 6.74 -0.1 11.47
4/28/2022 6:45:00 PM 8.23 46.814 0.058 6.74 -0.15 11.49
4/28/2022 7:00:00 PM 8.16 46.688 0.058 6.74 -0.05 11.51
4/28/2022 7:15:00 PM 8.07 46.526 0.058 6.74 -0.06 11.52
4/28/2022 7:30:00 PM 7.98 46.364 0.058 6.73 -0.12 11.53
4/28/2022 7:45:00 PM 7.9 46.22 0.058 6.72 -0.1 11.53
4/28/2022 8:00:00 PM 7.83 46.094 0.058 6.68 -0.14 11.53
4/28/2022 8:15:00 PM 7.76 45.968 0.058 6.71 -0.05 11.54
4/28/2022 8:30:00 PM 7.68 45.824 0.058 6.7 -0.12 11.56
4/28/2022 8:45:00 PM 7.61 45.698 0.058 6.7 -0.15 11.59
4/28/2022 9:00:00 PM 7.54 45.572 0.058 6.69 -0.05 11.61
4/28/2022 9:15:00 PM 7.47 45.446 0.058 6.69 -0.03 11.63
4/28/2022 9:30:00 PM 7.4 45.32 0.058 6.67 -0.06 11.65
4/28/2022 9:45:00 PM 7.33 45.194 0.058 6.68 -0.05 11.66
4/28/2022 10:00:00 PM 7.26 45.068 0.058 6.68 -0.06 11.68
4/28/2022 10:15:00 PM 7.19 44.942 0.058 6.69 -0.06 11.7
4/28/2022 10:30:00 PM 7.11 44.798 0.058 6.68 -0.11 11.73
4/28/2022 10:45:00 PM 7.04 44.672 0.058 6.69 -0.07 11.76
4/28/2022 11:00:00 PM 6.96 44.528 0.058 6.68 -0.06 11.78
4/28/2022 11:15:00 PM 6.87 44.366 0.058 6.67 -0.1 11.81
4/28/2022 11:30:00 PM 6.79 44.222 0.058 6.68 -0.04 11.83
4/28/2022 11:45:00 PM 6.7 44.06 0.058 6.68 -0.08 11.86
4/29/2022 12:00:00 AM 6.61 43.898 0.058 6.64 -0.08 11.88
4/29/2022 12:15:00 AM 6.53 43.754 0.058 6.69 -0.13 11.9
4/29/2022 12:30:00 AM 6.45 43.61 0.058 6.67 -0.1 11.93
4/29/2022 12:45:00 AM 6.37 43.466 0.058 6.67 -0.1 11.96
4/29/2022 1:00:00 AM 6.29 43.322 0.058 6.66 -0.07 11.99
4/29/2022 1:15:00 AM 6.21 43.178 0.058 6.67 -0.04 12.02
4/29/2022 1:30:00 AM 6.13 43.034 0.058 6.67 -0.09 12.04
4/29/2022 1:45:00 AM 6.06 42.908 0.058 6.65 -0.13 12.07
4/29/2022 2:00:00 AM 5.98 42.764 0.058 6.62 -0.1 12.09
4/29/2022 2:15:00 AM 5.9 42.62 0.058 6.67 -0.1 12.11
4/29/2022 2:30:00 AM 5.82 42.476 0.058 6.66 -0.13 12.13
4/29/2022 2:45:00 AM 5.75 42.35 0.058 6.65 -0.09 12.16
4/29/2022 3:00:00 AM 5.67 42.206 0.058 6.66 -0.11 12.19
4/29/2022 3:15:00 AM 5.6 42.08 0.058 6.66 -0.15 12.22
4/29/2022 3:30:00 AM 5.53 41.954 0.058 6.66 -0.18 12.24
4/29/2022 3:45:00 AM 5.46 41.828 0.058 6.64 -0.18 12.26
4/29/2022 4:00:00 AM 5.4 41.72 0.058 6.66 -0.2 12.29
4/29/2022 4:15:00 AM 5.33 41.594 0.058 6.64 -0.21 12.3
4/29/2022 4:30:00 AM 5.26 41.468 0.058 6.6 -0.15 12.32
4/29/2022 4:45:00 AM 5.2 41.36 0.058 6.61 -0.22 12.34
4/29/2022 5:00:00 AM 5.13 41.234 0.058 6.6 -0.25 12.37
4/29/2022 5:15:00 AM 5.07 41.126 0.058 6.6 -0.25 12.4
4/29/2022 5:30:00 AM 5 41 0.058 6.59 -0.23 12.42
4/29/2022 5:45:00 AM 4.94 40.892 0.058 6.57 -0.21 12.43
4/29/2022 6:00:00 AM 4.88 40.784 0.058 6.59 -0.24 12.46
4/29/2022 6:15:00 AM 4.82 40.676 0.059 6.59 -0.23 12.49
4/29/2022 6:30:00 AM 4.77 40.586 0.059 6.59 -0.26 12.52
4/29/2022 6:45:00 AM 4.72 40.496 0.059 6.6 -0.27 12.55
4/29/2022 7:00:00 AM 4.68 40.424 0.059 6.62 -0.24 12.6
4/29/2022 7:15:00 AM 4.65 40.37 0.059 6.63 -0.25 12.63
4/29/2022 7:30:00 AM 4.63 40.334 0.059 6.62 -0.3 12.66
4/29/2022 7:45:00 AM 4.62 40.316 0.058 6.64 -0.3 12.68
4/29/2022 8:00:00 AM 4.62 40.316 0.058 6.66 -0.34 12.71
4/29/2022 8:15:00 AM 4.64 40.352 0.058 6.68 -0.24 12.72
4/29/2022 8:30:00 AM 4.67 40.406 0.058 6.68 -0.32 12.73
4/29/2022 8:45:00 AM 4.71 40.478 0.058 6.69 -0.29 12.74
4/29/2022 9:00:00 AM 4.79 40.622 0.058 6.72 -0.36 12.74
4/29/2022 9:15:00 AM 4.87 40.766 0.058 6.72 -0.36 12.73
4/29/2022 9:30:00 AM 4.96 40.928 0.058 6.74 -0.36 12.71
4/29/2022 9:45:00 AM 5.08 41.144 0.058 6.7 -0.35 12.69
4/29/2022 10:00:00 AM 5.2 41.36 0.058 6.75 -0.34 12.65
4/29/2022 10:15:00 AM 5.36 41.648 0.058 6.75 -0.37 12.61
4/29/2022 10:30:00 AM 5.54 41.972 0.058 6.76 -0.39 12.57
4/29/2022 10:45:00 AM 5.75 42.35 0.058 6.75 -0.39 12.51
4/29/2022 11:00:00 AM 6 42.8 0.058 6.75 -0.38 12.42
4/29/2022 11:15:00 AM 6.27 43.286 0.058 6.77 -0.38 12.36
4/29/2022 11:30:00 AM 6.57 43.826 0.057 6.78 -0.38 12.25
4/29/2022 11:45:00 AM 6.9 44.42 0.057 6.77 -0.42 12.17
4/29/2022 12:00:00 PM 7.23 45.014 0.057 6.78 -0.38 12.05
4/29/2022 12:15:00 PM 7.59 45.662 0.057 6.79 -0.37 11.97
4/29/2022 12:30:00 PM 7.93 46.274 0.057 6.79 -0.35 11.86
4/29/2022 12:45:00 PM 8.25 46.85 0.057 6.76 -0.33 11.77
4/29/2022 1:00:00 PM 8.55 47.39 0.057 6.79 -0.39 11.67
4/29/2022 1:15:00 PM 8.81 47.858 0.057 6.8 -0.38 11.6
4/29/2022 1:30:00 PM 9.03 48.254 0.057 6.79 -0.38 11.52
4/29/2022 1:45:00 PM 9.21 48.578 0.057 6.79 -0.29 11.46
4/29/2022 2:00:00 PM 9.34 48.812 0.057 6.77 -0.34 11.42
4/29/2022 2:15:00 PM 9.45 49.01 0.057 6.78 -0.33 11.37
4/29/2022 2:30:00 PM 9.51 49.118 0.057 6.79 -0.35 11.34
4/29/2022 2:45:00 PM 9.55 49.19 0.057 6.79 -0.3 11.32
4/29/2022 3:00:00 PM 9.56 49.208 0.058 6.78 -0.3 11.29
4/29/2022 3:15:00 PM 9.55 49.19 0.058 6.79 -0.26 11.28
4/29/2022 3:30:00 PM 9.54 49.172 0.058 6.78 -0.3 11.27
4/29/2022 3:45:00 PM 9.51 49.118 0.058 6.79 -0.33 11.27
4/29/2022 4:00:00 PM 9.48 49.064 0.058 6.79 -0.29 11.26
4/29/2022 4:15:00 PM 9.44 48.992 0.058 6.79 -0.29 11.27
4/29/2022 4:30:00 PM 9.4 48.92 0.058 6.78 -0.3 11.27
4/29/2022 4:45:00 PM 9.35 48.83 0.058 6.78 -0.3 11.27
4/29/2022 5:00:00 PM 9.3 48.74 0.058 6.78 -0.24 11.28
4/29/2022 5:15:00 PM 9.23 48.614 0.058 6.78 -0.28 11.28
4/29/2022 5:30:00 PM 9.14 48.452 0.058 6.77 -0.26 11.29
4/29/2022 5:45:00 PM 9.07 48.326 0.058 6.77 -0.28 11.3
4/29/2022 6:00:00 PM 8.98 48.164 0.058 6.77 -0.26 11.32
4/29/2022 6:15:00 PM 8.9 48.02 0.058 6.75 -0.22 11.33
4/29/2022 6:30:00 PM 8.82 47.876 0.058 6.75 -0.24 11.34
4/29/2022 6:45:00 PM 8.74 47.732 0.058 6.75 -0.21 11.36
4/29/2022 7:00:00 PM 8.66 47.588 0.058 6.73 -0.22 11.37
4/29/2022 7:15:00 PM 8.58 47.444 0.058 6.73 -0.24 11.37
4/29/2022 7:30:00 PM 8.51 47.318 0.058 6.73 -0.23 11.38
4/29/2022 7:45:00 PM 8.43 47.174 0.058 6.73 -0.26 11.38
4/29/2022 8:00:00 PM 8.36 47.048 0.058 6.72 -0.26 11.39
4/29/2022 8:15:00 PM 8.28 46.904 0.058 6.71 -0.21 11.39
4/29/2022 8:30:00 PM 8.2 46.76 0.058 6.71 -0.21 11.42
4/29/2022 8:45:00 PM 8.13 46.634 0.058 6.71 -0.24 11.43
4/29/2022 9:00:00 PM 8.06 46.508 0.058 6.7 -0.15 11.45
4/29/2022 9:15:00 PM 7.99 46.382 0.058 6.71 -0.18 11.47
4/29/2022 9:30:00 PM 7.93 46.274 0.058 6.71 -0.16 11.49
4/29/2022 9:45:00 PM 7.87 46.166 0.058 6.71 -0.07 11.5
4/29/2022 10:00:00 PM 7.81 46.058 0.058 6.66 -0.17 11.52
4/29/2022 10:15:00 PM 7.75 45.95 0.058 6.71 -0.16 11.53
4/29/2022 10:30:00 PM 7.69 45.842 0.058 6.7 -0.17 11.56
4/29/2022 10:45:00 PM 7.63 45.734 0.058 6.7 -0.12 11.59
4/29/2022 11:00:00 PM 7.56 45.608 0.058 6.69 -0.14 11.59
4/29/2022 11:15:00 PM 7.5 45.5 0.058 6.68 -0.11 11.62
4/29/2022 11:30:00 PM 7.43 45.374 0.058 6.68 -0.11 11.64
4/29/2022 11:45:00 PM 7.36 45.248 0.058 6.7 -0.16 11.66
4/30/2022 12:00:00 AM 7.29 45.122 0.058 6.68 -0.16 11.68
4/30/2022 12:15:00 AM 7.22 44.996 0.058 6.68 -0.17 11.69
4/30/2022 12:30:00 AM 7.14 44.852 0.058 6.69 -0.15 11.72
4/30/2022 12:45:00 AM 7.06 44.708 0.058 6.69 -0.2 11.75
4/30/2022 1:00:00 AM 6.98 44.564 0.058 6.7 -0.19 11.78
4/30/2022 1:15:00 AM 6.89 44.402 0.058 6.7 -0.17 11.81
4/30/2022 1:30:00 AM 6.8 44.24 0.058 6.69 -0.24 11.83
4/30/2022 1:45:00 AM 6.71 44.078 0.058 6.62 -0.21 11.86
4/30/2022 2:00:00 AM 6.62 43.916 0.058 6.69 -0.19 11.88
4/30/2022 2:15:00 AM 6.54 43.772 0.058 6.68 -0.22 11.9
4/30/2022 2:30:00 AM 6.45 43.61 0.058 6.69 -0.2 11.93
4/30/2022 2:45:00 AM 6.36 43.448 0.058 6.66 -0.22 11.96
4/30/2022 3:00:00 AM 6.27 43.286 0.058 6.68 -0.18 11.99
4/30/2022 3:15:00 AM 6.19 43.142 0.058 6.68 -0.18 12.02
4/30/2022 3:30:00 AM 6.1 42.98 0.058 6.68 -0.2 12.05
4/30/2022 3:45:00 AM 6.02 42.836 0.058 6.68 -0.22 12.07
4/30/2022 4:00:00 AM 5.94 42.692 0.058 6.67 -0.22 12.09
4/30/2022 4:15:00 AM 5.87 42.566 0.058 6.68 -0.19 12.11
4/30/2022 4:30:00 AM 5.79 42.422 0.058 6.68 -0.25 12.14
4/30/2022 4:45:00 AM 5.72 42.296 0.058 6.67 -0.26 12.16
4/30/2022 5:00:00 AM 5.66 42.188 0.058 6.67 -0.24 12.19
4/30/2022 5:15:00 AM 5.59 42.062 0.058 6.68 -0.26 12.22
4/30/2022 5:30:00 AM 5.52 41.936 0.058 6.67 -0.22 12.24
4/30/2022 5:45:00 AM 5.46 41.828 0.058 6.68 -0.17 12.26
4/30/2022 6:00:00 AM 5.39 41.702 0.058 6.66 -0.22 12.28
4/30/2022 6:15:00 AM 5.33 41.594 0.058 6.67 -0.28 12.3
4/30/2022 6:30:00 AM 5.27 41.486 0.058 6.68 -0.25 12.34
4/30/2022 6:45:00 AM 5.22 41.396 0.058 6.65 -0.21 12.38
4/30/2022 7:00:00 AM 5.18 41.324 0.058 6.69 -0.23 12.43
4/30/2022 7:15:00 AM 5.14 41.252 0.058 6.68 -0.31 12.46
4/30/2022 7:30:00 AM 5.11 41.198 0.058 6.7 -0.35 12.5
4/30/2022 7:45:00 AM 5.09 41.162 0.058 6.71 -0.33 12.53
4/30/2022 8:00:00 AM 5.09 41.162 0.058 6.71 -0.3 12.55
4/30/2022 8:15:00 AM 5.1 41.18 0.058 6.71 -0.36 12.57
4/30/2022 8:30:00 AM 5.12 41.216 0.058 6.71 -0.33 12.58
4/30/2022 8:45:00 AM 5.17 41.306 0.058 6.73 -0.39 12.58
4/30/2022 9:00:00 AM 5.25 41.45 0.058 6.73 -0.38 12.57
4/30/2022 9:15:00 AM 5.35 41.63 0.058 6.73 -0.37 12.56
4/30/2022 9:30:00 AM 5.48 41.864 0.058 6.74 -0.4 12.54
4/30/2022 9:45:00 AM 5.61 42.098 0.058 6.73 -0.36 12.52
4/30/2022 10:00:00 AM 5.77 42.386 0.058 6.74 -0.39 12.47
4/30/2022 10:15:00 AM 5.95 42.71 0.058 6.74 -0.4 12.42
4/30/2022 10:30:00 AM 6.15 43.07 0.058 6.76 -0.45 12.38
4/30/2022 10:45:00 AM 6.39 43.502 0.058 6.76 -0.44 12.31
4/30/2022 11:00:00 AM 6.65 43.97 0.058 6.77 -0.38 12.23
4/30/2022 11:15:00 AM 6.95 44.51 0.058 6.78 -0.44 12.15
4/30/2022 11:30:00 AM 7.26 45.068 0.058 6.78 -0.44 12.05
4/30/2022 11:45:00 AM 7.6 45.68 0.058 6.77 -0.44 11.95
4/30/2022 12:00:00 PM 7.97 46.346 0.058 6.78 -0.42 11.86
4/30/2022 12:15:00 PM 8.35 47.03 0.058 6.79 -0.4 11.74
4/30/2022 12:30:00 PM 8.73 47.714 0.058 6.78 -0.43 11.64
4/30/2022 12:45:00 PM 9.09 48.362 0.058 6.79 -0.4 11.53
4/30/2022 1:00:00 PM 9.43 48.974 0.057 6.78 -0.41 11.44
4/30/2022 1:15:00 PM 9.71 49.478 0.057 6.79 -0.39 11.35
4/30/2022 1:30:00 PM 9.97 49.946 0.057 6.79 -0.39 11.27
4/30/2022 1:45:00 PM 10.17 50.306 0.057 6.78 -0.2 11.22
4/30/2022 2:00:00 PM 10.33 50.594 0.057 6.78 -0.37 11.14
4/30/2022 2:15:00 PM 10.45 50.81 0.057 6.8 -0.38 11.1
4/30/2022 2:30:00 PM 10.54 50.972 0.057 6.79 -0.38 11.06
4/30/2022 2:45:00 PM 10.59 51.062 0.058 6.8 -0.36 11.04
4/30/2022 3:00:00 PM 10.61 51.098 0.058 6.78 -0.38 11.02
4/30/2022 3:15:00 PM 10.63 51.134 0.058 6.79 -0.36 11
4/30/2022 3:30:00 PM 10.61 51.098 0.058 6.82 -0.31 10.99
4/30/2022 3:45:00 PM 10.59 51.062 0.058 6.81 -0.35 10.98
4/30/2022 4:00:00 PM 10.57 51.026 0.058 6.81 -0.29 10.97
4/30/2022 4:15:00 PM 10.54 50.972 0.058 6.81 -0.33 10.96
4/30/2022 4:30:00 PM 10.51 50.918 0.058 6.81 -0.27 10.97
4/30/2022 4:45:00 PM 10.48 50.864 0.058 6.81 -0.28 10.96
4/30/2022 5:00:00 PM 10.43 50.774 0.058 6.8 -0.27 10.96
4/30/2022 5:15:00 PM 10.38 50.684 0.058 6.8 -0.28 10.97
4/30/2022 5:30:00 PM 10.31 50.558 0.058 6.8 -0.22 10.98
4/30/2022 5:45:00 PM 10.25 50.45 0.058 6.79 -0.24 11
4/30/2022 6:00:00 PM 10.17 50.306 0.058 6.79 -0.28 11.02
4/30/2022 6:15:00 PM 10.09 50.162 0.058 6.78 -0.23 11.03
4/30/2022 6:30:00 PM 10.02 50.036 0.058 6.79 -0.24 11.04
4/30/2022 6:45:00 PM 9.95 49.91 0.058 6.77 -0.28 11.04
4/30/2022 7:00:00 PM 9.89 49.802 0.058 6.76 -0.28 11.06
4/30/2022 7:15:00 PM 9.82 49.676 0.058 6.76 -0.27 11.06
4/30/2022 7:30:00 PM 9.75 49.55 0.058 6.74 -0.29 11.05
4/30/2022 7:45:00 PM 9.67 49.406 0.058 6.69 -0.23 11.05
4/30/2022 8:00:00 PM 9.58 49.244 0.058 6.73 -0.27 11.04
4/30/2022 8:15:00 PM 9.49 49.082 0.058 6.72 -0.23 11.05
4/30/2022 8:30:00 PM 9.41 48.938 0.058 6.71 -0.23 11.06
4/30/2022 8:45:00 PM 9.33 48.794 0.058 6.7 -0.21 11.08
4/30/2022 9:00:00 PM 9.25 48.65 0.058 6.69 -0.13 11.09
4/30/2022 9:15:00 PM 9.17 48.506 0.058 6.69 -0.18 11.1
4/30/2022 9:30:00 PM 9.1 48.38 0.058 6.68 -0.19 11.12
4/30/2022 9:45:00 PM 9.02 48.236 0.058 6.69 -0.18 11.13
4/30/2022 10:00:00 PM 8.96 48.128 0.058 6.62 -0.18 11.16
4/30/2022 10:15:00 PM 8.91 48.038 0.058 6.69 -0.24 11.18
4/30/2022 10:30:00 PM 8.86 47.948 0.059 6.7 -0.16 11.19
4/30/2022 10:45:00 PM 8.8 47.84 0.059 6.65 -0.18 11.21
4/30/2022 11:00:00 PM 8.73 47.714 0.059 6.7 -0.23 11.23
4/30/2022 11:15:00 PM 8.68 47.624 0.059 6.7 -0.18 11.24
4/30/2022 11:30:00 PM 8.61 47.498 0.059 6.67 -0.19 11.26
4/30/2022 11:45:00 PM 8.55 47.39 0.059 6.7 -0.14 11.27
5/1/2022 12:00:00 AM 8.49 47.282 0.059 6.7 -0.14 11.28
5/1/2022 12:15:00 AM 8.42 47.156 0.059 6.7 -0.17 11.31
5/1/2022 12:30:00 AM 8.35 47.03 0.059 6.7 -0.16 11.33
5/1/2022 12:45:00 AM 8.27 46.886 0.059 6.68 -0.16 11.35
5/1/2022 1:00:00 AM 8.2 46.76 0.059 6.69 -0.19 11.38
5/1/2022 1:15:00 AM 8.13 46.634 0.059 6.7 -0.19 11.4
5/1/2022 1:30:00 AM 8.05 46.49 0.059 6.69 -0.11 11.43
5/1/2022 1:45:00 AM 7.97 46.346 0.059 6.69 -0.19 11.45
5/1/2022 2:00:00 AM 7.89 46.202 0.059 6.69 -0.19 11.47
5/1/2022 2:15:00 AM 7.81 46.058 0.059 6.7 -0.16 11.49
5/1/2022 2:30:00 AM 7.73 45.914 0.059 6.69 -0.14 11.52
5/1/2022 2:45:00 AM 7.64 45.752 0.059 6.7 -0.15 11.54
5/1/2022 3:00:00 AM 7.56 45.608 0.059 6.67 -0.15 11.57
5/1/2022 3:15:00 AM 7.48 45.464 0.059 6.7 -0.17 11.59
5/1/2022 3:30:00 AM 7.4 45.32 0.059 6.7 -0.21 11.61
5/1/2022 3:45:00 AM 7.32 45.176 0.059 6.7 -0.18 11.64
5/1/2022 4:00:00 AM 7.24 45.032 0.059 6.7 -0.2 11.66
5/1/2022 4:15:00 AM 7.16 44.888 0.059 6.7 -0.18 11.68
5/1/2022 4:30:00 AM 7.08 44.744 0.059 6.7 -0.23 11.7
5/1/2022 4:45:00 AM 7.01 44.618 0.059 6.68 -0.21 11.73
5/1/2022 5:00:00 AM 6.93 44.474 0.059 6.66 -0.22 11.76
5/1/2022 5:15:00 AM 6.85 44.33 0.059 6.7 -0.24 11.78
5/1/2022 5:30:00 AM 6.77 44.186 0.059 6.7 -0.22 11.81
5/1/2022 5:45:00 AM 6.7 44.06 0.059 6.7 -0.2 11.83
5/1/2022 6:00:00 AM 6.63 43.934 0.059 6.7 -0.17 11.85
5/1/2022 6:15:00 AM 6.56 43.808 0.059 6.68 -0.24 11.87
5/1/2022 6:30:00 AM 6.49 43.682 0.059 6.7 -0.2 11.92
5/1/2022 6:45:00 AM 6.43 43.574 0.059 6.68 -0.21 11.97
5/1/2022 7:00:00 AM 6.38 43.484 0.059 6.72 -0.24 12.02
5/1/2022 7:15:00 AM 6.34 43.412 0.059 6.72 -0.27 12.06
5/1/2022 7:30:00 AM 6.32 43.376 0.059 6.73 -0.26 12.09
5/1/2022 7:45:00 AM 6.3 43.34 0.059 6.74 -0.21 12.12
5/1/2022 8:00:00 AM 6.3 43.34 0.059 6.75 -0.28 12.14
5/1/2022 8:15:00 AM 6.31 43.358 0.059 6.75 -0.27 12.15
5/1/2022 8:30:00 AM 6.34 43.412 0.059 6.75 -0.32 12.16
5/1/2022 8:45:00 AM 6.4 43.52 0.059 6.75 -0.34 12.16
5/1/2022 9:00:00 AM 6.48 43.664 0.059 6.78 -0.24 12.15
5/1/2022 9:15:00 AM 6.6 43.88 0.059 6.76 -0.33 12.14
5/1/2022 9:30:00 AM 6.73 44.114 0.059 6.78 -0.34 12.12
5/1/2022 9:45:00 AM 6.88 44.384 0.058 6.77 -0.36 12.09
5/1/2022 10:00:00 AM 7.04 44.672 0.058 6.79 -0.35 12.05
5/1/2022 10:15:00 AM 7.22 44.996 0.058 6.8 -0.33 12.01
5/1/2022 10:30:00 AM 7.42 45.356 0.058 6.8 -0.34 11.98
5/1/2022 10:45:00 AM 7.65 45.77 0.058 6.81 -0.33 11.91
5/1/2022 11:00:00 AM 7.9 46.22 0.058 6.81 -0.34 11.84
5/1/2022 11:15:00 AM 8.21 46.778 0.058 6.8 -0.34 11.77
5/1/2022 11:30:00 AM 8.5 47.3 0.058 6.82 -0.35 11.68
5/1/2022 11:45:00 AM 8.84 47.912 0.058 6.82 -0.38 11.6
5/1/2022 12:00:00 PM 9.2 48.56 0.058 6.81 -0.38 11.5
5/1/2022 12:15:00 PM 9.53 49.154 0.058 6.81 -0.34 11.4
5/1/2022 12:30:00 PM 9.91 49.838 0.058 6.83 -0.35 11.31
5/1/2022 12:45:00 PM 10.28 50.504 0.058 6.83 -0.38 11.21
5/1/2022 1:00:00 PM 10.58 51.044 0.057 6.83 -0.35 11.12
5/1/2022 1:15:00 PM 10.74 51.332 0.057 6.83 -0.32 11.07
5/1/2022 1:30:00 PM 10.84 51.512 0.057 6.85 -0.3 11.02
5/1/2022 1:45:00 PM 10.9 51.62 0.057 6.85 -0.27 10.99
5/1/2022 2:00:00 PM 10.92 51.656 0.057 6.85 -0.26 10.97
5/1/2022 2:15:00 PM 10.88 51.584 0.057 6.85 -0.29 10.96
5/1/2022 2:30:00 PM 10.87 51.566 0.057 6.84 -0.27 10.96
5/1/2022 2:45:00 PM 10.86 51.548 0.057 6.84 -0.23 10.96
5/1/2022 3:00:00 PM 10.85 51.53 0.058 6.83 -0.24 10.94
5/1/2022 3:15:00 PM 10.77 51.386 0.058 6.84 -0.25 10.91
5/1/2022 3:30:00 PM 10.72 51.296 0.058 6.82 -0.29 10.9
5/1/2022 3:45:00 PM 10.68 51.224 0.058 6.8 -0.22 10.91
5/1/2022 4:00:00 PM 10.65 51.17 0.058 6.82 -0.26 10.93
5/1/2022 4:15:00 PM 10.6 51.08 0.058 6.82 -0.25 10.93
5/1/2022 4:30:00 PM 10.55 50.99 0.058 6.81 -0.21 10.93
5/1/2022 4:45:00 PM 10.47 50.846 0.058 6.8 -0.22 10.92
5/1/2022 5:00:00 PM 10.4 50.72 0.058 6.79 -0.17 10.9
5/1/2022 5:15:00 PM 10.33 50.594 0.058 6.79 -0.18 10.92
5/1/2022 5:30:00 PM 10.26 50.468 0.058 6.78 -0.14 10.94
5/1/2022 5:45:00 PM 10.2 50.36 0.058 6.76 -0.2 10.96
5/1/2022 6:00:00 PM 10.14 50.252 0.058 6.78 -0.13 10.99
5/1/2022 6:15:00 PM 10.09 50.162 0.058 6.78 -0.19 11.02
5/1/2022 6:30:00 PM 10.04 50.072 0.058 6.78 -0.18 11.02
5/1/2022 6:45:00 PM 9.99 49.982 0.058 6.76 -0.24 11
5/1/2022 7:00:00 PM 9.93 49.874 0.058 6.75 -0.2 11
5/1/2022 7:15:00 PM 9.89 49.802 0.058 6.76 -0.2 10.99
5/1/2022 7:30:00 PM 9.84 49.712 0.059 6.74 -0.22 10.97
5/1/2022 7:45:00 PM 9.79 49.622 0.059 6.74 -0.2 10.96
5/1/2022 8:00:00 PM 9.75 49.55 0.059 6.72 -0.22 10.95
5/1/2022 8:15:00 PM 9.71 49.478 0.059 6.71 -0.18 10.96
5/1/2022 8:30:00 PM 9.67 49.406 0.059 6.7 -0.13 10.96
5/1/2022 8:45:00 PM 9.64 49.352 0.059 6.71 -0.16 10.97
5/1/2022 9:00:00 PM 9.61 49.298 0.059 6.71 -0.14 10.97
5/1/2022 9:15:00 PM 9.59 49.262 0.059 6.69 -0.14 10.98
5/1/2022 9:30:00 PM 9.57 49.226 0.059 6.7 -0.14 10.98
5/1/2022 9:45:00 PM 9.55 49.19 0.059 6.68 -0.11 10.99
5/1/2022 10:00:00 PM 9.54 49.172 0.059 6.68 -0.14 10.99
5/1/2022 10:15:00 PM 9.53 49.154 0.059 6.69 -0.18 10.99
5/1/2022 10:30:00 PM 9.52 49.136 0.059 6.69 -0.14 10.99
5/1/2022 10:45:00 PM 9.52 49.136 0.059 6.69 -0.1 10.99
5/1/2022 11:00:00 PM 9.51 49.118 0.059 6.69 -0.15 11
5/1/2022 11:15:00 PM 9.5 49.1 0.059 6.69 -0.14 11
5/1/2022 11:30:00 PM 9.5 49.1 0.059 6.68 -0.09 11
5/1/2022 11:45:00 PM 9.49 49.082 0.059 6.67 -0.12 11
5/2/2022 12:00:00 AM 9.48 49.064 0.059 6.68 -0.12 11
5/2/2022 12:15:00 AM 9.48 49.064 0.059 6.69 -0.13 11.01
5/2/2022 12:30:00 AM 9.47 49.046 0.059 6.69 -0.06 11
5/2/2022 12:45:00 AM 9.46 49.028 0.059 6.61 -0.15 11
5/2/2022 1:00:00 AM 9.45 49.01 0.059 6.69 -0.12 11.01
5/2/2022 1:15:00 AM 9.44 48.992 0.059 6.69 -0.14 11.01
5/2/2022 1:30:00 AM 9.43 48.974 0.059 6.68 -0.1 11.01
5/2/2022 1:45:00 AM 9.42 48.956 0.059 6.68 -0.09 11.02
5/2/2022 2:00:00 AM 9.41 48.938 0.059 6.68 -0.01 11.03
5/2/2022 2:15:00 AM 9.4 48.92 0.059 6.68 0.05 11.03
5/2/2022 2:30:00 AM 9.39 48.902 0.059 6.68 0.01 11.02
5/2/2022 2:45:00 AM 9.37 48.866 0.059 6.67 -0.02 11.02
5/2/2022 3:00:00 AM 9.36 48.848 0.059 6.68 -0.02 11.02
5/2/2022 3:15:00 AM 9.35 48.83 0.059 6.66 -0.02 11.02
5/2/2022 3:30:00 AM 9.33 48.794 0.059 6.67 -0.01 11.03
5/2/2022 3:45:00 AM 9.32 48.776 0.059 6.67 -0.01 11.04
5/2/2022 4:00:00 AM 9.31 48.758 0.059 6.65 0.02 11.04
5/2/2022 4:15:00 AM 9.3 48.74 0.059 6.66 0.04 11.04
5/2/2022 4:30:00 AM 9.29 48.722 0.059 6.66 -0.01 11.04
5/2/2022 4:45:00 AM 9.28 48.704 0.059 6.64 0.04 11.05
5/2/2022 5:00:00 AM 9.27 48.686 0.059 6.65 -0.02 11.05
5/2/2022 5:15:00 AM 9.26 48.668 0.059 6.65 -0.03 11.05
5/2/2022 5:30:00 AM 9.25 48.65 0.059 6.66 -0.01 11.05
5/2/2022 5:45:00 AM 9.24 48.632 0.059 6.63 -0.02 11.06
5/2/2022 6:00:00 AM 9.24 48.632 0.059 6.64 0.05 11.06
5/2/2022 6:15:00 AM 9.23 48.614 0.059 6.64 -0.05 11.06
5/2/2022 6:30:00 AM 9.22 48.596 0.059 6.66 -0.01 11.07
5/2/2022 6:45:00 AM 9.22 48.596 0.059 6.66 -0.06 11.09
5/2/2022 7:00:00 AM 9.22 48.596 0.059 6.66 -0.05 11.12
5/2/2022 7:15:00 AM 9.23 48.614 0.059 6.67 -0.02 11.15
5/2/2022 7:30:00 AM 9.23 48.614 0.059 6.67 -0.08 11.17
5/2/2022 7:45:00 AM 9.24 48.632 0.059 6.68 -0.06 11.19
5/2/2022 8:00:00 AM 9.26 48.668 0.059 6.7 -0.11 11.21
5/2/2022 8:15:00 AM 9.27 48.686 0.059 6.71 -0.12 11.22
5/2/2022 8:30:00 AM 9.28 48.704 0.059 6.72 -0.07 11.23
5/2/2022 8:45:00 AM 9.3 48.74 0.059 6.73 -0.09 11.22
5/2/2022 9:00:00 AM 9.32 48.776 0.059 6.75 -0.1 11.24
5/2/2022 9:15:00 AM 9.35 48.83 0.059 6.76 -0.03 11.25
5/2/2022 9:30:00 AM 9.38 48.884 0.059 6.78 -0.14 11.25
5/2/2022 9:45:00 AM 9.41 48.938 0.059 6.78 -0.06 11.25
5/2/2022 10:00:00 AM 9.43 48.974 0.059 6.79 -0.1 11.24
5/2/2022 10:15:00 AM 9.47 49.046 0.059 6.79 -0.11 11.24
5/2/2022 10:30:00 AM 9.5 49.1 0.059 6.8 -0.07 11.24
5/2/2022 10:45:00 AM 9.53 49.154 0.059 6.81 -0.13 11.23
5/2/2022 11:00:00 AM 9.57 49.226 0.059 6.8 -0.12 11.23
5/2/2022 11:15:00 AM 9.61 49.298 0.058 6.8 -0.07 11.22
5/2/2022 11:30:00 AM 9.63 49.334 0.058 6.81 -0.09 11.2
5/2/2022 11:45:00 AM 9.66 49.388 0.058 6.81 -0.09 11.19
5/2/2022 12:00:00 PM 9.68 49.424 0.058 6.8 -0.09 11.18
5/2/2022 12:15:00 PM 9.71 49.478 0.058 6.81 -0.14 11.17
5/2/2022 12:30:00 PM 9.75 49.55 0.058 6.8 -0.14 11.17
5/2/2022 12:45:00 PM 9.82 49.676 0.058 6.82 -0.07 11.19
5/2/2022 1:00:00 PM 9.85 49.73 0.058 6.82 -0.12 11.17
5/2/2022 1:15:00 PM 9.92 49.856 0.058 6.83 -0.11 11.18
5/2/2022 1:30:00 PM 10 50 0.058 6.83 -0.1 11.18
5/2/2022 1:45:00 PM 10.07 50.126 0.058 6.84 -0.14 11.16
5/2/2022 2:00:00 PM 10.11 50.198 0.058 6.83 -0.08 11.14
5/2/2022 2:15:00 PM 10.11 50.198 0.058 6.82 -0.11 11.1
5/2/2022 2:30:00 PM 10.13 50.234 0.059 6.82 -0.12 11.08
5/2/2022 2:45:00 PM 10.13 50.234 0.059 6.81 -0.09 11.06
5/2/2022 3:00:00 PM 10.13 50.234 0.059 6.8 -0.15 11.05
5/2/2022 3:15:00 PM 10.14 50.252 0.059 6.8 -0.14 11.03
5/2/2022 3:30:00 PM 10.15 50.27 0.059 6.79 -0.11 11
5/2/2022 3:45:00 PM 10.16 50.288 0.059 6.78 -0.17 11.01
5/2/2022 4:00:00 PM 10.19 50.342 0.059 6.79 -0.1 11.04
5/2/2022 4:15:00 PM 10.28 50.504 0.059 6.78 -0.09 11.06
5/2/2022 4:30:00 PM 10.34 50.612 0.059 6.82 -0.13 11.05
5/2/2022 4:45:00 PM 10.38 50.684 0.059 6.82 -0.12 11.03
5/2/2022 5:00:00 PM 10.44 50.792 0.059 6.83 -0.11 11.02
5/2/2022 5:15:00 PM 10.5 50.9 0.059 6.8 -0.13 11.01
5/2/2022 5:30:00 PM 10.54 50.972 0.059 6.83 -0.09 10.98
5/2/2022 5:45:00 PM 10.56 51.008 0.059 6.82 -0.09 10.96
5/2/2022 6:00:00 PM 10.58 51.044 0.059 6.82 -0.03 10.96
5/2/2022 6:15:00 PM 10.57 51.026 0.059 6.81 -0.09 10.93
5/2/2022 6:30:00 PM 10.55 50.99 0.059 6.79 -0.09 10.9
5/2/2022 6:45:00 PM 10.52 50.936 0.059 6.78 -0.12 10.87
5/2/2022 7:00:00 PM 10.51 50.918 0.059 6.75 -0.08 10.85
5/2/2022 7:15:00 PM 10.49 50.882 0.059 6.76 -0.09 10.84
5/2/2022 7:30:00 PM 10.46 50.828 0.059 6.71 -0.03 10.82
5/2/2022 7:45:00 PM 10.43 50.774 0.059 6.74 -0.14 10.81
5/2/2022 8:00:00 PM 10.39 50.702 0.059 6.73 -0.09 10.79
5/2/2022 8:15:00 PM 10.36 50.648 0.059 6.72 -0.08 10.78
5/2/2022 8:30:00 PM 10.31 50.558 0.059 6.69 -0.04 10.79
5/2/2022 8:45:00 PM 10.28 50.504 0.059 6.7 0 10.8
5/2/2022 9:00:00 PM 10.26 50.468 0.059 6.7 0.01 10.8
5/2/2022 9:15:00 PM 10.22 50.396 0.059 6.7 -0.02 10.8
5/2/2022 9:30:00 PM 10.18 50.324 0.059 6.69 -0.07 10.82
5/2/2022 9:45:00 PM 10.14 50.252 0.059 6.68 -0.02 10.83
5/2/2022 10:00:00 PM 10.1 50.18 0.059 6.68 -0.02 10.85
5/2/2022 10:15:00 PM 10.06 50.108 0.059 6.68 0 10.86
5/2/2022 10:30:00 PM 10.02 50.036 0.059 6.68 0.02 10.87
5/2/2022 10:45:00 PM 9.97 49.946 0.059 6.68 -0.04 10.88
5/2/2022 11:00:00 PM 9.92 49.856 0.059 6.68 -0.05 10.9
5/2/2022 11:15:00 PM 9.88 49.784 0.059 6.68 0.03 10.91
5/2/2022 11:30:00 PM 9.83 49.694 0.059 6.68 -0.01 10.91
5/2/2022 11:45:00 PM 9.79 49.622 0.059 6.67 -0.04 10.92
5/3/2022 12:00:00 AM 9.75 49.55 0.059 6.68 0.02 10.93
5/3/2022 12:15:00 AM 9.7 49.46 0.059 6.68 -0.01 10.95
5/3/2022 12:30:00 AM 9.66 49.388 0.059 6.68 0.02 10.96
5/3/2022 12:45:00 AM 9.61 49.298 0.059 6.69 -0.05 10.98
5/3/2022 1:00:00 AM 9.56 49.208 0.059 6.69 -0.02 10.99
5/3/2022 1:15:00 AM 9.52 49.136 0.059 6.69 0.02 11.01
5/3/2022 1:30:00 AM 9.47 49.046 0.059 6.69 0 11.02
5/3/2022 1:45:00 AM 9.42 48.956 0.059 6.65 0.01 11.03
5/3/2022 2:00:00 AM 9.38 48.884 0.059 6.69 0 11.04
5/3/2022 2:15:00 AM 9.34 48.812 0.059 6.69 0.02 11.05
5/3/2022 2:30:00 AM 9.29 48.722 0.059 6.69 0.02 11.06
5/3/2022 2:45:00 AM 9.25 48.65 0.059 6.68 0.02 11.08
5/3/2022 3:00:00 AM 9.2 48.56 0.059 6.68 0.01 11.08
5/3/2022 3:15:00 AM 9.16 48.488 0.059 6.68 0 11.09
5/3/2022 3:30:00 AM 9.11 48.398 0.059 6.68 -0.05 11.1
5/3/2022 3:45:00 AM 9.07 48.326 0.059 6.69 -0.05 11.12
5/3/2022 4:00:00 AM 9.02 48.236 0.059 6.67 0.09 11.14
5/3/2022 4:15:00 AM 8.97 48.146 0.059 6.68 0 11.15
5/3/2022 4:30:00 AM 8.92 48.056 0.059 6.68 -0.04 11.17
5/3/2022 4:45:00 AM 8.87 47.966 0.059 6.68 -0.01 11.18
5/3/2022 5:00:00 AM 8.82 47.876 0.059 6.69 -0.01 11.2
5/3/2022 5:15:00 AM 8.77 47.786 0.059 6.69 -0.03 11.21
5/3/2022 5:30:00 AM 8.72 47.696 0.059 6.68 -0.1 11.23
5/3/2022 5:45:00 AM 8.67 47.606 0.059 6.68 0 11.24
5/3/2022 6:00:00 AM 8.61 47.498 0.06 6.7 -0.03 11.26
5/3/2022 6:15:00 AM 8.56 47.408 0.06 6.69 -0.06 11.28
5/3/2022 6:30:00 AM 8.52 47.336 0.059 6.71 -0.11 11.32
5/3/2022 6:45:00 AM 8.48 47.264 0.059 6.7 -0.04 11.36
5/3/2022 7:00:00 AM 8.45 47.21 0.059 6.72 0.02 11.4
5/3/2022 7:15:00 AM 8.43 47.174 0.059 6.72 -0.06 11.44
5/3/2022 7:30:00 AM 8.42 47.156 0.059 6.73 -0.13 11.48
5/3/2022 7:45:00 AM 8.41 47.138 0.059 6.75 -0.05 11.5
5/3/2022 8:00:00 AM 8.43 47.174 0.059 6.77 -0.12 11.53
5/3/2022 8:15:00 AM 8.46 47.228 0.059 6.78 -0.16 11.54
5/3/2022 8:30:00 AM 8.5 47.3 0.059 6.75 -0.1 11.56
5/3/2022 8:45:00 AM 8.56 47.408 0.059 6.8 -0.11 11.56
5/3/2022 9:00:00 AM 8.64 47.552 0.059 6.8 -0.17 11.57
5/3/2022 9:15:00 AM 8.74 47.732 0.059 6.82 -0.11 11.56
5/3/2022 9:30:00 AM 8.86 47.948 0.059 6.78 -0.15 11.54
5/3/2022 9:45:00 AM 8.95 48.11 0.059 6.84 -0.13 11.51
5/3/2022 10:00:00 AM 9.11 48.398 0.059 6.85 -0.18 11.48
5/3/2022 10:15:00 AM 9.3 48.74 0.059 6.85 -0.17 11.45
5/3/2022 10:30:00 AM 9.49 49.082 0.058 6.85 -0.16 11.41
5/3/2022 10:45:00 AM 9.71 49.478 0.058 6.85 -0.2 11.36
5/3/2022 11:00:00 AM 9.88 49.784 0.058 6.86 -0.17 11.31
5/3/2022 11:15:00 AM 10.04 50.072 0.058 6.86 -0.17 11.26
5/3/2022 11:30:00 AM 10.38 50.684 0.058 6.86 -0.12 11.18
5/3/2022 11:45:00 AM 10.67 51.206 0.058 6.87 -0.16 11.12
5/3/2022 12:00:00 PM 10.94 51.692 0.058 6.87 -0.19 11.05
5/3/2022 12:15:00 PM 11.25 52.25 0.058 6.86 -0.21 10.98
5/3/2022 12:30:00 PM 11.56 52.808 0.058 6.87 -0.19 10.9
5/3/2022 12:45:00 PM 11.84 53.312 0.058 6.87 -0.15 10.82
5/3/2022 1:00:00 PM 12.16 53.888 0.058 6.88 -0.12 10.74
5/3/2022 1:15:00 PM 12.47 54.446 0.058 6.85 -0.14 10.66
5/3/2022 1:30:00 PM 12.7 54.86 0.058 6.88 -0.15 10.61
5/3/2022 1:45:00 PM 12.77 54.986 0.058 6.89 -0.13 10.56
5/3/2022 2:00:00 PM 12.86 55.148 0.058 6.89 -0.15 10.53
5/3/2022 2:15:00 PM 12.89 55.202 0.058 6.9 -0.14 10.5
5/3/2022 2:30:00 PM 12.93 55.274 0.058 6.89 -0.15 10.48
5/3/2022 2:45:00 PM 13 55.4 0.058 6.9 -0.18 10.46
5/3/2022 3:00:00 PM 13.05 55.49 0.058 6.88 -0.18 10.45
5/3/2022 3:15:00 PM 13.07 55.526 0.058 6.89 -0.17 10.43
5/3/2022 3:30:00 PM 13.1 55.58 0.058 6.89 -0.05 10.42
5/3/2022 3:45:00 PM 13.09 55.562 0.058 6.89 -0.16 10.41
5/3/2022 4:00:00 PM 13.1 55.58 0.058 6.89 -0.16 10.4
5/3/2022 4:15:00 PM 13.1 55.58 0.058 6.88 -0.14 10.38
5/3/2022 4:30:00 PM 13.09 55.562 0.058 6.88 -0.19 10.37
5/3/2022 4:45:00 PM 13.07 55.526 0.058 6.88 -0.12 10.35
5/3/2022 5:00:00 PM 13.05 55.49 0.058 6.88 -0.15 10.37
5/3/2022 5:15:00 PM 13.03 55.454 0.058 6.88 -0.18 10.37
5/3/2022 5:30:00 PM 12.98 55.364 0.058 6.87 -0.1 10.34
5/3/2022 5:45:00 PM 12.95 55.31 0.058 6.84 -0.11 10.34
5/3/2022 6:00:00 PM 12.93 55.274 0.058 6.85 -0.13 10.35
5/3/2022 6:15:00 PM 12.88 55.184 0.059 6.84 -0.08 10.34
5/3/2022 6:30:00 PM 12.82 55.076 0.059 6.84 -0.13 10.32
5/3/2022 6:45:00 PM 12.76 54.968 0.059 6.82 -0.17 10.32
5/3/2022 7:00:00 PM 12.68 54.824 0.059 6.81 -0.16 10.3
5/3/2022 7:15:00 PM 12.61 54.698 0.059 6.8 -0.11 10.28
5/3/2022 7:30:00 PM 12.54 54.572 0.059 6.79 -0.16 10.27
5/3/2022 7:45:00 PM 12.47 54.446 0.059 6.78 -0.09 10.26
5/3/2022 8:00:00 PM 12.41 54.338 0.059 6.76 -0.07 10.25
5/3/2022 8:15:00 PM 12.34 54.212 0.059 6.74 -0.1 10.23
5/3/2022 8:30:00 PM 12.27 54.086 0.059 6.73 -0.04 10.24
5/3/2022 8:45:00 PM 12.21 53.978 0.059 6.74 -0.02 10.25
5/3/2022 9:00:00 PM 12.15 53.87 0.059 6.71 -0.01 10.26
5/3/2022 9:15:00 PM 12.09 53.762 0.06 6.73 -0.03 10.28
5/3/2022 9:30:00 PM 12.04 53.672 0.06 6.73 -0.07 10.3
5/3/2022 9:45:00 PM 11.99 53.582 0.06 6.74 0 10.31
5/3/2022 10:00:00 PM 11.94 53.492 0.06 6.74 0.01 10.32
5/3/2022 10:15:00 PM 11.9 53.42 0.06 6.73 -0.02 10.34
5/3/2022 10:30:00 PM 11.86 53.348 0.06 6.74 0.05 10.35
5/3/2022 10:45:00 PM 11.83 53.294 0.06 6.75 -0.03 10.36
5/3/2022 11:00:00 PM 11.8 53.24 0.06 6.67 0 10.37
5/3/2022 11:15:00 PM 11.76 53.168 0.06 6.74 -0.03 10.37
5/3/2022 11:30:00 PM 11.73 53.114 0.06 6.74 -0.06 10.37
5/3/2022 11:45:00 PM 11.69 53.042 0.06 6.73 0.02 10.38
5/4/2022 12:00:00 AM 11.66 52.988 0.06 6.72 -0.01 10.39
5/4/2022 12:15:00 AM 11.63 52.934 0.06 6.74 0.08 10.41
5/4/2022 12:30:00 AM 11.58 52.844 0.06 6.74 0.09 10.42
5/4/2022 12:45:00 AM 11.55 52.79 0.059 6.73 0.14 10.44
5/4/2022 1:00:00 AM 11.5 52.7 0.059 6.74 0.11 10.44
5/4/2022 1:15:00 AM 11.47 52.646 0.059 6.74 0.09 10.45
5/4/2022 1:30:00 AM 11.43 52.574 0.059 6.71 0.18 10.46
5/4/2022 1:45:00 AM 11.39 52.502 0.059 6.73 0.14 10.46
5/4/2022 2:00:00 AM 11.35 52.43 0.059 6.74 0.19 10.47
5/4/2022 2:15:00 AM 11.31 52.358 0.059 6.74 0.22 10.48
5/4/2022 2:30:00 AM 11.27 52.286 0.059 6.74 0.25 10.49
5/4/2022 2:45:00 AM 11.22 52.196 0.059 6.74 0.24 10.49
5/4/2022 3:00:00 AM 11.18 52.124 0.059 6.73 0.26 10.5
5/4/2022 3:15:00 AM 11.15 52.07 0.059 6.74 0.41 10.51
5/4/2022 3:30:00 AM 11.12 52.016 0.059 6.74 0.23 10.52
5/4/2022 3:45:00 AM 11.08 51.944 0.059 6.74 0.41 10.53
5/4/2022 4:00:00 AM 11.05 51.89 0.059 6.73 0.32 10.54
5/4/2022 4:15:00 AM 11.02 51.836 0.059 6.74 0.39 10.55
5/4/2022 4:30:00 AM 10.99 51.782 0.059 6.74 0.36 10.56
5/4/2022 4:45:00 AM 10.96 51.728 0.059 6.74 0.22 10.56
5/4/2022 5:00:00 AM 10.93 51.674 0.059 6.74 0.32 10.57
5/4/2022 5:15:00 AM 10.9 51.62 0.059 6.74 0.3 10.58
5/4/2022 5:30:00 AM 10.87 51.566 0.059 6.71 0.31 10.59
5/4/2022 5:45:00 AM 10.85 51.53 0.059 6.75 0.34 10.6
5/4/2022 6:00:00 AM 10.82 51.476 0.059 6.74 0.29 10.61
5/4/2022 6:15:00 AM 10.79 51.422 0.059 6.75 0.29 10.62
5/4/2022 6:30:00 AM 10.76 51.368 0.059 6.74 0.32 10.63
5/4/2022 6:45:00 AM 10.74 51.332 0.059 6.74 0.32 10.66
5/4/2022 7:00:00 AM 10.72 51.296 0.059 6.75 0.29 10.67
5/4/2022 7:15:00 AM 10.71 51.278 0.059 6.72 0.28 10.69
5/4/2022 7:30:00 AM 10.69 51.242 0.059 6.76 0.27 10.71
5/4/2022 7:45:00 AM 10.68 51.224 0.059 6.76 0.21 10.73
5/4/2022 8:00:00 AM 10.67 51.206 0.059 6.78 0.26 10.75
5/4/2022 8:15:00 AM 10.66 51.188 0.059 6.77 0.25 10.75
5/4/2022 8:30:00 AM 10.65 51.17 0.059 6.78 0.2 10.77
5/4/2022 8:45:00 AM 10.65 51.17 0.06 6.79 0.19 10.78
5/4/2022 9:00:00 AM 10.65 51.17 0.06 6.79 0.19 10.81
5/4/2022 9:15:00 AM 10.65 51.17 0.06 6.8 0.23 10.82
5/4/2022 9:30:00 AM 10.66 51.188 0.059 6.81 0.18 10.84
5/4/2022 9:45:00 AM 10.66 51.188 0.059 6.76 0.26 10.84
5/4/2022 10:00:00 AM 10.68 51.224 0.059 6.82 0.19 10.87
5/4/2022 10:15:00 AM 10.71 51.278 0.059 6.83 0.2 10.88
5/4/2022 10:30:00 AM 10.72 51.296 0.059 6.83 0.22 10.88
5/4/2022 10:45:00 AM 10.73 51.314 0.059 6.84 0.15 10.87
5/4/2022 11:00:00 AM 10.73 51.314 0.059 6.83 0.19 10.86
5/4/2022 11:15:00 AM 10.74 51.332 0.059 6.84 0.21 10.86
5/4/2022 11:30:00 AM 10.75 51.35 0.059 6.83 0.14 10.86
5/4/2022 11:45:00 AM 10.76 51.368 0.059 6.84 0.23 10.86
5/4/2022 12:00:00 PM 10.78 51.404 0.059 6.81 0.18 10.87
5/4/2022 12:15:00 PM 10.79 51.422 0.059 6.83 0.16 10.88
5/4/2022 12:30:00 PM 10.81 51.458 0.059 6.85 0.18 10.88
5/4/2022 12:45:00 PM 10.84 51.512 0.059 6.84 0.15 10.88
5/4/2022 1:00:00 PM 10.88 51.584 0.059 6.86 0.14 10.89
5/4/2022 1:15:00 PM 10.95 51.71 0.059 6.87 0.1 10.88
5/4/2022 1:30:00 PM 11 51.8 0.059 6.87 0.12 10.87
5/4/2022 1:45:00 PM 11.06 51.908 0.059 6.86 0.16 10.85
5/4/2022 2:00:00 PM 11.08 51.944 0.059 6.87 0.13 10.83
5/4/2022 2:15:00 PM 11.13 52.034 0.059 6.86 0.08 10.84
5/4/2022 2:30:00 PM 11.22 52.196 0.059 6.86 0.15 10.84
5/4/2022 2:45:00 PM 11.3 52.34 0.059 6.89 0.12 10.82
5/4/2022 3:00:00 PM 11.36 52.448 0.059 6.89 0.11 10.8
5/4/2022 3:15:00 PM 11.41 52.538 0.059 6.89 0.1 10.78
5/4/2022 3:30:00 PM 11.45 52.61 0.059 6.89 0.15 10.76
5/4/2022 3:45:00 PM 11.55 52.79 0.059 6.87 0.18 10.76
5/4/2022 4:00:00 PM 11.65 52.97 0.059 6.86 0.15 10.74
5/4/2022 4:15:00 PM 11.71 53.078 0.059 6.89 0.14 10.71
5/4/2022 4:30:00 PM 11.71 53.078 0.059 6.86 0.09 10.67
5/4/2022 4:45:00 PM 11.7 53.06 0.059 6.87 0.13 10.64
5/4/2022 5:00:00 PM 11.7 53.06 0.058 6.86 0.16 10.62
5/4/2022 5:15:00 PM 11.71 53.078 0.058 6.84 0.09 10.57
5/4/2022 5:30:00 PM 11.69 53.042 0.058 6.83 0.12 10.57
5/4/2022 5:45:00 PM 11.67 53.006 0.058 6.8 0.1 10.57
5/4/2022 6:00:00 PM 11.65 52.97 0.058 6.8 0.1 10.56
5/4/2022 6:15:00 PM 11.63 52.934 0.058 6.79 0.11 10.56
5/4/2022 6:30:00 PM 11.6 52.88 0.058 6.78 0.09 10.51
5/4/2022 6:45:00 PM 11.6 52.88 0.058 6.74 0.06 10.48
5/4/2022 7:00:00 PM 11.61 52.898 0.058 6.76 0.15 10.49
5/4/2022 7:15:00 PM 11.62 52.916 0.058 6.74 0.09 10.51
5/4/2022 7:30:00 PM 11.6 52.88 0.059 6.78 0.15 10.5
5/4/2022 7:45:00 PM 11.57 52.826 0.059 6.76 0.06 10.49
5/4/2022 8:00:00 PM 11.53 52.754 0.059 6.76 0.09 10.48
5/4/2022 8:15:00 PM 11.49 52.682 0.059 6.76 0.12 10.48
5/4/2022 8:30:00 PM 11.45 52.61 0.059 6.75 0.19 10.49
5/4/2022 8:45:00 PM 11.4 52.52 0.059 6.74 0.2 10.5
5/4/2022 9:00:00 PM 11.37 52.466 0.059 6.76 0.17 10.51
5/4/2022 9:15:00 PM 11.33 52.394 0.059 6.76 0.24 10.52
5/4/2022 9:30:00 PM 11.3 52.34 0.059 6.71 0.28 10.53
5/4/2022 9:45:00 PM 11.26 52.268 0.059 6.76 0.22 10.53
5/4/2022 10:00:00 PM 11.23 52.214 0.059 6.75 0.16 10.55
5/4/2022 10:15:00 PM 11.2 52.16 0.059 6.7 0.23 10.56
5/4/2022 10:30:00 PM 11.17 52.106 0.059 6.75 0.24 10.56
5/4/2022 10:45:00 PM 11.14 52.052 0.059 6.74 0.28 10.57
5/4/2022 11:00:00 PM 11.11 51.998 0.059 6.75 0.29 10.58
5/4/2022 11:15:00 PM 11.08 51.944 0.059 6.75 0.34 10.58
5/4/2022 11:30:00 PM 11.06 51.908 0.059 6.73 0.12 10.59
5/4/2022 11:45:00 PM 11.03 51.854 0.059 6.72 0.24 10.6
5/5/2022 12:00:00 AM 11.01 51.818 0.059 6.74 0.25 10.61
5/5/2022 12:15:00 AM 10.99 51.782 0.059 6.72 0.25 10.61
5/5/2022 12:30:00 AM 10.96 51.728 0.059 6.74 0.18 10.62
5/5/2022 12:45:00 AM 10.94 51.692 0.059 6.74 0.23 10.63
5/5/2022 1:00:00 AM 10.92 51.656 0.059 6.72 0.23 10.64
5/5/2022 1:15:00 AM 10.9 51.62 0.059 6.73 0.2 10.65
5/5/2022 1:30:00 AM 10.88 51.584 0.059 6.73 0.23 10.65
5/5/2022 1:45:00 AM 10.86 51.548 0.059 6.73 0.19 10.65
5/5/2022 2:00:00 AM 10.84 51.512 0.059 6.74 0.24 10.66
5/5/2022 2:15:00 AM 10.82 51.476 0.059 6.74 0.23 10.66
5/5/2022 2:30:00 AM 10.8 51.44 0.059 6.69 0.24 10.67
5/5/2022 2:45:00 AM 10.78 51.404 0.059 6.75 0.53 10.68
5/5/2022 3:00:00 AM 10.76 51.368 0.059 6.69 0.23 10.68
5/5/2022 3:15:00 AM 10.74 51.332 0.059 6.74 0.24 10.69
5/5/2022 3:30:00 AM 10.71 51.278 0.059 6.74 0.27 10.69
5/5/2022 3:45:00 AM 10.68 51.224 0.059 6.74 0.2 10.7
5/5/2022 4:00:00 AM 10.64 51.152 0.059 6.74 0.26 10.71
5/5/2022 4:15:00 AM 10.59 51.062 0.059 6.72 0.19 10.73
5/5/2022 4:30:00 AM 10.54 50.972 0.059 6.73 0.25 10.73
5/5/2022 4:45:00 AM 10.49 50.882 0.059 6.68 0.16 10.74
5/5/2022 5:00:00 AM 10.44 50.792 0.059 6.73 0.15 10.75
5/5/2022 5:15:00 AM 10.39 50.702 0.059 6.72 0.19 10.75
5/5/2022 5:30:00 AM 10.34 50.612 0.059 6.73 0.22 10.77
5/5/2022 5:45:00 AM 10.3 50.54 0.059 6.73 0.08 10.79
5/5/2022 6:00:00 AM 10.25 50.45 0.059 6.72 0.19 10.81
5/5/2022 6:15:00 AM 10.21 50.378 0.059 6.68 0.11 10.84
5/5/2022 6:30:00 AM 10.17 50.306 0.059 6.72 0.15 10.87
5/5/2022 6:45:00 AM 10.13 50.234 0.059 6.75 0.13 10.9
5/5/2022 7:00:00 AM 10.1 50.18 0.059 6.76 0.06 10.94
5/5/2022 7:15:00 AM 10.07 50.126 0.059 6.77 0.14 10.97
5/5/2022 7:30:00 AM 10.05 50.09 0.059 6.76 0.09 11.01
5/5/2022 7:45:00 AM 10.04 50.072 0.059 6.75 0.06 11.04
5/5/2022 8:00:00 AM 10.04 50.072 0.059 6.8 0.06 11.07
5/5/2022 8:15:00 AM 10.05 50.09 0.059 6.8 0.08 11.09
5/5/2022 8:30:00 AM 10.08 50.144 0.059 6.81 0.08 11.11
5/5/2022 8:45:00 AM 10.13 50.234 0.059 6.83 0 11.12
5/5/2022 9:00:00 AM 10.19 50.342 0.059 6.83 0.03 11.12
5/5/2022 9:15:00 AM 10.27 50.486 0.059 6.85 0.09 11.12
5/5/2022 9:30:00 AM 10.38 50.684 0.059 6.86 0.04 11.1
5/5/2022 9:45:00 AM 10.49 50.882 0.059 6.87 0.06 11.09
5/5/2022 10:00:00 AM 10.62 51.116 0.058 6.87 0.02 11.08
5/5/2022 10:15:00 AM 10.76 51.368 0.058 6.88 0.08 11.05
5/5/2022 10:30:00 AM 10.92 51.656 0.058 6.89 0.09 11.01
5/5/2022 10:45:00 AM 11.1 51.98 0.058 6.88 0.02 10.98
5/5/2022 11:00:00 AM 11.31 52.358 0.058 6.89 0.07 10.94
5/5/2022 11:15:00 AM 11.53 52.754 0.058 6.88 0.06 10.89
5/5/2022 11:30:00 AM 11.78 53.204 0.058 6.89 0.06 10.82
5/5/2022 11:45:00 AM 12.05 53.69 0.058 6.91 0.02 10.77
5/5/2022 12:00:00 PM 12.3 54.14 0.058 6.9 0.07 10.69
5/5/2022 12:15:00 PM 12.51 54.518 0.058 6.88 0.03 10.65
5/5/2022 12:30:00 PM 12.79 55.022 0.058 6.91 0 10.59
5/5/2022 12:45:00 PM 13 55.4 0.058 6.88 0 10.52
5/5/2022 1:00:00 PM 13.2 55.76 0.058 6.91 0.08 10.49
5/5/2022 1:15:00 PM 13.34 56.012 0.058 6.9 -0.03 10.45
5/5/2022 1:30:00 PM 13.41 56.138 0.058 6.93 0.02 10.42
5/5/2022 1:45:00 PM 13.45 56.21 0.058 6.93 -0.03 10.4
5/5/2022 2:00:00 PM 13.51 56.318 0.058 6.93 0.02 10.38
5/5/2022 2:15:00 PM 13.68 56.624 0.058 6.92 0.04 10.34
5/5/2022 2:30:00 PM 13.79 56.822 0.058 6.93 0 10.31
5/5/2022 2:45:00 PM 13.86 56.948 0.059 6.93 0 10.28
5/5/2022 3:00:00 PM 13.92 57.056 0.059 6.93 0.05 10.25
5/5/2022 3:15:00 PM 13.96 57.128 0.059 6.92 0.06 10.23
5/5/2022 3:30:00 PM 13.98 57.164 0.059 6.92 -0.01 10.21
5/5/2022 3:45:00 PM 13.97 57.146 0.059 6.92 -0.01 10.19
5/5/2022 4:00:00 PM 13.96 57.128 0.059 6.91 0.01 10.2
5/5/2022 4:15:00 PM 13.96 57.128 0.059 6.89 0.03 10.19
5/5/2022 4:30:00 PM 13.92 57.056 0.059 6.91 0.01 10.18
5/5/2022 4:45:00 PM 13.86 56.948 0.059 6.91 -0.02 10.16
5/5/2022 5:00:00 PM 13.79 56.822 0.059 6.9 0 10.16
5/5/2022 5:15:00 PM 13.71 56.678 0.059 6.88 -0.02 10.14
5/5/2022 5:30:00 PM 13.66 56.588 0.059 6.86 -0.02 10.14
5/5/2022 5:45:00 PM 13.6 56.48 0.059 6.88 0.01 10.14
5/5/2022 6:00:00 PM 13.53 56.354 0.059 6.87 0.02 10.14
5/5/2022 6:15:00 PM 13.48 56.264 0.059 6.83 0.03 10.16
5/5/2022 6:30:00 PM 13.42 56.156 0.059 6.83 -0.05 10.18
5/5/2022 6:45:00 PM 13.36 56.048 0.059 6.85 -0.04 10.18
5/5/2022 7:00:00 PM 13.3 55.94 0.059 6.84 -0.05 10.18
5/5/2022 7:15:00 PM 13.22 55.796 0.059 6.83 -0.01 10.17
5/5/2022 7:30:00 PM 13.15 55.67 0.059 6.82 0.01 10.15
5/5/2022 7:45:00 PM 13.08 55.544 0.059 6.72 -0.02 10.14
5/5/2022 8:00:00 PM 13.01 55.418 0.059 6.78 -0.06 10.11
5/5/2022 8:15:00 PM 12.93 55.274 0.059 6.75 0.01 10.11
5/5/2022 8:30:00 PM 12.85 55.13 0.059 6.76 0.1 10.11
5/5/2022 8:45:00 PM 12.76 54.968 0.059 6.76 0.05 10.13
5/5/2022 9:00:00 PM 12.68 54.824 0.059 6.75 0.09 10.14
5/5/2022 9:15:00 PM 12.6 54.68 0.059 6.75 0.07 10.16
5/5/2022 9:30:00 PM 12.52 54.536 0.059 6.74 0.09 10.18
5/5/2022 9:45:00 PM 12.45 54.41 0.059 6.75 0.07 10.19
5/5/2022 10:00:00 PM 12.39 54.302 0.059 6.74 0.06 10.2
5/5/2022 10:15:00 PM 12.33 54.194 0.059 6.71 0.02 10.21
5/5/2022 10:30:00 PM 12.28 54.104 0.059 6.74 0.18 10.23
5/5/2022 10:45:00 PM 12.23 54.014 0.059 6.74 0.14 10.24
5/5/2022 11:00:00 PM 12.18 53.924 0.06 6.71 0.18 10.26
5/5/2022 11:15:00 PM 12.13 53.834 0.06 6.73 0.16 10.27
5/5/2022 11:30:00 PM 12.09 53.762 0.06 6.74 0.28 10.28
5/5/2022 11:45:00 PM 12.05 53.69 0.06 6.74 0.14 10.29
5/6/2022 12:00:00 AM 12 53.6 0.06 6.74 0.19 10.3
5/6/2022 12:15:00 AM 11.96 53.528 0.06 6.74 0.19 10.31
5/6/2022 12:30:00 AM 11.92 53.456 0.06 6.74 0.23 10.32
5/6/2022 12:45:00 AM 11.88 53.384 0.06 6.71 0.14 10.33
5/6/2022 1:00:00 AM 11.84 53.312 0.06 6.72 0.21 10.34
5/6/2022 1:15:00 AM 11.8 53.24 0.06 6.74 0.18 10.34
5/6/2022 1:30:00 AM 11.76 53.168 0.06 6.74 0.16 10.35
5/6/2022 1:45:00 AM 11.71 53.078 0.06 6.73 0.11 10.36
5/6/2022 2:00:00 AM 11.68 53.024 0.06 6.73 0.28 10.37
5/6/2022 2:15:00 AM 11.64 52.952 0.06 6.63 0.16 10.38
5/6/2022 2:30:00 AM 11.6 52.88 0.06 6.73 0.16 10.4
5/6/2022 2:45:00 AM 11.56 52.808 0.06 6.72 0.11 10.4
5/6/2022 3:00:00 AM 11.52 52.736 0.06 6.73 0.18 10.41
5/6/2022 3:15:00 AM 11.48 52.664 0.06 6.72 0.13 10.42
5/6/2022 3:30:00 AM 11.44 52.592 0.06 6.73 0.17 10.43
5/6/2022 3:45:00 AM 11.41 52.538 0.06 6.73 0.14 10.44
5/6/2022 4:00:00 AM 11.36 52.448 0.06 6.73 0.17 10.45
5/6/2022 4:15:00 AM 11.32 52.376 0.06 6.73 0.16 10.46
5/6/2022 4:30:00 AM 11.28 52.304 0.06 6.74 0.13 10.48
5/6/2022 4:45:00 AM 11.24 52.232 0.06 6.74 0.08 10.48
5/6/2022 5:00:00 AM 11.2 52.16 0.06 6.74 0.12 10.49
5/6/2022 5:15:00 AM 11.16 52.088 0.06 6.74 0.12 10.5
5/6/2022 5:30:00 AM 11.12 52.016 0.06 6.74 0.22 10.5
5/6/2022 5:45:00 AM 11.08 51.944 0.06 6.67 0.15 10.51
5/6/2022 6:00:00 AM 11.04 51.872 0.06 6.74 0.17 10.52
5/6/2022 6:15:00 AM 11.01 51.818 0.06 6.73 0.23 10.53
5/6/2022 6:30:00 AM 10.98 51.764 0.06 6.75 0.11 10.55
5/6/2022 6:45:00 AM 10.94 51.692 0.06 6.73 0.18 10.57
5/6/2022 7:00:00 AM 10.9 51.62 0.06 6.76 0.1 10.59
5/6/2022 7:15:00 AM 10.88 51.584 0.06 6.75 0.1 10.62
5/6/2022 7:30:00 AM 10.85 51.53 0.06 6.77 0.1 10.63
5/6/2022 7:45:00 AM 10.83 51.494 0.06 6.78 0.09 10.66
5/6/2022 8:00:00 AM 10.8 51.44 0.06 6.79 0.16 10.7
5/6/2022 8:15:00 AM 10.78 51.404 0.06 6.78 0.08 10.72
5/6/2022 8:30:00 AM 10.77 51.386 0.06 6.77 0.09 10.75
5/6/2022 8:45:00 AM 10.77 51.386 0.06 6.81 0.15 10.78
5/6/2022 9:00:00 AM 10.77 51.386 0.059 6.81 0.09 10.8
5/6/2022 9:15:00 AM 10.75 51.35 0.059 6.82 0.15 10.78
5/6/2022 9:30:00 AM 10.75 51.35 0.059 6.83 0.11 10.79
5/6/2022 9:45:00 AM 10.75 51.35 0.059 6.84 0.1 10.83
5/6/2022 10:00:00 AM 10.75 51.35 0.059 6.81 0.03 10.84
5/6/2022 10:15:00 AM 10.75 51.35 0.059 6.84 0.08 10.84
5/6/2022 10:30:00 AM 10.76 51.368 0.059 6.82 0.08 10.84
5/6/2022 10:45:00 AM 10.76 51.368 0.059 6.83 0.09 10.84
5/6/2022 11:00:00 AM 10.77 51.386 0.059 6.86 0.06 10.85
5/6/2022 11:15:00 AM 10.78 51.404 0.059 6.86 0.1 10.84
5/6/2022 11:30:00 AM 10.78 51.404 0.059 6.85 0.14 10.83
5/6/2022 11:45:00 AM 10.78 51.404 0.059 6.84 0.21 10.82
5/6/2022 12:00:00 PM 10.79 51.422 0.058 6.86 0.2 10.84
5/6/2022 12:15:00 PM 10.79 51.422 0.058 6.86 0.19 10.83
5/6/2022 12:30:00 PM 10.78 51.404 0.058 6.82 0.15 10.82
5/6/2022 12:45:00 PM 10.78 51.404 0.058 6.85 0.29 10.81
5/6/2022 1:00:00 PM 10.78 51.404 0.058 6.85 0.42 10.81
5/6/2022 1:15:00 PM 10.79 51.422 0.058 6.84 0.38 10.81
5/6/2022 1:30:00 PM 10.8 51.44 0.058 6.86 0.38 10.82
5/6/2022 1:45:00 PM 10.8 51.44 0.058 6.86 0.51 10.81
5/6/2022 2:00:00 PM 10.81 51.458 0.058 6.86 0.48 10.81
5/6/2022 2:15:00 PM 10.82 51.476 0.058 6.86 0.59 10.82
5/6/2022 2:30:00 PM 10.83 51.494 0.057 6.85 0.74 10.8
5/6/2022 2:45:00 PM 10.84 51.512 0.057 6.86 0.94 10.8
5/6/2022 3:00:00 PM 10.84 51.512 0.057 6.84 1.27 10.79
5/6/2022 3:15:00 PM 10.85 51.53 0.057 6.86 1.44 10.79
5/6/2022 3:30:00 PM 10.86 51.548 0.057 6.86 1.67 10.79
5/6/2022 3:45:00 PM 10.87 51.566 0.057 6.86 2.08 10.79
5/6/2022 4:00:00 PM 10.87 51.566 0.057 6.86 2.49 10.77
5/6/2022 4:15:00 PM 10.87 51.566 0.057 6.87 3.08 10.77
5/6/2022 4:30:00 PM 10.87 51.566 0.057 6.85 3.43 10.75
5/6/2022 4:45:00 PM 10.87 51.566 0.057 6.86 3.8 10.74
5/6/2022 5:00:00 PM 10.86 51.548 0.057 6.8 4.1 10.72
5/6/2022 5:15:00 PM 10.86 51.548 0.057 6.85 4.33 10.72
5/6/2022 5:30:00 PM 10.86 51.548 0.057 6.86 4.64 10.73
5/6/2022 5:45:00 PM 10.85 51.53 0.056 6.86 4.75 10.7
5/6/2022 6:00:00 PM 10.84 51.512 0.056 6.82 5.34 10.67
5/6/2022 6:15:00 PM 10.82 51.476 0.056 6.84 5.65 10.68
5/6/2022 6:30:00 PM 10.8 51.44 0.056 6.78 5.73 10.68
5/6/2022 6:45:00 PM 10.78 51.404 0.056 6.81 5.54 10.69
5/6/2022 7:00:00 PM 10.76 51.368 0.056 6.8 5.49 10.69
5/6/2022 7:15:00 PM 10.74 51.332 0.056 6.79 5.64 10.68
5/6/2022 7:30:00 PM 10.72 51.296 0.056 6.79 5.98 10.68
5/6/2022 7:45:00 PM 10.7 51.26 0.056 6.79 5.85 10.68
5/6/2022 8:00:00 PM 10.68 51.224 0.056 6.77 5.53 10.68
5/6/2022 8:15:00 PM 10.66 51.188 0.056 6.77 5.14 10.68
5/6/2022 8:30:00 PM 10.64 51.152 0.056 6.74 5.31 10.68
5/6/2022 8:45:00 PM 10.62 51.116 0.056 6.72 5.02 10.68
5/6/2022 9:00:00 PM 10.6 51.08 0.056 6.74 5.03 10.69
5/6/2022 9:15:00 PM 10.58 51.044 0.056 6.73 5 10.7
5/6/2022 9:30:00 PM 10.56 51.008 0.056 6.71 4.76 10.7
5/6/2022 9:45:00 PM 10.55 50.99 0.056 6.72 4.94 10.71
5/6/2022 10:00:00 PM 10.53 50.954 0.056 6.71 5.02 10.71
5/6/2022 10:15:00 PM 10.51 50.918 0.056 6.7 5.01 10.72
5/6/2022 10:30:00 PM 10.49 50.882 0.056 6.69 4.68 10.72
5/6/2022 10:45:00 PM 10.47 50.846 0.056 6.7 4.56 10.72
5/6/2022 11:00:00 PM 10.45 50.81 0.056 6.71 4.87 10.72
5/6/2022 11:15:00 PM 10.43 50.774 0.056 6.68 4.81 10.73
5/6/2022 11:30:00 PM 10.42 50.756 0.056 6.7 4.98 10.73
5/6/2022 11:45:00 PM 10.4 50.72 0.056 6.7 4.9 10.73
5/7/2022 12:00:00 AM 10.38 50.684 0.056 6.7 5.41 10.74
5/7/2022 12:15:00 AM 10.36 50.648 0.056 6.7 5.03 10.74
5/7/2022 12:30:00 AM 10.33 50.594 0.056 6.69 5.14 10.75
5/7/2022 12:45:00 AM 10.31 50.558 0.055 6.69 5.4 10.76
5/7/2022 1:00:00 AM 10.29 50.522 0.055 6.68 5.31 10.76
5/7/2022 1:15:00 AM 10.27 50.486 0.055 6.68 5.3 10.77
5/7/2022 1:30:00 AM 10.25 50.45 0.055 6.68 5.07 10.77
5/7/2022 1:45:00 AM 10.23 50.414 0.055 6.68 4.82 10.77
5/7/2022 2:00:00 AM 10.21 50.378 0.055 6.67 4.83 10.79
5/7/2022 2:15:00 AM 10.19 50.342 0.055 6.68 4.67 10.78
5/7/2022 2:30:00 AM 10.18 50.324 0.055 6.66 4.62 10.79
5/7/2022 2:45:00 AM 10.16 50.288 0.055 6.66 4.64 10.79
5/7/2022 3:00:00 AM 10.14 50.252 0.055 6.65 4.49 10.79
5/7/2022 3:15:00 AM 10.12 50.216 0.055 6.67 4.21 10.8
5/7/2022 3:30:00 AM 10.1 50.18 0.055 6.67 4.36 10.81
5/7/2022 3:45:00 AM 10.08 50.144 0.055 6.67 3.85 10.81
5/7/2022 4:00:00 AM 10.06 50.108 0.055 6.65 3.88 10.82
5/7/2022 4:15:00 AM 10.04 50.072 0.055 6.66 3.78 10.82
5/7/2022 4:30:00 AM 10.01 50.018 0.055 6.66 3.62 10.82
5/7/2022 4:45:00 AM 9.99 49.982 0.055 6.66 3.63 10.83
5/7/2022 5:00:00 AM 9.96 49.928 0.055 6.65 3.41 10.84
5/7/2022 5:15:00 AM 9.94 49.892 0.055 6.65 3.34 10.84
5/7/2022 5:30:00 AM 9.92 49.856 0.056 6.65 3.29 10.85
5/7/2022 5:45:00 AM 9.9 49.82 0.056 6.65 3.08 10.84
5/7/2022 6:00:00 AM 9.88 49.784 0.056 6.64 3.04 10.86
5/7/2022 6:15:00 AM 9.86 49.748 0.056 6.65 2.95 10.86
5/7/2022 6:30:00 AM 9.84 49.712 0.056 6.65 3.06 10.86
5/7/2022 6:45:00 AM 9.82 49.676 0.056 6.65 2.81 10.88
5/7/2022 7:00:00 AM 9.8 49.64 0.056 6.65 2.8 10.88
5/7/2022 7:15:00 AM 9.78 49.604 0.056 6.65 2.68 10.9
5/7/2022 7:30:00 AM 9.77 49.586 0.056 6.65 2.66 10.91
5/7/2022 7:45:00 AM 9.74 49.532 0.056 6.65 2.64 10.92
5/7/2022 8:00:00 AM 9.72 49.496 0.056 6.66 2.43 10.94
5/7/2022 8:15:00 AM 9.68 49.424 0.056 6.66 2.5 10.95
5/7/2022 8:30:00 AM 9.65 49.37 0.056 6.66 2.36 10.97
5/7/2022 8:45:00 AM 9.62 49.316 0.056 6.66 2.44 10.99
5/7/2022 9:00:00 AM 9.59 49.262 0.056 6.66 2.41 11.01
5/7/2022 9:15:00 AM 9.56 49.208 0.056 6.67 2.35 11.03
5/7/2022 9:30:00 AM 9.53 49.154 0.056 6.67 2.48 11.04
5/7/2022 9:45:00 AM 9.5 49.1 0.056 6.68 2.82 11.06